Darstellungsparameter: Aktuell verwendete Einstellungen:
Skalierung der Graphiken ... ?
xyx+y,   Skalierungsfaktor:      Skalierung: Modus: x, Faktor: 1
Darstellungszeitraum ... ?
Vom - - bis: - -   Zeitraum: 12.07.2021 - 25.07.2021
Min/Max/Avg-Anzeige ... ?
Zeige MMA aktuell
Zeige MMA Monat
Zeige MMA alles
Zeige --A aktuell
Zeige --A Monat
Zeige --A alles
Keine MMA-Anzeige
MMA:
Minimum Maximum Average (ber die Originaldaten)
MMA-Basis: 24.06.2021 - 26.07.2021
Quicknavigation für Darstellung... ?
Tage:      1T, 2T, 3T, 5T -1T -2T -3T -5T +1T +2T +3T +5T
Wochen: 1W, 2W, 3W -1W -2W -3W +1W +2W +3W
Monate: 1M, 3M, 6M -1M -3M -6M +1M +3M +6M
Jahre:    1J, 3J, 5J, 10J -1J -3J -5J -10J +1J +3J +5J +10J
Nutze für die Darstellung ... ?
Originaldaten oder Mittelwerte auf ...
Stundenbasis Tagesbasis Wochenbasis
Monatsbasis Jahresbasis      Datenbasis: Original-Daten
Darstellen als:
Statistik (Auto) Statistik J:M      Darstellung:
Zur Graphik,    zurück zur Übersicht aller Sensoren.
 
Tabellarische Datenbersicht: ?
 
Sensor: Nr:Datum:Temp:Abs-Feuchte:Windchill:Wind:
Aussen-T/F 1 12-07-2021 00:00:00 15.3 C 12.28 g/m*3 15.3 C 0 km/h
2 12-07-2021 00:05:00 15.2 C 12.2 g/m*3 15.2 C 0 km/h
3 12-07-2021 00:10:00 15.2 C 12.2 g/m*3 15.2 C 0 km/h
4 12-07-2021 00:15:00 15.1 C 12.13 g/m*3 15.1 C 0 km/h
5 12-07-2021 00:20:00 15 C 12.05 g/m*3 15 C 0 km/h
6 12-07-2021 00:25:00 14.9 C 11.98 g/m*3 14.9 C 0 km/h
7 12-07-2021 00:30:00 14.9 C 11.98 g/m*3 14.9 C 0 km/h
8 12-07-2021 00:35:00 14.8 C 11.91 g/m*3 14.8 C 0 km/h
9 12-07-2021 00:40:00 14.8 C 11.91 g/m*3 14.8 C 0 km/h
10 12-07-2021 00:45:00 14.8 C 11.91 g/m*3 14.8 C 0 km/h
11 12-07-2021 00:50:00 14.7 C 11.83 g/m*3 14.7 C 0 km/h
12 12-07-2021 00:55:00 14.7 C 11.96 g/m*3 14.7 C 0 km/h
13 12-07-2021 01:00:00 14.6 C 11.89 g/m*3 14.6 C 0 km/h
14 12-07-2021 01:05:00 14.6 C 11.89 g/m*3 14.6 C 0 km/h
15 12-07-2021 01:10:00 14.5 C 11.82 g/m*3 14.5 C 0 km/h
16 12-07-2021 01:15:00 14.6 C 11.89 g/m*3 14.6 C 0 km/h
17 12-07-2021 01:20:00 14.5 C 11.82 g/m*3 14.5 C 0 km/h
18 12-07-2021 01:25:00 14.4 C 11.74 g/m*3 14.4 C 0 km/h
19 12-07-2021 01:30:00 14.4 C 11.74 g/m*3 14.4 C 0 km/h
20 12-07-2021 01:35:00 14.4 C 11.74 g/m*3 14.4 C 0 km/h
21 12-07-2021 01:40:00 14.3 C 11.67 g/m*3 14.3 C 0 km/h
22 12-07-2021 01:45:00 14.3 C 11.67 g/m*3 14.3 C 0 km/h
23 12-07-2021 01:50:00 14.3 C 11.67 g/m*3 14.3 C 0 km/h
24 12-07-2021 01:55:00 14.2 C 11.6 g/m*3 14.2 C 0 km/h
25 12-07-2021 02:00:00 14.2 C 11.6 g/m*3 14.2 C 0 km/h
Sensor: Nr:Datum:Temp:Abs-Feuchte:Windchill:Wind:
Aussen-T/F 26 12-07-2021 02:05:00 14.1 C 11.53 g/m*3 14.1 C 0 km/h
27 12-07-2021 02:10:00 14 C 11.46 g/m*3 14 C 0 km/h
28 12-07-2021 02:15:00 14 C 11.46 g/m*3 14 C 0 km/h
29 12-07-2021 02:20:00 13.9 C 11.39 g/m*3 13.9 C 0 km/h
30 12-07-2021 02:25:00 13.9 C 11.39 g/m*3 13.9 C 0 km/h
31 12-07-2021 02:30:00 13.8 C 11.32 g/m*3 13.8 C 0 km/h
32 12-07-2021 02:35:00 13.8 C 11.32 g/m*3 13.8 C 0 km/h
33 12-07-2021 02:40:00 13.8 C 11.32 g/m*3 13.8 C 0 km/h
34 12-07-2021 02:45:00 13.7 C 11.25 g/m*3 13.7 C 0 km/h
35 12-07-2021 02:50:00 13.7 C 11.25 g/m*3 13.7 C 0 km/h
36 12-07-2021 02:55:00 13.6 C 11.18 g/m*3 13.6 C 0 km/h
37 12-07-2021 03:00:00 13.6 C 11.18 g/m*3 13.6 C 0 km/h
38 12-07-2021 03:05:00 13.6 C 11.18 g/m*3 13.6 C 0 km/h
39 12-07-2021 03:10:00 13.5 C 11.11 g/m*3 13.5 C 0 km/h
40 12-07-2021 03:15:00 13.4 C 11.04 g/m*3 13.4 C 0 km/h
41 12-07-2021 03:20:00 13.5 C 11.23 g/m*3 13.5 C 0 km/h
42 12-07-2021 03:25:00 13.5 C 11.23 g/m*3 13.5 C 0 km/h
43 12-07-2021 03:30:00 13.5 C 11.23 g/m*3 13.5 C 0 km/h
44 12-07-2021 03:35:00 13.4 C 11.16 g/m*3 13.4 C 0 km/h
45 12-07-2021 03:40:00 13.3 C 11.09 g/m*3 13.3 C 0 km/h
46 12-07-2021 03:45:00 13.3 C 11.09 g/m*3 13.3 C 0 km/h
47 12-07-2021 03:50:00 13.2 C 11.02 g/m*3 13.2 C 0 km/h
48 12-07-2021 03:55:00 13.2 C 11.02 g/m*3 13.2 C 0 km/h
49 12-07-2021 04:00:00 13.2 C 11.02 g/m*3 13.2 C 0 km/h
50 12-07-2021 04:05:00 13.2 C 11.02 g/m*3 13.2 C 0 km/h
Sensor: Nr:Datum:Temp:Abs-Feuchte:Windchill:Wind:
Aussen-T/F 51 12-07-2021 04:10:00 13.2 C 11.02 g/m*3 13.2 C 0 km/h
52 12-07-2021 04:15:00 13.2 C 11.02 g/m*3 13.2 C 0 km/h
53 12-07-2021 04:20:00 13.3 C 11.09 g/m*3 13.3 C 1.6 km/h
54 12-07-2021 04:25:00 13.4 C 11.28 g/m*3 13.4 C 0 km/h
55 12-07-2021 04:30:00 13.5 C 11.35 g/m*3 13.5 C 0 km/h
56 12-07-2021 04:35:00 13.6 C 11.3 g/m*3 13.6 C 0 km/h
57 12-07-2021 04:40:00 13.7 C 11.37 g/m*3 13.7 C 0 km/h
58 12-07-2021 04:45:00 13.8 C 11.56 g/m*3 13.8 C 0 km/h
59 12-07-2021 04:50:00 13.8 C 11.56 g/m*3 13.8 C 0 km/h
60 12-07-2021 04:55:00 13.9 C 11.63 g/m*3 13.9 C 0 km/h
61 12-07-2021 05:00:00 14 C 11.7 g/m*3 14 C 0 km/h
62 12-07-2021 05:05:00 14.2 C 11.84 g/m*3 14.2 C 1.6 km/h
63 12-07-2021 05:10:00 14.2 C 11.84 g/m*3 14.2 C 0 km/h
64 12-07-2021 05:15:00 14.3 C 11.92 g/m*3 14.3 C 0 km/h
65 12-07-2021 05:20:00 14.3 C 11.92 g/m*3 14.3 C 3.2 km/h
66 12-07-2021 05:25:00 14.3 C 11.92 g/m*3 14.3 C 3.2 km/h
67 12-07-2021 05:30:00 14.2 C 11.84 g/m*3 14.2 C 1.6 km/h
68 12-07-2021 05:35:00 14.2 C 11.84 g/m*3 14.2 C 0 km/h
69 12-07-2021 05:40:00 14.2 C 11.84 g/m*3 14.2 C 0 km/h
70 12-07-2021 05:45:00 14.2 C 11.84 g/m*3 14.2 C 0 km/h
71 12-07-2021 05:50:00 14.1 C 11.77 g/m*3 14.1 C 0 km/h
72 12-07-2021 05:55:00 14.2 C 11.84 g/m*3 14.2 C 0 km/h
73 12-07-2021 06:00:00 14.2 C 11.84 g/m*3 14.2 C 1.6 km/h
74 12-07-2021 06:05:00 14.1 C 11.77 g/m*3 14.1 C 1.6 km/h
75 12-07-2021 06:10:00 14.1 C 11.77 g/m*3 14.1 C 0 km/h
Sensor: Nr:Datum:Temp:Abs-Feuchte:Windchill:Wind:
Aussen-T/F 76 12-07-2021 06:15:00 14.2 C 11.84 g/m*3 14.2 C 0 km/h
77 12-07-2021 06:20:00 14.2 C 11.84 g/m*3 14.2 C 3.2 km/h
78 12-07-2021 06:25:00 14.2 C 11.84 g/m*3 14.2 C 1.6 km/h
79 12-07-2021 06:30:00 14.2 C 11.84 g/m*3 14.2 C 1.6 km/h
80 12-07-2021 06:35:00 14.2 C 11.84 g/m*3 14.2 C 0 km/h
81 12-07-2021 06:40:00 14.1 C 11.77 g/m*3 14.1 C 1.6 km/h
82 12-07-2021 06:45:00 14.1 C 11.77 g/m*3 14.1 C 3.2 km/h
83 12-07-2021 06:50:00 14.1 C 11.77 g/m*3 14.1 C 1.6 km/h
84 12-07-2021 06:55:00 14.1 C 11.77 g/m*3 14.1 C 0 km/h
85 12-07-2021 07:00:00 14.1 C 11.77 g/m*3 14.1 C 0 km/h
86 12-07-2021 07:05:00 14.1 C 11.77 g/m*3 14.1 C 0 km/h
87 12-07-2021 07:10:00 14.2 C 11.84 g/m*3 14.2 C 0 km/h
88 12-07-2021 07:15:00 14.2 C 11.84 g/m*3 14.2 C 1.6 km/h
89 12-07-2021 07:20:00 14.2 C 11.84 g/m*3 14.2 C 0 km/h
90 12-07-2021 07:25:00 14.2 C 11.84 g/m*3 14.2 C 0 km/h
91 12-07-2021 07:30:00 14.3 C 11.92 g/m*3 14.3 C 0 km/h
92 12-07-2021 07:35:00 14.3 C 11.92 g/m*3 14.3 C 0 km/h
93 12-07-2021 07:40:00 14.3 C 11.92 g/m*3 14.3 C 0 km/h
94 12-07-2021 07:45:00 14.4 C 11.99 g/m*3 14.4 C 0 km/h
95 12-07-2021 07:50:00 14.4 C 11.99 g/m*3 14.4 C 0 km/h
96 12-07-2021 07:55:00 14.5 C 12.06 g/m*3 14.5 C 0 km/h
97 12-07-2021 08:00:00 14.4 C 11.99 g/m*3 14.4 C 0 km/h
98 12-07-2021 08:05:00 14.4 C 11.99 g/m*3 14.4 C 0 km/h
99 12-07-2021 08:10:00 14.5 C 12.06 g/m*3 14.5 C 0 km/h
100 12-07-2021 08:15:00 14.6 C 12.14 g/m*3 14.6 C 0 km/h
Sensor: Nr:Datum:Temp:Abs-Feuchte:Windchill:Wind:
Aussen-T/F 101 12-07-2021 08:20:00 14.7 C 12.21 g/m*3 14.7 C 0 km/h
102 12-07-2021 08:25:00 14.7 C 12.21 g/m*3 14.7 C 0 km/h
103 12-07-2021 08:30:00 14.8 C 12.29 g/m*3 14.8 C 0 km/h
104 12-07-2021 08:35:00 14.9 C 12.36 g/m*3 14.9 C 0 km/h
105 12-07-2021 08:40:00 15 C 12.57 g/m*3 15 C 0 km/h
106 12-07-2021 08:45:00 15.2 C 12.59 g/m*3 15.2 C 0 km/h
107 12-07-2021 08:50:00 15.2 C 12.59 g/m*3 15.2 C 0 km/h
108 12-07-2021 08:55:00 15.2 C 12.59 g/m*3 15.2 C 0 km/h
109 12-07-2021 09:00:00 15.3 C 12.8 g/m*3 15.3 C 0 km/h
110 12-07-2021 09:05:00 15.4 C 12.88 g/m*3 15.4 C 0 km/h
111 12-07-2021 09:10:00 15.6 C 12.9 g/m*3 15.6 C 0 km/h
112 12-07-2021 09:15:00 15.7 C 13.11 g/m*3 15.7 C 0 km/h
113 12-07-2021 09:20:00 15.8 C 13.19 g/m*3 15.8 C 0 km/h
114 12-07-2021 09:25:00 15.9 C 13.27 g/m*3 15.9 C 0 km/h
115 12-07-2021 09:30:00 16 C 13.22 g/m*3 16 C 0 km/h
116 12-07-2021 09:35:00 16.1 C 13.43 g/m*3 16.1 C 0 km/h
117 12-07-2021 09:40:00 16.2 C 13.38 g/m*3 16.2 C 0 km/h
118 12-07-2021 09:45:00 16.3 C 13.6 g/m*3 16.3 C 0 km/h
119 12-07-2021 09:50:00 16.5 C 13.76 g/m*3 16.5 C 0 km/h
120 12-07-2021 09:55:00 16.7 C 13.93 g/m*3 16.7 C 0 km/h
121 12-07-2021 10:00:00 16.9 C 14.1 g/m*3 16.9 C 8.1 km/h
122 12-07-2021 10:05:00 17.1 C 14.27 g/m*3 17.1 C 6.4 km/h
123 12-07-2021 10:10:00 17.4 C 14.52 g/m*3 17.4 C 3.2 km/h
124 12-07-2021 10:15:00 17.6 C 14.7 g/m*3 17.6 C 0 km/h
125 12-07-2021 10:20:00 17.7 C 14.79 g/m*3 17.7 C 1.6 km/h
Sensor: Nr:Datum:Temp:Abs-Feuchte:Windchill:Wind:
Aussen-T/F 126 12-07-2021 10:25:00 17.9 C 14.81 g/m*3 17.9 C 0 km/h
127 12-07-2021 10:30:00 18.2 C 15.08 g/m*3 18.2 C 0 km/h
128 12-07-2021 10:35:00 18.2 C 15.08 g/m*3 18.2 C 3.2 km/h
129 12-07-2021 10:40:00 18.3 C 15.01 g/m*3 18.3 C 4.8 km/h
130 12-07-2021 10:45:00 18.6 C 15.12 g/m*3 18.6 C 1.6 km/h
131 12-07-2021 10:50:00 18.8 C 15.14 g/m*3 18.8 C 9.7 km/h
132 12-07-2021 10:55:00 19.1 C 14.92 g/m*3 19.1 C 11.3 km/h
133 12-07-2021 11:00:00 19.6 C 15.02 g/m*3 19.6 C 11.3 km/h
134 12-07-2021 11:05:00 20 C 15.21 g/m*3 20 C 9.7 km/h
135 12-07-2021 11:10:00 20.3 C 14.95 g/m*3 20.3 C 6.4 km/h
136 12-07-2021 11:15:00 20.6 C 14.86 g/m*3 20.6 C 9.7 km/h
137 12-07-2021 11:20:00 20.8 C 14.85 g/m*3 20.8 C 8.1 km/h
138 12-07-2021 11:25:00 21.1 C 14.74 g/m*3 21.1 C 9.7 km/h
139 12-07-2021 11:30:00 21.3 C 14.73 g/m*3 21.3 C 11.3 km/h
140 12-07-2021 11:35:00 21.3 C 14.54 g/m*3 21.3 C 12.9 km/h
141 12-07-2021 11:40:00 21.5 C 15.09 g/m*3 21.5 C 6.4 km/h
142 12-07-2021 11:45:00 21.6 C 15.17 g/m*3 21.6 C 4.8 km/h
143 12-07-2021 11:50:00 21.7 C 14.69 g/m*3 21.7 C 8.1 km/h
144 12-07-2021 11:55:00 21.8 C 15.35 g/m*3 21.8 C 1.6 km/h
145 12-07-2021 12:00:00 21.9 C 15.44 g/m*3 21.9 C 3.2 km/h
146 12-07-2021 12:05:00 21.9 C 15.05 g/m*3 21.9 C 1.6 km/h
147 12-07-2021 12:10:00 21.9 C 14.86 g/m*3 21.9 C 4.8 km/h
148 12-07-2021 12:15:00 21.9 C 14.86 g/m*3 21.9 C 12.9 km/h
149 12-07-2021 12:20:00 21.9 C 14.86 g/m*3 21.9 C 8.1 km/h
150 12-07-2021 12:25:00 22 C 14.94 g/m*3 22 C 6.4 km/h
Sensor: Nr:Datum:Temp:Abs-Feuchte:Windchill:Wind:
Aussen-T/F 151 12-07-2021 12:30:00 22.1 C 14.84 g/m*3 22.1 C 9.7 km/h
152 12-07-2021 12:35:00 22.2 C 14.92 g/m*3 22.2 C 8.1 km/h
153 12-07-2021 12:40:00 22.3 C 14.81 g/m*3 22.3 C 11.3 km/h
154 12-07-2021 12:45:00 22.4 C 15.29 g/m*3 22.4 C 8.1 km/h
155 12-07-2021 12:50:00 22.6 C 15.27 g/m*3 22.6 C 9.7 km/h
156 12-07-2021 12:55:00 22.7 C 15.36 g/m*3 22.7 C 8.1 km/h
157 12-07-2021 13:00:00 22.8 C 15.24 g/m*3 22.8 C 8.1 km/h
158 12-07-2021 13:05:00 22.8 C 15.04 g/m*3 22.8 C 9.7 km/h
159 12-07-2021 13:10:00 23 C 15.21 g/m*3 23 C 4.8 km/h
160 12-07-2021 13:15:00 23.1 C 15.5 g/m*3 23.1 C 3.2 km/h
161 12-07-2021 13:20:00 23.2 C 15.38 g/m*3 23.2 C 6.4 km/h
162 12-07-2021 13:25:00 23.4 C 16.61 g/m*3 23.4 C 4.8 km/h
163 12-07-2021 13:30:00 23.4 C 15.56 g/m*3 23.4 C 9.7 km/h
164 12-07-2021 13:35:00 23.4 C 15.35 g/m*3 23.4 C 3.2 km/h
165 12-07-2021 13:40:00 23.4 C 15.98 g/m*3 23.4 C 4.8 km/h
166 12-07-2021 13:45:00 23.6 C 16.59 g/m*3 23.6 C 3.2 km/h
167 12-07-2021 13:50:00 23.7 C 16.68 g/m*3 23.7 C 1.6 km/h
168 12-07-2021 13:55:00 23.8 C 16.56 g/m*3 23.8 C 1.6 km/h
169 12-07-2021 14:00:00 23.7 C 14.97 g/m*3 23.7 C 6.4 km/h
170 12-07-2021 14:05:00 23.7 C 15.19 g/m*3 23.7 C 4.8 km/h
171 12-07-2021 14:10:00 23.8 C 15.92 g/m*3 23.8 C 3.2 km/h
172 12-07-2021 14:15:00 23.8 C 15.06 g/m*3 23.8 C 3.2 km/h
173 12-07-2021 14:20:00 23.8 C 16.13 g/m*3 23.8 C 0 km/h
174 12-07-2021 14:25:00 23.8 C 15.27 g/m*3 23.8 C 0 km/h
175 12-07-2021 14:30:00 23.7 C 14.76 g/m*3 23.7 C 6.4 km/h
Sensor: Nr:Datum:Temp:Abs-Feuchte:Windchill:Wind:
Aussen-T/F 176 12-07-2021 14:35:00 23.7 C 16.47 g/m*3 23.7 C 0 km/h
177 12-07-2021 14:40:00 23.7 C 17.11 g/m*3 23.7 C 0 km/h
178 12-07-2021 14:45:00 23.7 C 16.47 g/m*3 23.7 C 0 km/h
179 12-07-2021 14:50:00 23.5 C 16.71 g/m*3 23.5 C 0 km/h
180 12-07-2021 14:55:00 23.5 C 17.13 g/m*3 23.5 C 0 km/h
181 12-07-2021 15:00:00 23.4 C 17.24 g/m*3 23.4 C 0 km/h
182 12-07-2021 15:05:00 23.3 C 17.14 g/m*3 23.3 C 0 km/h
183 12-07-2021 15:10:00 23.2 C 16.84 g/m*3 23.2 C 0 km/h
184 12-07-2021 15:15:00 23 C 17.06 g/m*3 23 C 0 km/h
185 12-07-2021 15:20:00 22.9 C 17.17 g/m*3 22.9 C 0 km/h
186 12-07-2021 15:25:00 22.8 C 17.27 g/m*3 22.8 C 0 km/h
187 12-07-2021 15:30:00 22.8 C 17.27 g/m*3 22.8 C 0 km/h
188 12-07-2021 15:35:00 22.8 C 17.27 g/m*3 22.8 C 0 km/h
189 12-07-2021 15:40:00 22.8 C 17.27 g/m*3 22.8 C 0 km/h
190 12-07-2021 15:45:00 22.7 C 17.17 g/m*3 22.7 C 0 km/h
191 12-07-2021 15:50:00 22.7 C 17.38 g/m*3 22.7 C 0 km/h
192 12-07-2021 15:55:00 22.8 C 17.48 g/m*3 22.8 C 0 km/h
193 12-07-2021 16:00:00 22.8 C 17.48 g/m*3 22.8 C 0 km/h
194 12-07-2021 16:05:00 22.8 C 17.48 g/m*3 22.8 C 0 km/h
195 12-07-2021 16:10:00 22.8 C 17.48 g/m*3 22.8 C 0 km/h
196 12-07-2021 16:15:00 22.8 C 17.27 g/m*3 22.8 C 0 km/h
197 12-07-2021 16:20:00 22.9 C 17.58 g/m*3 22.9 C 0 km/h
198 12-07-2021 16:25:00 22.9 C 17.37 g/m*3 22.9 C 0 km/h
199 12-07-2021 16:30:00 22.9 C 17.78 g/m*3 22.9 C 0 km/h
200 12-07-2021 16:35:00 22.9 C 15.74 g/m*3 22.9 C 4.8 km/h
Sensor: Nr:Datum:Temp:Abs-Feuchte:Windchill:Wind:
Aussen-T/F 201 12-07-2021 16:40:00 22.9 C 15.53 g/m*3 22.9 C 3.2 km/h
202 12-07-2021 16:45:00 23.1 C 16.33 g/m*3 23.1 C 6.4 km/h
203 12-07-2021 16:50:00 23.3 C 17.14 g/m*3 23.3 C 1.6 km/h
204 12-07-2021 16:55:00 23.3 C 15.47 g/m*3 23.3 C 4.8 km/h
205 12-07-2021 17:00:00 23.4 C 15.77 g/m*3 23.4 C 0 km/h
206 12-07-2021 17:05:00 23.5 C 16.71 g/m*3 23.5 C 0 km/h
207 12-07-2021 17:10:00 23.7 C 17.54 g/m*3 23.7 C 0 km/h
208 12-07-2021 17:15:00 23.8 C 17.85 g/m*3 23.8 C 0 km/h
209 12-07-2021 17:20:00 23.8 C 17.64 g/m*3 23.8 C 0 km/h
210 12-07-2021 17:25:00 23.7 C 17.75 g/m*3 23.7 C 0 km/h
211 12-07-2021 17:30:00 23.7 C 17.75 g/m*3 23.7 C 0 km/h
212 12-07-2021 17:35:00 23.7 C 17.54 g/m*3 23.7 C 0 km/h
213 12-07-2021 17:40:00 23.7 C 16.47 g/m*3 23.7 C 3.2 km/h
214 12-07-2021 17:45:00 23.9 C 15.79 g/m*3 23.9 C 6.4 km/h
215 12-07-2021 17:50:00 24.1 C 15.53 g/m*3 24.1 C 8.1 km/h
216 12-07-2021 17:55:00 24.3 C 17.26 g/m*3 24.3 C 1.6 km/h
217 12-07-2021 18:00:00 24.2 C 15.84 g/m*3 24.2 C 8.1 km/h
218 12-07-2021 18:05:00 24.2 C 17.16 g/m*3 24.2 C 0 km/h
219 12-07-2021 18:10:00 24.1 C 17.5 g/m*3 24.1 C 0 km/h
220 12-07-2021 18:15:00 24 C 17.62 g/m*3 24 C 0 km/h
221 12-07-2021 18:20:00 23.9 C 17.52 g/m*3 23.9 C 0 km/h
222 12-07-2021 18:25:00 23.7 C 17.54 g/m*3 23.7 C 0 km/h
223 12-07-2021 18:30:00 23.4 C 17.03 g/m*3 23.4 C 0 km/h
224 12-07-2021 18:35:00 23.2 C 16.84 g/m*3 23.2 C 1.6 km/h
225 12-07-2021 18:40:00 22.9 C 16.76 g/m*3 22.9 C 1.6 km/h
Sensor: Nr:Datum:Temp:Abs-Feuchte:Windchill:Wind:
Aussen-T/F 226 12-07-2021 18:45:00 22.7 C 16.77 g/m*3 22.7 C 1.6 km/h
227 12-07-2021 18:50:00 22.4 C 16.48 g/m*3 22.4 C 4.8 km/h
228 12-07-2021 18:55:00 22.2 C 16.49 g/m*3 22.2 C 0 km/h
229 12-07-2021 19:00:00 22 C 16.3 g/m*3 22 C 1.6 km/h
230 12-07-2021 19:05:00 21.8 C 16.31 g/m*3 21.8 C 1.6 km/h
231 12-07-2021 19:10:00 21.7 C 16.41 g/m*3 21.7 C 1.6 km/h
232 12-07-2021 19:15:00 21.7 C 16.41 g/m*3 21.7 C 0 km/h
233 12-07-2021 19:20:00 21.7 C 16.41 g/m*3 21.7 C 1.6 km/h
234 12-07-2021 19:25:00 21.6 C 16.31 g/m*3 21.6 C 0 km/h
235 12-07-2021 19:30:00 21.6 C 16.5 g/m*3 21.6 C 0 km/h
236 12-07-2021 19:35:00 21.7 C 16.6 g/m*3 21.7 C 0 km/h
237 12-07-2021 19:40:00 21.7 C 16.6 g/m*3 21.7 C 1.6 km/h
238 12-07-2021 19:45:00 21.7 C 16.6 g/m*3 21.7 C 1.6 km/h
239 12-07-2021 19:50:00 21.7 C 16.6 g/m*3 21.7 C 0 km/h
240 12-07-2021 19:55:00 21.7 C 16.6 g/m*3 21.7 C 0 km/h
241 12-07-2021 20:00:00 21.7 C 16.41 g/m*3 21.7 C 1.6 km/h
242 12-07-2021 20:05:00 21.6 C 16.31 g/m*3 21.6 C 3.2 km/h
243 12-07-2021 20:10:00 21.4 C 16.12 g/m*3 21.4 C 4.8 km/h
244 12-07-2021 20:15:00 21.3 C 16.03 g/m*3 21.3 C 3.2 km/h
245 12-07-2021 20:20:00 21.2 C 16.12 g/m*3 21.2 C 1.6 km/h
246 12-07-2021 20:25:00 21.1 C 16.03 g/m*3 21.1 C 1.6 km/h
247 12-07-2021 20:30:00 21 C 15.94 g/m*3 21 C 0 km/h
248 12-07-2021 20:35:00 20.9 C 15.84 g/m*3 20.9 C 0 km/h
249 12-07-2021 20:40:00 20.8 C 15.75 g/m*3 20.8 C 1.6 km/h
250 12-07-2021 20:45:00 20.6 C 15.57 g/m*3 20.6 C 4.8 km/h
Sensor: Nr:Datum:Temp:Abs-Feuchte:Windchill:Wind:
Aussen-T/F 251 12-07-2021 20:50:00 20.6 C 15.75 g/m*3 20.6 C 1.6 km/h
252 12-07-2021 20:55:00 20.4 C 15.57 g/m*3 20.4 C 3.2 km/h
253 12-07-2021 21:00:00 20.3 C 15.48 g/m*3 20.3 C 1.6 km/h
254 12-07-2021 21:05:00 20.2 C 15.39 g/m*3 20.2 C 4.8 km/h
255 12-07-2021 21:10:00 20.2 C 15.39 g/m*3 20.2 C 3.2 km/h
256 12-07-2021 21:15:00 20.1 C 15.3 g/m*3 20.1 C 4.8 km/h
257 12-07-2021 21:20:00 20 C 15.21 g/m*3 20 C 3.2 km/h
258 12-07-2021 21:25:00 19.9 C 15.29 g/m*3 19.9 C 1.6 km/h
259 12-07-2021 21:30:00 19.9 C 15.29 g/m*3 19.9 C 3.2 km/h
260 12-07-2021 21:35:00 19.8 C 15.2 g/m*3 19.8 C 1.6 km/h
261 12-07-2021 21:40:00 19.8 C 15.2 g/m*3 19.8 C 1.6 km/h
262 12-07-2021 21:45:00 19.7 C 15.11 g/m*3 19.7 C 1.6 km/h
263 12-07-2021 21:50:00 19.7 C 15.11 g/m*3 19.7 C 0 km/h
264 12-07-2021 21:55:00 19.7 C 15.11 g/m*3 19.7 C 0 km/h
265 12-07-2021 22:00:00 19.6 C 15.02 g/m*3 19.6 C 0 km/h
266 12-07-2021 22:05:00 19.6 C 15.02 g/m*3 19.6 C 0 km/h
267 12-07-2021 22:10:00 19.6 C 15.02 g/m*3 19.6 C 0 km/h
268 12-07-2021 22:15:00 19.5 C 15.1 g/m*3 19.5 C 0 km/h
269 12-07-2021 22:20:00 19.5 C 15.1 g/m*3 19.5 C 0 km/h
270 12-07-2021 22:25:00 19.5 C 15.1 g/m*3 19.5 C 0 km/h
271 12-07-2021 22:30:00 19.5 C 15.1 g/m*3 19.5 C 0 km/h
272 12-07-2021 22:35:00 19.5 C 15.1 g/m*3 19.5 C 0 km/h
273 12-07-2021 22:40:00 19.4 C 15.02 g/m*3 19.4 C 0 km/h
274 12-07-2021 22:45:00 19.4 C 15.18 g/m*3 19.4 C 0 km/h
275 12-07-2021 22:50:00 19.4 C 15.02 g/m*3 19.4 C 0 km/h
Sensor: Nr:Datum:Temp:Abs-Feuchte:Windchill:Wind:
Aussen-T/F 276 12-07-2021 22:55:00 19.4 C 15.18 g/m*3 19.4 C 0 km/h
277 12-07-2021 23:00:00 19.4 C 15.18 g/m*3 19.4 C 0 km/h
278 12-07-2021 23:05:00 19.4 C 15.18 g/m*3 19.4 C 0 km/h
279 12-07-2021 23:10:00 19.3 C 15.09 g/m*3 19.3 C 0 km/h
280 12-07-2021 23:15:00 19.3 C 15.09 g/m*3 19.3 C 0 km/h
281 12-07-2021 23:20:00 19.3 C 15.09 g/m*3 19.3 C 0 km/h
282 12-07-2021 23:25:00 19.3 C 15.09 g/m*3 19.3 C 0 km/h
283 12-07-2021 23:30:00 19.3 C 15.09 g/m*3 19.3 C 0 km/h
284 12-07-2021 23:35:00 19.2 C 15.01 g/m*3 19.2 C 0 km/h
285 12-07-2021 23:40:00 19.2 C 15.17 g/m*3 19.2 C 0 km/h
286 12-07-2021 23:45:00 19.2 C 15.17 g/m*3 19.2 C 0 km/h
287 12-07-2021 23:50:00 19.2 C 15.17 g/m*3 19.2 C 0 km/h
288 12-07-2021 23:55:00 19.2 C 15.17 g/m*3 19.2 C 0 km/h
289 13-07-2021 00:00:00 19.1 C 15.08 g/m*3 19.1 C 0 km/h
290 13-07-2021 00:05:00 19.1 C 15.08 g/m*3 19.1 C 0 km/h
291 13-07-2021 00:10:00 19.1 C 15.08 g/m*3 19.1 C 0 km/h
292 13-07-2021 00:15:00 19.1 C 15.08 g/m*3 19.1 C 0 km/h
293 13-07-2021 00:20:00 19 C 15.16 g/m*3 19 C 0 km/h
294 13-07-2021 00:25:00 19 C 15.16 g/m*3 19 C 0 km/h
295 13-07-2021 00:30:00 18.9 C 15.07 g/m*3 18.9 C 0 km/h
296 13-07-2021 00:35:00 18.9 C 15.07 g/m*3 18.9 C 0 km/h
297 13-07-2021 00:40:00 18.9 C 15.07 g/m*3 18.9 C 0 km/h
298 13-07-2021 00:45:00 18.9 C 15.07 g/m*3 18.9 C 0 km/h
299 13-07-2021 00:50:00 18.9 C 15.07 g/m*3 18.9 C 0 km/h
300 13-07-2021 00:55:00 18.8 C 14.98 g/m*3 18.8 C 0 km/h
Sensor: Nr:Datum:Temp:Abs-Feuchte:Windchill:Wind:
Aussen-T/F 301 13-07-2021 01:00:00 18.8 C 14.98 g/m*3 18.8 C 0 km/h
302 13-07-2021 01:05:00 18.8 C 14.98 g/m*3 18.8 C 0 km/h
303 13-07-2021 01:10:00 18.8 C 14.98 g/m*3 18.8 C 0 km/h
304 13-07-2021 01:15:00 18.7 C 14.89 g/m*3 18.7 C 0 km/h
305 13-07-2021 01:20:00 18.7 C 14.89 g/m*3 18.7 C 0 km/h
306 13-07-2021 01:25:00 18.7 C 14.89 g/m*3 18.7 C 0 km/h
307 13-07-2021 01:30:00 18.6 C 14.8 g/m*3 18.6 C 0 km/h
308 13-07-2021 01:35:00 18.6 C 14.8 g/m*3 18.6 C 0 km/h
309 13-07-2021 01:40:00 18.4 C 14.63 g/m*3 18.4 C 0 km/h
310 13-07-2021 01:45:00 18.4 C 14.63 g/m*3 18.4 C 0 km/h
311 13-07-2021 01:50:00 18.3 C 14.54 g/m*3 18.3 C 0 km/h
312 13-07-2021 01:55:00 18.3 C 14.7 g/m*3 18.3 C 0 km/h
313 13-07-2021 02:00:00 18.3 C 14.7 g/m*3 18.3 C 0 km/h
314 13-07-2021 02:05:00 18.3 C 14.7 g/m*3 18.3 C 0 km/h
315 13-07-2021 02:10:00 18.3 C 14.7 g/m*3 18.3 C 0 km/h
316 13-07-2021 02:15:00 18.2 C 14.61 g/m*3 18.2 C 0 km/h
317 13-07-2021 02:20:00 18.2 C 14.61 g/m*3 18.2 C 0 km/h
318 13-07-2021 02:25:00 18.2 C 14.61 g/m*3 18.2 C 0 km/h
319 13-07-2021 02:30:00 18.1 C 14.52 g/m*3 18.1 C 0 km/h
320 13-07-2021 02:35:00 18.1 C 14.52 g/m*3 18.1 C 0 km/h
321 13-07-2021 02:40:00 18.1 C 14.52 g/m*3 18.1 C 0 km/h
322 13-07-2021 02:45:00 18.1 C 14.52 g/m*3 18.1 C 0 km/h
323 13-07-2021 02:50:00 18.1 C 14.52 g/m*3 18.1 C 0 km/h
324 13-07-2021 02:55:00 18.1 C 14.52 g/m*3 18.1 C 0 km/h
325 13-07-2021 03:00:00 18.1 C 14.52 g/m*3 18.1 C 0 km/h
Sensor: Nr:Datum:Temp:Abs-Feuchte:Windchill:Wind:
Aussen-T/F 326 13-07-2021 03:05:00 18 C 14.44 g/m*3 18 C 0 km/h
327 13-07-2021 03:10:00 18 C 14.44 g/m*3 18 C 0 km/h
328 13-07-2021 03:15:00 18 C 14.44 g/m*3 18 C 0 km/h
329 13-07-2021 03:20:00 18 C 14.59 g/m*3 18 C 0 km/h
330 13-07-2021 03:25:00 18 C 14.59 g/m*3 18 C 0 km/h
331 13-07-2021 03:30:00 18 C 14.59 g/m*3 18 C 0 km/h
332 13-07-2021 03:35:00 18.1 C 14.68 g/m*3 18.1 C 0 km/h
333 13-07-2021 03:40:00 18 C 14.59 g/m*3 18 C 0 km/h
334 13-07-2021 03:45:00 18.1 C 14.68 g/m*3 18.1 C 0 km/h
335 13-07-2021 03:50:00 18 C 14.59 g/m*3 18 C 0 km/h
336 13-07-2021 03:55:00 18.1 C 14.68 g/m*3 18.1 C 3.2 km/h
337 13-07-2021 04:00:00 18 C 14.59 g/m*3 18 C 3.2 km/h
338 13-07-2021 04:05:00 18 C 14.59 g/m*3 18 C 0 km/h
339 13-07-2021 04:10:00 18 C 14.59 g/m*3 18 C 6.4 km/h
340 13-07-2021 04:15:00 18 C 14.59 g/m*3 18 C 6.4 km/h
341 13-07-2021 04:20:00 17.9 C 14.5 g/m*3 17.9 C 4.8 km/h
342 13-07-2021 04:25:00 17.8 C 14.42 g/m*3 17.8 C 0 km/h
343 13-07-2021 04:30:00 17.8 C 14.42 g/m*3 17.8 C 1.6 km/h
344 13-07-2021 04:35:00 17.8 C 14.42 g/m*3 17.8 C 1.6 km/h
345 13-07-2021 04:40:00 17.8 C 14.42 g/m*3 17.8 C 0 km/h
346 13-07-2021 04:45:00 17.8 C 14.42 g/m*3 17.8 C 3.2 km/h
347 13-07-2021 04:50:00 17.8 C 14.42 g/m*3 17.8 C 3.2 km/h
348 13-07-2021 04:55:00 17.7 C 14.33 g/m*3 17.7 C 1.6 km/h
349 13-07-2021 05:00:00 17.7 C 14.48 g/m*3 17.7 C 3.2 km/h
350 13-07-2021 05:05:00 17.7 C 14.48 g/m*3 17.7 C 1.6 km/h
Sensor: Nr:Datum:Temp:Abs-Feuchte:Windchill:Wind:
Aussen-T/F 351 13-07-2021 05:10:00 17.7 C 14.48 g/m*3 17.7 C 4.8 km/h
352 13-07-2021 05:15:00 17.6 C 14.4 g/m*3 17.6 C 1.6 km/h
353 13-07-2021 05:20:00 17.6 C 14.4 g/m*3 17.6 C 0 km/h
354 13-07-2021 05:25:00 17.7 C 14.48 g/m*3 17.7 C 0 km/h
355 13-07-2021 05:30:00 17.7 C 14.48 g/m*3 17.7 C 0 km/h
356 13-07-2021 05:35:00 17.7 C 14.48 g/m*3 17.7 C 0 km/h
357 13-07-2021 05:40:00 17.7 C 14.48 g/m*3 17.7 C 0 km/h
358 13-07-2021 05:45:00 17.7 C 14.48 g/m*3 17.7 C 0 km/h
359 13-07-2021 05:50:00 17.7 C 14.48 g/m*3 17.7 C 0 km/h
360 13-07-2021 05:55:00 17.7 C 14.48 g/m*3 17.7 C 0 km/h
361 13-07-2021 06:00:00 17.7 C 14.48 g/m*3 17.7 C 0 km/h
362 13-07-2021 06:05:00 17.7 C 14.48 g/m*3 17.7 C 0 km/h
363 13-07-2021 06:10:00 17.6 C 14.4 g/m*3 17.6 C 1.6 km/h
364 13-07-2021 06:15:00 17.6 C 14.4 g/m*3 17.6 C 0 km/h
365 13-07-2021 06:20:00 17.6 C 14.4 g/m*3 17.6 C 0 km/h
366 13-07-2021 06:25:00 17.6 C 14.4 g/m*3 17.6 C 0 km/h
367 13-07-2021 06:30:00 17.6 C 14.4 g/m*3 17.6 C 0 km/h
368 13-07-2021 06:35:00 17.6 C 14.4 g/m*3 17.6 C 0 km/h
369 13-07-2021 06:40:00 17.5 C 14.31 g/m*3 17.5 C 0 km/h
370 13-07-2021 06:45:00 17.5 C 14.31 g/m*3 17.5 C 0 km/h
371 13-07-2021 06:50:00 17.5 C 14.31 g/m*3 17.5 C 0 km/h
372 13-07-2021 06:55:00 17.5 C 14.31 g/m*3 17.5 C 0 km/h
373 13-07-2021 07:00:00 17.5 C 14.31 g/m*3 17.5 C 1.6 km/h
374 13-07-2021 07:05:00 17.5 C 14.31 g/m*3 17.5 C 0 km/h
375 13-07-2021 07:10:00 17.5 C 14.31 g/m*3 17.5 C 0 km/h
Sensor: Nr:Datum:Temp:Abs-Feuchte:Windchill:Wind:
Aussen-T/F 376 13-07-2021 07:15:00 17.5 C 14.31 g/m*3 17.5 C 0 km/h
377 13-07-2021 07:20:00 17.5 C 14.31 g/m*3 17.5 C 0 km/h
378 13-07-2021 07:25:00 17.5 C 14.31 g/m*3 17.5 C 1.6 km/h
379 13-07-2021 07:30:00 17.5 C 14.31 g/m*3 17.5 C 3.2 km/h
380 13-07-2021 07:35:00 17.5 C 14.31 g/m*3 17.5 C 0 km/h
381 13-07-2021 07:40:00 17.5 C 14.31 g/m*3 17.5 C 0 km/h
382 13-07-2021 07:45:00 17.6 C 14.4 g/m*3 17.6 C 1.6 km/h
383 13-07-2021 07:50:00 17.6 C 14.55 g/m*3 17.6 C 4.8 km/h
384 13-07-2021 07:55:00 17.6 C 14.4 g/m*3 17.6 C 1.6 km/h
385 13-07-2021 08:00:00 17.6 C 14.4 g/m*3 17.6 C 1.6 km/h
386 13-07-2021 08:05:00 17.6 C 14.55 g/m*3 17.6 C 4.8 km/h
387 13-07-2021 08:10:00 17.7 C 14.64 g/m*3 17.7 C 0 km/h
388 13-07-2021 08:15:00 17.7 C 14.64 g/m*3 17.7 C 1.6 km/h
389 13-07-2021 08:20:00 17.6 C 14.4 g/m*3 17.6 C 0 km/h
390 13-07-2021 08:25:00 17.7 C 14.64 g/m*3 17.7 C 0 km/h
391 13-07-2021 08:30:00 17.7 C 14.64 g/m*3 17.7 C 0 km/h
392 13-07-2021 08:35:00 17.7 C 14.64 g/m*3 17.7 C 0 km/h
393 13-07-2021 08:40:00 17.8 C 14.72 g/m*3 17.8 C 0 km/h
394 13-07-2021 08:45:00 17.8 C 14.72 g/m*3 17.8 C 0 km/h
395 13-07-2021 08:50:00 17.7 C 14.64 g/m*3 17.7 C 1.6 km/h
396 13-07-2021 08:55:00 17.7 C 14.64 g/m*3 17.7 C 1.6 km/h
397 13-07-2021 09:00:00 17.8 C 14.72 g/m*3 17.8 C 1.6 km/h
398 13-07-2021 09:05:00 17.8 C 14.72 g/m*3 17.8 C 0 km/h
399 13-07-2021 09:10:00 17.8 C 14.72 g/m*3 17.8 C 0 km/h
400 13-07-2021 09:15:00 17.9 C 14.81 g/m*3 17.9 C 0 km/h
Sensor: Nr:Datum:Temp:Abs-Feuchte:Windchill:Wind:
Aussen-T/F 401 13-07-2021 09:20:00 17.9 C 14.81 g/m*3 17.9 C 0 km/h
402 13-07-2021 09:25:00 17.9 C 14.81 g/m*3 17.9 C 0 km/h
403 13-07-2021 09:30:00 18 C 14.9 g/m*3 18 C 0 km/h
404 13-07-2021 09:35:00 18.1 C 14.99 g/m*3 18.1 C 0 km/h
405 13-07-2021 09:40:00 18.2 C 15.08 g/m*3 18.2 C 0 km/h
406 13-07-2021 09:45:00 18.3 C 15.17 g/m*3 18.3 C 1.6 km/h
407 13-07-2021 09:50:00 18.3 C 15.17 g/m*3 18.3 C 1.6 km/h
408 13-07-2021 09:55:00 18.4 C 15.26 g/m*3 18.4 C 0 km/h
409 13-07-2021 10:00:00 18.5 C 15.35 g/m*3 18.5 C 0 km/h
410 13-07-2021 10:05:00 18.6 C 15.44 g/m*3 18.6 C 0 km/h
411 13-07-2021 10:10:00 18.6 C 15.44 g/m*3 18.6 C 0 km/h
412 13-07-2021 10:15:00 18.6 C 15.44 g/m*3 18.6 C 0 km/h
413 13-07-2021 10:20:00 18.6 C 15.44 g/m*3 18.6 C 1.6 km/h
414 13-07-2021 10:25:00 18.5 C 15.19 g/m*3 18.5 C 1.6 km/h
415 13-07-2021 10:30:00 18.5 C 15.19 g/m*3 18.5 C 0 km/h
416 13-07-2021 10:35:00 18.4 C 15.1 g/m*3 18.4 C 3.2 km/h
417 13-07-2021 10:40:00 18.5 C 15.19 g/m*3 18.5 C 1.6 km/h
418 13-07-2021 10:45:00 18.5 C 15.19 g/m*3 18.5 C 3.2 km/h
419 13-07-2021 10:50:00 18.6 C 15.28 g/m*3 18.6 C 1.6 km/h
420 13-07-2021 10:55:00 18.6 C 15.28 g/m*3 18.6 C 1.6 km/h
421 13-07-2021 11:00:00 18.6 C 15.28 g/m*3 18.6 C 1.6 km/h
422 13-07-2021 11:05:00 18.7 C 15.37 g/m*3 18.7 C 0 km/h
423 13-07-2021 11:10:00 18.7 C 15.37 g/m*3 18.7 C 0 km/h
424 13-07-2021 11:15:00 18.7 C 15.37 g/m*3 18.7 C 1.6 km/h
425 13-07-2021 11:20:00 18.7 C 15.37 g/m*3 18.7 C 0 km/h
Sensor: Nr:Datum:Temp:Abs-Feuchte:Windchill:Wind:
Aussen-T/F 426 13-07-2021 11:25:00 18.8 C 15.46 g/m*3 18.8 C 0 km/h
427 13-07-2021 11:30:00 18.8 C 15.46 g/m*3 18.8 C 0 km/h
428 13-07-2021 11:35:00 18.8 C 15.46 g/m*3 18.8 C 0 km/h
429 13-07-2021 11:40:00 18.8 C 15.46 g/m*3 18.8 C 0 km/h
430 13-07-2021 11:45:00 18.8 C 15.46 g/m*3 18.8 C 4.8 km/h
431 13-07-2021 11:50:00 18.8 C 15.46 g/m*3 18.8 C 4.8 km/h
432 13-07-2021 11:55:00 18.8 C 15.3 g/m*3 18.8 C 1.6 km/h
433 13-07-2021 12:00:00 18.9 C 15.39 g/m*3 18.9 C 1.6 km/h
434 13-07-2021 12:05:00 18.9 C 15.39 g/m*3 18.9 C 1.6 km/h
435 13-07-2021 12:10:00 19 C 15.48 g/m*3 19 C 3.2 km/h
436 13-07-2021 12:15:00 19.1 C 15.57 g/m*3 19.1 C 1.6 km/h
437 13-07-2021 12:20:00 19.1 C 15.57 g/m*3 19.1 C 1.6 km/h
438 13-07-2021 12:25:00 19.1 C 15.57 g/m*3 19.1 C 0 km/h
439 13-07-2021 12:30:00 19.2 C 15.66 g/m*3 19.2 C 0 km/h
440 13-07-2021 12:35:00 19.2 C 15.66 g/m*3 19.2 C 0 km/h
441 13-07-2021 12:40:00 19.3 C 15.76 g/m*3 19.3 C 0 km/h
442 13-07-2021 12:45:00 19.4 C 15.85 g/m*3 19.4 C 1.6 km/h
443 13-07-2021 12:50:00 19.6 C 16.04 g/m*3 19.6 C 0 km/h
444 13-07-2021 12:55:00 19.6 C 16.04 g/m*3 19.6 C 0 km/h
445 13-07-2021 13:00:00 19.6 C 15.87 g/m*3 19.6 C 0 km/h
446 13-07-2021 13:05:00 19.6 C 15.7 g/m*3 19.6 C 1.6 km/h
447 13-07-2021 13:10:00 19.7 C 15.96 g/m*3 19.7 C 0 km/h
448 13-07-2021 13:15:00 19.7 C 15.79 g/m*3 19.7 C 0 km/h
449 13-07-2021 13:20:00 19.8 C 15.89 g/m*3 19.8 C 3.2 km/h
450 13-07-2021 13:25:00 19.8 C 15.89 g/m*3 19.8 C 3.2 km/h
Sensor: Nr:Datum:Temp:Abs-Feuchte:Windchill:Wind:
Aussen-T/F 451 13-07-2021 13:30:00 19.8 C 15.89 g/m*3 19.8 C 0 km/h
452 13-07-2021 13:35:00 19.9 C 15.98 g/m*3 19.9 C 0 km/h
453 13-07-2021 13:40:00 19.9 C 15.98 g/m*3 19.9 C 1.6 km/h
454 13-07-2021 13:45:00 20 C 16.07 g/m*3 20 C 0 km/h
455 13-07-2021 13:50:00 20.1 C 16.17 g/m*3 20.1 C 0 km/h
456 13-07-2021 13:55:00 20.2 C 16.26 g/m*3 20.2 C 1.6 km/h
457 13-07-2021 14:00:00 20.3 C 16.18 g/m*3 20.3 C 0 km/h
458 13-07-2021 14:05:00 20.3 C 16 g/m*3 20.3 C 1.6 km/h
459 13-07-2021 14:10:00 20.4 C 16.1 g/m*3 20.4 C 0 km/h
460 13-07-2021 14:15:00 20.5 C 16.19 g/m*3 20.5 C 1.6 km/h
461 13-07-2021 14:20:00 20.5 C 16.01 g/m*3 20.5 C 0 km/h
462 13-07-2021 14:25:00 20.6 C 16.11 g/m*3 20.6 C 1.6 km/h
463 13-07-2021 14:30:00 20.7 C 16.38 g/m*3 20.7 C 0 km/h
464 13-07-2021 14:35:00 20.7 C 16.2 g/m*3 20.7 C 0 km/h
465 13-07-2021 14:40:00 20.7 C 16.02 g/m*3 20.7 C 0 km/h
466 13-07-2021 14:45:00 20.8 C 16.48 g/m*3 20.8 C 0 km/h
467 13-07-2021 14:50:00 20.8 C 16.12 g/m*3 20.8 C 1.6 km/h
468 13-07-2021 14:55:00 20.9 C 16.39 g/m*3 20.9 C 0 km/h
469 13-07-2021 15:00:00 21.1 C 16.58 g/m*3 21.1 C 0 km/h
470 13-07-2021 15:05:00 21.2 C 16.68 g/m*3 21.2 C 0 km/h
471 13-07-2021 15:10:00 21.3 C 16.59 g/m*3 21.3 C 0 km/h
472 13-07-2021 15:15:00 21.3 C 16.4 g/m*3 21.3 C 0 km/h
473 13-07-2021 15:20:00 21.4 C 16.31 g/m*3 21.4 C 3.2 km/h
474 13-07-2021 15:25:00 21.4 C 16.31 g/m*3 21.4 C 0 km/h
475 13-07-2021 15:30:00 21.6 C 16.31 g/m*3 21.6 C 0 km/h
Sensor: Nr:Datum:Temp:Abs-Feuchte:Windchill:Wind:
Aussen-T/F 476 13-07-2021 15:35:00 21.8 C 16.88 g/m*3 21.8 C 0 km/h
477 13-07-2021 15:40:00 21.9 C 16.6 g/m*3 21.9 C 3.2 km/h
478 13-07-2021 15:45:00 22 C 16.69 g/m*3 22 C 0 km/h
479 13-07-2021 15:50:00 22.1 C 16.79 g/m*3 22.1 C 0 km/h
480 13-07-2021 15:55:00 22.1 C 16.59 g/m*3 22.1 C 1.6 km/h
481 13-07-2021 16:00:00 22.1 C 16.79 g/m*3 22.1 C 0 km/h
482 13-07-2021 16:05:00 22 C 16.89 g/m*3 22 C 0 km/h
483 13-07-2021 16:10:00 22 C 16.69 g/m*3 22 C 4.8 km/h
484 13-07-2021 16:15:00 21.8 C 16.5 g/m*3 21.8 C 3.2 km/h
485 13-07-2021 16:20:00 21.8 C 16.88 g/m*3 21.8 C 0 km/h
486 13-07-2021 16:25:00 21.8 C 16.88 g/m*3 21.8 C 1.6 km/h
487 13-07-2021 16:30:00 21.7 C 16.6 g/m*3 21.7 C 3.2 km/h
488 13-07-2021 16:35:00 21.5 C 16.41 g/m*3 21.5 C 3.2 km/h
489 13-07-2021 16:40:00 21.3 C 16.03 g/m*3 21.3 C 4.8 km/h
490 13-07-2021 16:45:00 21.3 C 16.4 g/m*3 21.3 C 0 km/h
491 13-07-2021 16:50:00 21.4 C 16.69 g/m*3 21.4 C 0 km/h
492 13-07-2021 16:55:00 21.4 C 16.69 g/m*3 21.4 C 1.6 km/h
493 13-07-2021 17:00:00 21.3 C 16.4 g/m*3 21.3 C 1.6 km/h
494 13-07-2021 17:05:00 21.3 C 16.22 g/m*3 21.3 C 4.8 km/h
495 13-07-2021 17:10:00 21.3 C 16.4 g/m*3 21.3 C 0 km/h
496 13-07-2021 17:15:00 21.4 C 16.69 g/m*3 21.4 C 1.6 km/h
497 13-07-2021 17:20:00 21.4 C 16.5 g/m*3 21.4 C 6.4 km/h
498 13-07-2021 17:25:00 21.4 C 16.5 g/m*3 21.4 C 6.4 km/h
499 13-07-2021 17:30:00 21.3 C 16.4 g/m*3 21.3 C 1.6 km/h
500 13-07-2021 17:35:00 21.2 C 16.31 g/m*3 21.2 C 3.2 km/h
Sensor: Nr:Datum:Temp:Abs-Feuchte:Windchill:Wind:
Aussen-T/F 501 13-07-2021 17:40:00 21.3 C 16.59 g/m*3 21.3 C 0 km/h
502 13-07-2021 17:45:00 21.3 C 16.59 g/m*3 21.3 C 0 km/h
503 13-07-2021 17:50:00 21.3 C 16.78 g/m*3 21.3 C 0 km/h
504 13-07-2021 17:55:00 21.4 C 17.06 g/m*3 21.4 C 0 km/h
505 13-07-2021 18:00:00 21.5 C 17.16 g/m*3 21.5 C 0 km/h
506 13-07-2021 18:05:00 21.6 C 17.26 g/m*3 21.6 C 0 km/h
507 13-07-2021 18:10:00 21.6 C 17.26 g/m*3 21.6 C 0 km/h
508 13-07-2021 18:15:00 21.6 C 17.26 g/m*3 21.6 C 0 km/h
509 13-07-2021 18:20:00 21.5 C 17.16 g/m*3 21.5 C 0 km/h
510 13-07-2021 18:25:00 21.3 C 16.96 g/m*3 21.3 C 0 km/h
511 13-07-2021 18:30:00 21.2 C 17.05 g/m*3 21.2 C 0 km/h
512 13-07-2021 18:35:00 20.9 C 16.76 g/m*3 20.9 C 3.2 km/h
513 13-07-2021 18:40:00 20.6 C 16.29 g/m*3 20.6 C 4.8 km/h
514 13-07-2021 18:45:00 19.9 C 15.46 g/m*3 19.9 C 8.1 km/h
515 13-07-2021 18:50:00 19.4 C 15.18 g/m*3 19.4 C 11.3 km/h
516 13-07-2021 18:55:00 19.1 C 14.92 g/m*3 19.1 C 11.3 km/h
517 13-07-2021 19:00:00 18.8 C 14.82 g/m*3 18.8 C 11.3 km/h
518 13-07-2021 19:05:00 18.6 C 14.8 g/m*3 18.6 C 6.4 km/h
519 13-07-2021 19:10:00 18.4 C 14.63 g/m*3 18.4 C 6.4 km/h
520 13-07-2021 19:15:00 18.4 C 14.78 g/m*3 18.4 C 0 km/h
521 13-07-2021 19:20:00 18.3 C 14.7 g/m*3 18.3 C 4.8 km/h
522 13-07-2021 19:25:00 18.3 C 14.7 g/m*3 18.3 C 4.8 km/h
523 13-07-2021 19:30:00 18.2 C 14.61 g/m*3 18.2 C 8.1 km/h
524 13-07-2021 19:35:00 18.2 C 14.61 g/m*3 18.2 C 3.2 km/h
525 13-07-2021 19:40:00 18.2 C 14.77 g/m*3 18.2 C 1.6 km/h
Sensor: Nr:Datum:Temp:Abs-Feuchte:Windchill:Wind:
Aussen-T/F 526 13-07-2021 19:45:00 18.1 C 14.68 g/m*3 18.1 C 1.6 km/h
527 13-07-2021 19:50:00 18.2 C 14.77 g/m*3 18.2 C 1.6 km/h
528 13-07-2021 19:55:00 18.2 C 14.77 g/m*3 18.2 C 1.6 km/h
529 13-07-2021 20:00:00 18.1 C 14.68 g/m*3 18.1 C 0 km/h
530 13-07-2021 20:05:00 18.1 C 14.68 g/m*3 18.1 C 1.6 km/h
531 13-07-2021 20:10:00 18.1 C 14.68 g/m*3 18.1 C 1.6 km/h
532 13-07-2021 20:15:00 18.1 C 14.68 g/m*3 18.1 C 0 km/h
533 13-07-2021 20:20:00 18.1 C 14.68 g/m*3 18.1 C 1.6 km/h
534 13-07-2021 20:25:00 18.1 C 14.68 g/m*3 18.1 C 1.6 km/h
535 13-07-2021 20:30:00 18 C 14.59 g/m*3 18 C 3.2 km/h
536 13-07-2021 20:35:00 17.9 C 14.5 g/m*3 17.9 C 1.6 km/h
537 13-07-2021 20:40:00 17.9 C 14.5 g/m*3 17.9 C 1.6 km/h
538 13-07-2021 20:45:00 17.9 C 14.5 g/m*3 17.9 C 1.6 km/h
539 13-07-2021 20:50:00 17.8 C 14.42 g/m*3 17.8 C 0 km/h
540 13-07-2021 20:55:00 17.8 C 14.42 g/m*3 17.8 C 1.6 km/h
541 13-07-2021 21:00:00 17.8 C 14.42 g/m*3 17.8 C 0 km/h
542 13-07-2021 21:05:00 17.8 C 14.42 g/m*3 17.8 C 1.6 km/h
543 13-07-2021 21:10:00 17.7 C 14.33 g/m*3 17.7 C 1.6 km/h
544 13-07-2021 21:15:00 17.7 C 14.48 g/m*3 17.7 C 1.6 km/h
545 13-07-2021 21:20:00 17.6 C 14.4 g/m*3 17.6 C 4.8 km/h
546 13-07-2021 21:25:00 17.5 C 14.16 g/m*3 17.5 C 3.2 km/h
547 13-07-2021 21:30:00 17.4 C 14.08 g/m*3 17.4 C 3.2 km/h
548 13-07-2021 21:35:00 17.3 C 14 g/m*3 17.3 C 1.6 km/h
549 13-07-2021 21:40:00 17.3 C 14.14 g/m*3 17.3 C 4.8 km/h
550 13-07-2021 21:45:00 17.3 C 14.14 g/m*3 17.3 C 1.6 km/h
Sensor: Nr:Datum:Temp:Abs-Feuchte:Windchill:Wind:
Aussen-T/F 551 13-07-2021 21:50:00 17.2 C 14.06 g/m*3 17.2 C 1.6 km/h
552 13-07-2021 21:55:00 17.2 C 14.06 g/m*3 17.2 C 1.6 km/h
553 13-07-2021 22:00:00 17.2 C 13.91 g/m*3 17.2 C 3.2 km/h
554 13-07-2021 22:05:00 17.1 C 13.97 g/m*3 17.1 C 4.8 km/h
555 13-07-2021 22:10:00 17.1 C 13.97 g/m*3 17.1 C 0 km/h
556 13-07-2021 22:15:00 17.1 C 13.97 g/m*3 17.1 C 4.8 km/h
557 13-07-2021 22:20:00 17.1 C 13.97 g/m*3 17.1 C 3.2 km/h
558 13-07-2021 22:25:00 17 C 13.89 g/m*3 17 C 1.6 km/h
559 13-07-2021 22:30:00 17 C 13.89 g/m*3 17 C 8.1 km/h
560 13-07-2021 22:35:00 16.9 C 13.81 g/m*3 16.9 C 6.4 km/h
561 13-07-2021 22:40:00 16.9 C 13.81 g/m*3 16.9 C 6.4 km/h
562 13-07-2021 22:45:00 16.9 C 13.81 g/m*3 16.9 C 1.6 km/h
563 13-07-2021 22:50:00 16.9 C 13.81 g/m*3 16.9 C 1.6 km/h
564 13-07-2021 22:55:00 16.9 C 13.81 g/m*3 16.9 C 3.2 km/h
565 13-07-2021 23:00:00 16.9 C 13.81 g/m*3 16.9 C 4.8 km/h
566 13-07-2021 23:05:00 16.9 C 13.81 g/m*3 16.9 C 1.6 km/h
567 13-07-2021 23:10:00 16.9 C 13.81 g/m*3 16.9 C 1.6 km/h
568 13-07-2021 23:15:00 16.8 C 13.73 g/m*3 16.8 C 6.4 km/h
569 13-07-2021 23:20:00 16.8 C 13.73 g/m*3 16.8 C 0 km/h
570 13-07-2021 23:25:00 16.7 C 13.64 g/m*3 16.7 C 3.2 km/h
571 13-07-2021 23:30:00 16.7 C 13.64 g/m*3 16.7 C 1.6 km/h
572 13-07-2021 23:35:00 16.7 C 13.64 g/m*3 16.7 C 0 km/h
573 13-07-2021 23:40:00 16.7 C 13.64 g/m*3 16.7 C 1.6 km/h
574 13-07-2021 23:45:00 16.6 C 13.56 g/m*3 16.6 C 3.2 km/h
575 13-07-2021 23:50:00 16.6 C 13.56 g/m*3 16.6 C 3.2 km/h
Sensor: Nr:Datum:Temp:Abs-Feuchte:Windchill:Wind:
Aussen-T/F 576 13-07-2021 23:55:00 16.5 C 13.48 g/m*3 16.5 C 3.2 km/h
577 14-07-2021 00:00:00 16.5 C 13.48 g/m*3 16.5 C 4.8 km/h
578 14-07-2021 00:05:00 16.4 C 13.4 g/m*3 16.4 C 3.2 km/h
579 14-07-2021 00:10:00 16.4 C 13.4 g/m*3 16.4 C 1.6 km/h
580 14-07-2021 00:15:00 16.4 C 13.4 g/m*3 16.4 C 1.6 km/h
581 14-07-2021 00:20:00 16.4 C 13.4 g/m*3 16.4 C 1.6 km/h
582 14-07-2021 00:25:00 16.4 C 13.4 g/m*3 16.4 C 4.8 km/h
583 14-07-2021 00:30:00 16.4 C 13.4 g/m*3 16.4 C 0 km/h
584 14-07-2021 00:35:00 16.4 C 13.4 g/m*3 16.4 C 1.6 km/h
585 14-07-2021 00:40:00 16.4 C 13.4 g/m*3 16.4 C 1.6 km/h
586 14-07-2021 00:45:00 16.4 C 13.4 g/m*3 16.4 C 1.6 km/h
587 14-07-2021 00:50:00 16.4 C 13.4 g/m*3 16.4 C 1.6 km/h
588 14-07-2021 00:55:00 16.4 C 13.4 g/m*3 16.4 C 4.8 km/h
589 14-07-2021 01:00:00 16.4 C 13.4 g/m*3 16.4 C 1.6 km/h
590 14-07-2021 01:05:00 16.3 C 13.32 g/m*3 16.3 C 3.2 km/h
591 14-07-2021 01:10:00 16.3 C 13.32 g/m*3 16.3 C 3.2 km/h
592 14-07-2021 01:15:00 16.3 C 13.32 g/m*3 16.3 C 3.2 km/h
593 14-07-2021 01:20:00 16.2 C 13.24 g/m*3 16.2 C 1.6 km/h
594 14-07-2021 01:25:00 16.2 C 13.24 g/m*3 16.2 C 0 km/h
595 14-07-2021 01:30:00 16.2 C 13.24 g/m*3 16.2 C 3.2 km/h
596 14-07-2021 01:35:00 16.1 C 13.16 g/m*3 16.1 C 1.6 km/h
597 14-07-2021 01:40:00 16.1 C 13.16 g/m*3 16.1 C 3.2 km/h
598 14-07-2021 01:45:00 16.1 C 13.16 g/m*3 16.1 C 3.2 km/h
599 14-07-2021 01:50:00 16.1 C 13.16 g/m*3 16.1 C 1.6 km/h
600 14-07-2021 01:55:00 16.1 C 13.16 g/m*3 16.1 C 0 km/h
Sensor: Nr:Datum:Temp:Abs-Feuchte:Windchill:Wind:
Aussen-T/F 601 14-07-2021 02:00:00 16.1 C 13.16 g/m*3 16.1 C 0 km/h
602 14-07-2021 02:05:00 16.1 C 13.16 g/m*3 16.1 C 1.6 km/h
603 14-07-2021 02:10:00 16.1 C 13.16 g/m*3 16.1 C 9.7 km/h
604 14-07-2021 02:15:00 16.1 C 13.16 g/m*3 16.1 C 1.6 km/h
605 14-07-2021 02:20:00 16.1 C 13.16 g/m*3 16.1 C 1.6 km/h
606 14-07-2021 02:25:00 16.2 C 13.24 g/m*3 16.2 C 0 km/h
607 14-07-2021 02:30:00 16.2 C 13.24 g/m*3 16.2 C 3.2 km/h
608 14-07-2021 02:35:00 16.2 C 13.24 g/m*3 16.2 C 1.6 km/h
609 14-07-2021 02:40:00 16.2 C 13.24 g/m*3 16.2 C 1.6 km/h
610 14-07-2021 02:45:00 16.2 C 13.38 g/m*3 16.2 C 1.6 km/h
611 14-07-2021 02:50:00 16.3 C 13.46 g/m*3 16.3 C 3.2 km/h
612 14-07-2021 02:55:00 16.3 C 13.46 g/m*3 16.3 C 1.6 km/h
613 14-07-2021 03:00:00 16.3 C 13.46 g/m*3 16.3 C 3.2 km/h
614 14-07-2021 03:05:00 16.3 C 13.46 g/m*3 16.3 C 0 km/h
615 14-07-2021 03:10:00 16.3 C 13.46 g/m*3 16.3 C 1.6 km/h
616 14-07-2021 03:15:00 16.3 C 13.46 g/m*3 16.3 C 0 km/h
617 14-07-2021 03:20:00 16.3 C 13.46 g/m*3 16.3 C 1.6 km/h
618 14-07-2021 03:25:00 16.3 C 13.46 g/m*3 16.3 C 0 km/h
619 14-07-2021 03:30:00 16.3 C 13.46 g/m*3 16.3 C 3.2 km/h
620 14-07-2021 03:35:00 16.3 C 13.46 g/m*3 16.3 C 0 km/h
621 14-07-2021 03:40:00 16.2 C 13.38 g/m*3 16.2 C 1.6 km/h
622 14-07-2021 03:45:00 16.2 C 13.38 g/m*3 16.2 C 3.2 km/h
623 14-07-2021 03:50:00 16.2 C 13.38 g/m*3 16.2 C 1.6 km/h
624 14-07-2021 03:55:00 16.2 C 13.38 g/m*3 16.2 C 1.6 km/h
625 14-07-2021 04:00:00 16.2 C 13.38 g/m*3 16.2 C 1.6 km/h
Sensor: Nr:Datum:Temp:Abs-Feuchte:Windchill:Wind:
Aussen-T/F 626 14-07-2021 04:05:00 16.2 C 13.38 g/m*3 16.2 C 0 km/h
627 14-07-2021 04:10:00 16.2 C 13.38 g/m*3 16.2 C 1.6 km/h
628 14-07-2021 04:15:00 16.2 C 13.38 g/m*3 16.2 C 0 km/h
629 14-07-2021 04:20:00 16.3 C 13.46 g/m*3 16.3 C 0 km/h
630 14-07-2021 04:25:00 16.3 C 13.46 g/m*3 16.3 C 0 km/h
631 14-07-2021 04:30:00 16.2 C 13.38 g/m*3 16.2 C 0 km/h
632 14-07-2021 04:35:00 16.2 C 13.38 g/m*3 16.2 C 0 km/h
633 14-07-2021 04:40:00 16.2 C 13.38 g/m*3 16.2 C 0 km/h
634 14-07-2021 04:45:00 16.2 C 13.38 g/m*3 16.2 C 0 km/h
635 14-07-2021 04:50:00 16.3 C 13.46 g/m*3 16.3 C 0 km/h
636 14-07-2021 04:55:00 16.2 C 13.38 g/m*3 16.2 C 0 km/h
637 14-07-2021 05:00:00 16.2 C 13.38 g/m*3 16.2 C 1.6 km/h
638 14-07-2021 05:05:00 16.2 C 13.38 g/m*3 16.2 C 0 km/h
639 14-07-2021 05:10:00 16.2 C 13.38 g/m*3 16.2 C 0 km/h
640 14-07-2021 05:15:00 16.2 C 13.38 g/m*3 16.2 C 0 km/h
641 14-07-2021 05:20:00 16.2 C 13.38 g/m*3 16.2 C 0 km/h
642 14-07-2021 05:25:00 16.3 C 13.46 g/m*3 16.3 C 0 km/h
643 14-07-2021 05:30:00 16.3 C 13.46 g/m*3 16.3 C 0 km/h
644 14-07-2021 05:35:00 16.3 C 13.46 g/m*3 16.3 C 0 km/h
645 14-07-2021 05:40:00 16.3 C 13.46 g/m*3 16.3 C 0 km/h
646 14-07-2021 05:45:00 16.3 C 13.46 g/m*3 16.3 C 0 km/h
647 14-07-2021 05:50:00 16.3 C 13.46 g/m*3 16.3 C 0 km/h
648 14-07-2021 05:55:00 16.3 C 13.46 g/m*3 16.3 C 0 km/h
649 14-07-2021 06:00:00 16.3 C 13.46 g/m*3 16.3 C 3.2 km/h
650 14-07-2021 06:05:00 16.3 C 13.46 g/m*3 16.3 C 8.1 km/h
Sensor: Nr:Datum:Temp:Abs-Feuchte:Windchill:Wind:
Aussen-T/F 651 14-07-2021 06:10:00 16.3 C 13.46 g/m*3 16.3 C 4.8 km/h
652 14-07-2021 06:15:00 16.3 C 13.46 g/m*3 16.3 C 0 km/h
653 14-07-2021 06:20:00 16.3 C 13.46 g/m*3 16.3 C 4.8 km/h
654 14-07-2021 06:25:00 16.3 C 13.46 g/m*3 16.3 C 8.1 km/h
655 14-07-2021 06:30:00 16.3 C 13.46 g/m*3 16.3 C 1.6 km/h
656 14-07-2021 06:35:00 16.3 C 13.46 g/m*3 16.3 C 0 km/h
657 14-07-2021 06:40:00 16.3 C 13.46 g/m*3 16.3 C 0 km/h
658 14-07-2021 06:45:00 16.3 C 13.46 g/m*3 16.3 C 0 km/h
659 14-07-2021 06:50:00 16.4 C 13.54 g/m*3 16.4 C 0 km/h
660 14-07-2021 06:55:00 16.4 C 13.54 g/m*3 16.4 C 1.6 km/h
661 14-07-2021 07:00:00 16.4 C 13.54 g/m*3 16.4 C 0 km/h
662 14-07-2021 07:05:00 16.4 C 13.54 g/m*3 16.4 C 0 km/h
663 14-07-2021 07:10:00 16.5 C 13.62 g/m*3 16.5 C 0 km/h
664 14-07-2021 07:15:00 16.5 C 13.62 g/m*3 16.5 C 0 km/h
665 14-07-2021 07:20:00 16.5 C 13.62 g/m*3 16.5 C 1.6 km/h
666 14-07-2021 07:25:00 16.6 C 13.7 g/m*3 16.6 C 3.2 km/h
667 14-07-2021 07:30:00 16.5 C 13.62 g/m*3 16.5 C 0 km/h
668 14-07-2021 07:35:00 16.6 C 13.7 g/m*3 16.6 C 0 km/h
669 14-07-2021 07:40:00 16.6 C 13.7 g/m*3 16.6 C 8.1 km/h
670 14-07-2021 07:45:00 16.6 C 13.7 g/m*3 16.6 C 6.4 km/h
671 14-07-2021 07:50:00 16.6 C 13.7 g/m*3 16.6 C 4.8 km/h
672 14-07-2021 07:55:00 16.6 C 13.7 g/m*3 16.6 C 3.2 km/h
673 14-07-2021 08:00:00 16.7 C 13.79 g/m*3 16.7 C 1.6 km/h
674 14-07-2021 08:05:00 16.7 C 13.79 g/m*3 16.7 C 3.2 km/h
675 14-07-2021 08:10:00 16.8 C 13.87 g/m*3 16.8 C 4.8 km/h
Sensor: Nr:Datum:Temp:Abs-Feuchte:Windchill:Wind:
Aussen-T/F 676 14-07-2021 08:15:00 17.1 C 14.12 g/m*3 17.1 C 8.1 km/h
677 14-07-2021 08:20:00 17.1 C 13.97 g/m*3 17.1 C 12.9 km/h
678 14-07-2021 08:25:00 17.1 C 13.97 g/m*3 17.1 C 8.1 km/h
679 14-07-2021 08:30:00 17.2 C 13.91 g/m*3 17.2 C 9.7 km/h
680 14-07-2021 08:35:00 17.2 C 13.91 g/m*3 17.2 C 9.7 km/h
681 14-07-2021 08:40:00 17.3 C 14 g/m*3 17.3 C 4.8 km/h
682 14-07-2021 08:45:00 17.4 C 13.93 g/m*3 17.4 C 4.8 km/h
683 14-07-2021 08:50:00 17.4 C 13.93 g/m*3 17.4 C 6.4 km/h
684 14-07-2021 08:55:00 17.4 C 13.93 g/m*3 17.4 C 6.4 km/h
685 14-07-2021 09:00:00 17.4 C 13.93 g/m*3 17.4 C 4.8 km/h
686 14-07-2021 09:05:00 17.6 C 14.1 g/m*3 17.6 C 9.7 km/h
687 14-07-2021 09:10:00 17.7 C 14.18 g/m*3 17.7 C 3.2 km/h
688 14-07-2021 09:15:00 17.8 C 14.27 g/m*3 17.8 C 8.1 km/h
689 14-07-2021 09:20:00 17.9 C 14.2 g/m*3 17.9 C 6.4 km/h
690 14-07-2021 09:25:00 18 C 14.28 g/m*3 18 C 9.7 km/h
691 14-07-2021 09:30:00 18.1 C 14.21 g/m*3 18.1 C 8.1 km/h
692 14-07-2021 09:35:00 18.2 C 14.3 g/m*3 18.2 C 9.7 km/h
693 14-07-2021 09:40:00 18.1 C 14.06 g/m*3 18.1 C 11.3 km/h
694 14-07-2021 09:45:00 18.1 C 14.06 g/m*3 18.1 C 11.3 km/h
695 14-07-2021 09:50:00 18.1 C 14.06 g/m*3 18.1 C 6.4 km/h
696 14-07-2021 09:55:00 18.1 C 14.06 g/m*3 18.1 C 9.7 km/h
697 14-07-2021 10:00:00 18.1 C 14.06 g/m*3 18.1 C 11.3 km/h
698 14-07-2021 10:05:00 18.1 C 13.91 g/m*3 18.1 C 14.5 km/h
699 14-07-2021 10:10:00 18.2 C 13.99 g/m*3 18.2 C 12.9 km/h
700 14-07-2021 10:15:00 18.2 C 13.99 g/m*3 18.2 C 9.7 km/h
Sensor: Nr:Datum:Temp:Abs-Feuchte:Windchill:Wind:
Aussen-T/F 701 14-07-2021 10:20:00 18.2 C 13.99 g/m*3 18.2 C 11.3 km/h
702 14-07-2021 10:25:00 18.2 C 13.99 g/m*3 18.2 C 11.3 km/h
703 14-07-2021 10:30:00 18.1 C 13.91 g/m*3 18.1 C 12.9 km/h
704 14-07-2021 10:35:00 18.1 C 13.91 g/m*3 18.1 C 12.9 km/h
705 14-07-2021 10:40:00 18.1 C 14.06 g/m*3 18.1 C 4.8 km/h
706 14-07-2021 10:45:00 18.1 C 14.06 g/m*3 18.1 C 8.1 km/h
707 14-07-2021 10:50:00 18.1 C 14.06 g/m*3 18.1 C 3.2 km/h
708 14-07-2021 10:55:00 18 C 13.98 g/m*3 18 C 11.3 km/h
709 14-07-2021 11:00:00 17.9 C 13.89 g/m*3 17.9 C 9.7 km/h
710 14-07-2021 11:05:00 17.9 C 13.89 g/m*3 17.9 C 9.7 km/h
711 14-07-2021 11:10:00 17.8 C 13.96 g/m*3 17.8 C 12.9 km/h
712 14-07-2021 11:15:00 17.7 C 13.88 g/m*3 17.7 C 9.7 km/h
713 14-07-2021 11:20:00 17.6 C 13.95 g/m*3 17.6 C 8.1 km/h
714 14-07-2021 11:25:00 17.6 C 13.95 g/m*3 17.6 C 1.6 km/h
715 14-07-2021 11:30:00 17.5 C 14.01 g/m*3 17.5 C 4.8 km/h
716 14-07-2021 11:35:00 17.4 C 13.93 g/m*3 17.4 C 8.1 km/h
717 14-07-2021 11:40:00 17.3 C 13.85 g/m*3 17.3 C 9.7 km/h
718 14-07-2021 11:45:00 17.3 C 13.85 g/m*3 17.3 C 3.2 km/h
719 14-07-2021 11:50:00 17.3 C 14 g/m*3 17.3 C 4.8 km/h
720 14-07-2021 11:55:00 17.3 C 14 g/m*3 17.3 C 3.2 km/h
721 14-07-2021 12:00:00 17.3 C 14 g/m*3 17.3 C 4.8 km/h
722 14-07-2021 12:05:00 17.3 C 14 g/m*3 17.3 C 6.4 km/h
723 14-07-2021 12:10:00 17.3 C 14 g/m*3 17.3 C 1.6 km/h
724 14-07-2021 12:15:00 17.3 C 14 g/m*3 17.3 C 3.2 km/h
725 14-07-2021 12:20:00 17.3 C 14 g/m*3 17.3 C 1.6 km/h
Sensor: Nr:Datum:Temp:Abs-Feuchte:Windchill:Wind:
Aussen-T/F 726 14-07-2021 12:25:00 17.3 C 14 g/m*3 17.3 C 3.2 km/h
727 14-07-2021 12:30:00 17.3 C 14 g/m*3 17.3 C 1.6 km/h
728 14-07-2021 12:35:00 17.4 C 14.08 g/m*3 17.4 C 0 km/h
729 14-07-2021 12:40:00 17.4 C 14.08 g/m*3 17.4 C 3.2 km/h
730 14-07-2021 12:45:00 17.4 C 14.08 g/m*3 17.4 C 0 km/h
731 14-07-2021 12:50:00 17.4 C 14.08 g/m*3 17.4 C 0 km/h
732 14-07-2021 12:55:00 17.4 C 14.08 g/m*3 17.4 C 1.6 km/h
733 14-07-2021 13:00:00 17.5 C 14.16 g/m*3 17.5 C 0 km/h
734 14-07-2021 13:05:00 17.5 C 14.16 g/m*3 17.5 C 0 km/h
735 14-07-2021 13:10:00 17.5 C 14.16 g/m*3 17.5 C 0 km/h
736 14-07-2021 13:15:00 17.6 C 14.4 g/m*3 17.6 C 3.2 km/h
737 14-07-2021 13:20:00 17.6 C 14.4 g/m*3 17.6 C 0 km/h
738 14-07-2021 13:25:00 17.6 C 14.4 g/m*3 17.6 C 1.6 km/h
739 14-07-2021 13:30:00 17.6 C 14.4 g/m*3 17.6 C 1.6 km/h
740 14-07-2021 13:35:00 17.6 C 14.4 g/m*3 17.6 C 1.6 km/h
741 14-07-2021 13:40:00 17.6 C 14.4 g/m*3 17.6 C 0 km/h
742 14-07-2021 13:45:00 17.6 C 14.4 g/m*3 17.6 C 0 km/h
743 14-07-2021 13:50:00 17.6 C 14.4 g/m*3 17.6 C 0 km/h
744 14-07-2021 13:55:00 17.7 C 14.48 g/m*3 17.7 C 0 km/h
745 14-07-2021 14:00:00 17.8 C 14.57 g/m*3 17.8 C 0 km/h
746 14-07-2021 14:05:00 17.8 C 14.57 g/m*3 17.8 C 0 km/h
747 14-07-2021 14:10:00 17.9 C 14.66 g/m*3 17.9 C 0 km/h
748 14-07-2021 14:15:00 17.9 C 14.66 g/m*3 17.9 C 1.6 km/h
749 14-07-2021 14:20:00 17.8 C 14.57 g/m*3 17.8 C 0 km/h
750 14-07-2021 14:25:00 17.8 C 14.57 g/m*3 17.8 C 0 km/h
Sensor: Nr:Datum:Temp:Abs-Feuchte:Windchill:Wind:
Aussen-T/F 751 14-07-2021 14:30:00 17.8 C 14.57 g/m*3 17.8 C 0 km/h
752 14-07-2021 14:35:00 17.9 C 14.66 g/m*3 17.9 C 0 km/h
753 14-07-2021 14:40:00 18 C 14.75 g/m*3 18 C 1.6 km/h
754 14-07-2021 14:45:00 17.9 C 14.66 g/m*3 17.9 C 1.6 km/h
755 14-07-2021 14:50:00 17.9 C 14.66 g/m*3 17.9 C 0 km/h
756 14-07-2021 14:55:00 18 C 14.75 g/m*3 18 C 0 km/h
757 14-07-2021 15:00:00 18 C 14.75 g/m*3 18 C 0 km/h
758 14-07-2021 15:05:00 18.1 C 14.83 g/m*3 18.1 C 0 km/h
759 14-07-2021 15:10:00 18.1 C 14.83 g/m*3 18.1 C 0 km/h
760 14-07-2021 15:15:00 18.1 C 14.83 g/m*3 18.1 C 0 km/h
761 14-07-2021 15:20:00 18 C 14.75 g/m*3 18 C 0 km/h
762 14-07-2021 15:25:00 17.9 C 14.66 g/m*3 17.9 C 0 km/h
763 14-07-2021 15:30:00 17.8 C 14.42 g/m*3 17.8 C 1.6 km/h
764 14-07-2021 15:35:00 17.8 C 14.42 g/m*3 17.8 C 1.6 km/h
765 14-07-2021 15:40:00 17.7 C 14.33 g/m*3 17.7 C 0 km/h
766 14-07-2021 15:45:00 17.7 C 14.48 g/m*3 17.7 C 0 km/h
767 14-07-2021 15:50:00 17.7 C 14.48 g/m*3 17.7 C 0 km/h
768 14-07-2021 15:55:00 17.7 C 14.48 g/m*3 17.7 C 0 km/h
769 14-07-2021 16:00:00 17.7 C 14.48 g/m*3 17.7 C 0 km/h
770 14-07-2021 16:05:00 17.7 C 14.48 g/m*3 17.7 C 0 km/h
771 14-07-2021 16:10:00 17.7 C 14.48 g/m*3 17.7 C 0 km/h
772 14-07-2021 16:15:00 17.7 C 14.48 g/m*3 17.7 C 0 km/h
773 14-07-2021 16:20:00 17.7 C 14.48 g/m*3 17.7 C 0 km/h
774 14-07-2021 16:25:00 17.7 C 14.48 g/m*3 17.7 C 0 km/h
775 14-07-2021 16:30:00 17.7 C 14.48 g/m*3 17.7 C 0 km/h
Sensor: Nr:Datum:Temp:Abs-Feuchte:Windchill:Wind:
Aussen-T/F 776 14-07-2021 16:35:00 17.6 C 14.4 g/m*3 17.6 C 0 km/h
777 14-07-2021 16:40:00 17.6 C 14.4 g/m*3 17.6 C 0 km/h
778 14-07-2021 16:45:00 17.5 C 14.31 g/m*3 17.5 C 0 km/h
779 14-07-2021 16:50:00 17.4 C 14.23 g/m*3 17.4 C 0 km/h
780 14-07-2021 16:55:00 17.4 C 14.23 g/m*3 17.4 C 0 km/h
781 14-07-2021 17:00:00 17.4 C 14.23 g/m*3 17.4 C 0 km/h
782 14-07-2021 17:05:00 17.5 C 14.31 g/m*3 17.5 C 0 km/h
783 14-07-2021 17:10:00 17.5 C 14.31 g/m*3 17.5 C 4.8 km/h
784 14-07-2021 17:15:00 17.4 C 14.23 g/m*3 17.4 C 4.8 km/h
785 14-07-2021 17:20:00 17.3 C 14.14 g/m*3 17.3 C 1.6 km/h
786 14-07-2021 17:25:00 17.3 C 14.14 g/m*3 17.3 C 1.6 km/h
787 14-07-2021 17:30:00 17.3 C 14.14 g/m*3 17.3 C 0 km/h
788 14-07-2021 17:35:00 17.3 C 14.14 g/m*3 17.3 C 0 km/h
789 14-07-2021 17:40:00 17.3 C 14.14 g/m*3 17.3 C 0 km/h
790 14-07-2021 17:45:00 17.3 C 14.14 g/m*3 17.3 C 1.6 km/h
791 14-07-2021 17:50:00 17.4 C 14.38 g/m*3 17.4 C 1.6 km/h
792 14-07-2021 17:55:00 17.4 C 14.38 g/m*3 17.4 C 1.6 km/h
793 14-07-2021 18:00:00 17.3 C 14.14 g/m*3 17.3 C 6.4 km/h
794 14-07-2021 18:05:00 17.3 C 14.14 g/m*3 17.3 C 4.8 km/h
795 14-07-2021 18:10:00 17.3 C 14.14 g/m*3 17.3 C 6.4 km/h
796 14-07-2021 18:15:00 17.2 C 14.06 g/m*3 17.2 C 1.6 km/h
797 14-07-2021 18:20:00 17.2 C 14.06 g/m*3 17.2 C 0 km/h
798 14-07-2021 18:25:00 17.2 C 14.06 g/m*3 17.2 C 4.8 km/h
799 14-07-2021 18:30:00 17.2 C 14.06 g/m*3 17.2 C 4.8 km/h
800 14-07-2021 18:35:00 17.2 C 14.06 g/m*3 17.2 C 4.8 km/h
Sensor: Nr:Datum:Temp:Abs-Feuchte:Windchill:Wind:
Aussen-T/F 801 14-07-2021 18:40:00 17.2 C 14.06 g/m*3 17.2 C 1.6 km/h
802 14-07-2021 18:45:00 17.2 C 14.06 g/m*3 17.2 C 11.3 km/h
803 14-07-2021 18:50:00 17.2 C 14.06 g/m*3 17.2 C 4.8 km/h
804 14-07-2021 18:55:00 17.2 C 14.06 g/m*3 17.2 C 8.1 km/h
805 14-07-2021 19:00:00 17.1 C 14.12 g/m*3 17.1 C 3.2 km/h
806 14-07-2021 19:05:00 17.1 C 14.12 g/m*3 17.1 C 4.8 km/h
807 14-07-2021 19:10:00 17.1 C 14.12 g/m*3 17.1 C 0 km/h
808 14-07-2021 19:15:00 17.1 C 14.12 g/m*3 17.1 C 1.6 km/h
809 14-07-2021 19:20:00 17.1 C 14.12 g/m*3 17.1 C 0 km/h
810 14-07-2021 19:25:00 17.1 C 14.12 g/m*3 17.1 C 0 km/h
811 14-07-2021 19:30:00 17.1 C 14.12 g/m*3 17.1 C 0 km/h
812 14-07-2021 19:35:00 17.1 C 14.12 g/m*3 17.1 C 4.8 km/h
813 14-07-2021 19:40:00 17.1 C 14.12 g/m*3 17.1 C 1.6 km/h
814 14-07-2021 19:45:00 17.1 C 14.12 g/m*3 17.1 C 1.6 km/h
815 14-07-2021 19:50:00 17.1 C 14.12 g/m*3 17.1 C 1.6 km/h
816 14-07-2021 19:55:00 17.1 C 14.12 g/m*3 17.1 C 4.8 km/h
817 14-07-2021 20:00:00 17.1 C 14.12 g/m*3 17.1 C 1.6 km/h
818 14-07-2021 20:05:00 17.1 C 14.12 g/m*3 17.1 C 1.6 km/h
819 14-07-2021 20:10:00 17 C 14.04 g/m*3 17 C 4.8 km/h
820 14-07-2021 20:15:00 17 C 14.04 g/m*3 17 C 4.8 km/h
821 14-07-2021 20:20:00 16.9 C 13.95 g/m*3 16.9 C 4.8 km/h
822 14-07-2021 20:25:00 16.9 C 13.95 g/m*3 16.9 C 1.6 km/h
823 14-07-2021 20:30:00 16.9 C 13.95 g/m*3 16.9 C 4.8 km/h
824 14-07-2021 20:35:00 16.9 C 13.95 g/m*3 16.9 C 1.6 km/h
825 14-07-2021 20:40:00 16.8 C 13.87 g/m*3 16.8 C 1.6 km/h
Sensor: Nr:Datum:Temp:Abs-Feuchte:Windchill:Wind:
Aussen-T/F 826 14-07-2021 20:45:00 16.8 C 13.87 g/m*3 16.8 C 1.6 km/h
827 14-07-2021 20:50:00 16.8 C 13.87 g/m*3 16.8 C 1.6 km/h
828 14-07-2021 20:55:00 16.8 C 13.87 g/m*3 16.8 C 0 km/h
829 14-07-2021 21:00:00 16.8 C 13.87 g/m*3 16.8 C 0 km/h
830 14-07-2021 21:05:00 16.7 C 13.79 g/m*3 16.7 C 0 km/h
831 14-07-2021 21:10:00 16.7 C 13.79 g/m*3 16.7 C 0 km/h
832 14-07-2021 21:15:00 16.7 C 13.79 g/m*3 16.7 C 0 km/h
833 14-07-2021 21:20:00 16.7 C 13.79 g/m*3 16.7 C 8.1 km/h
834 14-07-2021 21:25:00 16.7 C 13.79 g/m*3 16.7 C 6.4 km/h
835 14-07-2021 21:30:00 16.7 C 13.79 g/m*3 16.7 C 6.4 km/h
836 14-07-2021 21:35:00 16.6 C 13.7 g/m*3 16.6 C 4.8 km/h
837 14-07-2021 21:40:00 16.6 C 13.7 g/m*3 16.6 C 6.4 km/h
838 14-07-2021 21:45:00 16.6 C 13.7 g/m*3 16.6 C 3.2 km/h
839 14-07-2021 21:50:00 16.6 C 13.7 g/m*3 16.6 C 4.8 km/h
840 14-07-2021 21:55:00 16.6 C 13.7 g/m*3 16.6 C 8.1 km/h
841 14-07-2021 22:00:00 16.6 C 13.7 g/m*3 16.6 C 8.1 km/h
842 14-07-2021 22:05:00 16.5 C 13.62 g/m*3 16.5 C 8.1 km/h
843 14-07-2021 22:10:00 16.5 C 13.62 g/m*3 16.5 C 6.4 km/h
844 14-07-2021 22:15:00 16.4 C 13.54 g/m*3 16.4 C 4.8 km/h
845 14-07-2021 22:20:00 16.4 C 13.54 g/m*3 16.4 C 3.2 km/h
846 14-07-2021 22:25:00 16.3 C 13.46 g/m*3 16.3 C 4.8 km/h
847 14-07-2021 22:30:00 16.3 C 13.46 g/m*3 16.3 C 0 km/h
848 14-07-2021 22:35:00 16.2 C 13.38 g/m*3 16.2 C 0 km/h
849 14-07-2021 22:40:00 16.2 C 13.38 g/m*3 16.2 C 1.6 km/h
850 14-07-2021 22:45:00 16.2 C 13.38 g/m*3 16.2 C 1.6 km/h
Sensor: Nr:Datum:Temp:Abs-Feuchte:Windchill:Wind:
Aussen-T/F 851 14-07-2021 22:50:00 16.1 C 13.3 g/m*3 16.1 C 0 km/h
852 14-07-2021 22:55:00 15.9 C 13.14 g/m*3 15.9 C 0 km/h
853 14-07-2021 23:00:00 15.8 C 12.92 g/m*3 15.8 C 3.2 km/h
854 14-07-2021 23:05:00 15.6 C 12.9 g/m*3 15.6 C 1.6 km/h
855 14-07-2021 23:10:00 15.5 C 12.82 g/m*3 15.5 C 0 km/h
856 14-07-2021 23:15:00 15.4 C 12.61 g/m*3 15.4 C 0 km/h
857 14-07-2021 23:20:00 15.3 C 12.67 g/m*3 15.3 C 0 km/h
858 14-07-2021 23:25:00 15.3 C 12.67 g/m*3 15.3 C 1.6 km/h
859 14-07-2021 23:30:00 15.4 C 12.74 g/m*3 15.4 C 0 km/h
860 14-07-2021 23:35:00 15.5 C 12.82 g/m*3 15.5 C 0 km/h
861 14-07-2021 23:40:00 15.5 C 12.82 g/m*3 15.5 C 0 km/h
862 14-07-2021 23:45:00 15.4 C 12.74 g/m*3 15.4 C 0 km/h
863 14-07-2021 23:50:00 15.4 C 12.74 g/m*3 15.4 C 0 km/h
864 14-07-2021 23:55:00 15.3 C 12.67 g/m*3 15.3 C 0 km/h
865 15-07-2021 00:00:00 15.2 C 12.59 g/m*3 15.2 C 0 km/h
866 15-07-2021 00:05:00 15.1 C 12.51 g/m*3 15.1 C 0 km/h
867 15-07-2021 00:10:00 15 C 12.44 g/m*3 15 C 0 km/h
868 15-07-2021 00:15:00 14.9 C 12.36 g/m*3 14.9 C 0 km/h
869 15-07-2021 00:20:00 14.9 C 12.36 g/m*3 14.9 C 0 km/h
870 15-07-2021 00:25:00 14.9 C 12.36 g/m*3 14.9 C 0 km/h
871 15-07-2021 00:30:00 15 C 12.44 g/m*3 15 C 0 km/h
872 15-07-2021 00:35:00 15 C 12.44 g/m*3 15 C 0 km/h
873 15-07-2021 00:40:00 15.1 C 12.51 g/m*3 15.1 C 0 km/h
874 15-07-2021 00:45:00 15.1 C 12.51 g/m*3 15.1 C 0 km/h
875 15-07-2021 00:50:00 15.2 C 12.59 g/m*3 15.2 C 0 km/h
Sensor: Nr:Datum:Temp:Abs-Feuchte:Windchill:Wind:
Aussen-T/F 876 15-07-2021 00:55:00 15.2 C 12.59 g/m*3 15.2 C 0 km/h
877 15-07-2021 01:00:00 15.2 C 12.59 g/m*3 15.2 C 0 km/h
878 15-07-2021 01:05:00 15.3 C 12.67 g/m*3 15.3 C 0 km/h
879 15-07-2021 01:10:00 15.3 C 12.67 g/m*3 15.3 C 0 km/h
880 15-07-2021 01:15:00 15.3 C 12.67 g/m*3 15.3 C 0 km/h
881 15-07-2021 01:20:00 15.4 C 12.74 g/m*3 15.4 C 0 km/h
882 15-07-2021 01:25:00 15.4 C 12.74 g/m*3 15.4 C 0 km/h
883 15-07-2021 01:30:00 15.5 C 12.82 g/m*3 15.5 C 0 km/h
884 15-07-2021 01:35:00 15.5 C 12.82 g/m*3 15.5 C 0 km/h
885 15-07-2021 01:40:00 15.5 C 12.82 g/m*3 15.5 C 0 km/h
886 15-07-2021 01:45:00 15.5 C 12.82 g/m*3 15.5 C 0 km/h
887 15-07-2021 01:50:00 15.6 C 12.9 g/m*3 15.6 C 0 km/h
888 15-07-2021 01:55:00 15.6 C 12.9 g/m*3 15.6 C 0 km/h
889 15-07-2021 02:00:00 15.6 C 12.9 g/m*3 15.6 C 0 km/h
890 15-07-2021 02:05:00 15.6 C 12.9 g/m*3 15.6 C 0 km/h
891 15-07-2021 02:10:00 15.6 C 12.9 g/m*3 15.6 C 0 km/h
892 15-07-2021 02:15:00 15.6 C 12.9 g/m*3 15.6 C 0 km/h
893 15-07-2021 02:20:00 15.5 C 12.82 g/m*3 15.5 C 0 km/h
894 15-07-2021 02:25:00 15.5 C 12.82 g/m*3 15.5 C 0 km/h
895 15-07-2021 02:30:00 15.4 C 12.74 g/m*3 15.4 C 0 km/h
896 15-07-2021 02:35:00 15.4 C 12.74 g/m*3 15.4 C 0 km/h
897 15-07-2021 02:40:00 15.3 C 12.67 g/m*3 15.3 C 0 km/h
898 15-07-2021 02:45:00 15.3 C 12.67 g/m*3 15.3 C 0 km/h
899 15-07-2021 02:50:00 15.3 C 12.67 g/m*3 15.3 C 0 km/h
900 15-07-2021 02:55:00 15.3 C 12.67 g/m*3 15.3 C 0 km/h
Sensor: Nr:Datum:Temp:Abs-Feuchte:Windchill:Wind:
Aussen-T/F 901 15-07-2021 03:00:00 15.3 C 12.67 g/m*3 15.3 C 0 km/h
902 15-07-2021 03:05:00 15.3 C 12.67 g/m*3 15.3 C 0 km/h
903 15-07-2021 03:10:00 15.3 C 12.67 g/m*3 15.3 C 0 km/h
904 15-07-2021 03:15:00 15.3 C 12.67 g/m*3 15.3 C 0 km/h
905 15-07-2021 03:20:00 15.3 C 12.67 g/m*3 15.3 C 0 km/h
906 15-07-2021 03:25:00 15.3 C 12.67 g/m*3 15.3 C 0 km/h
907 15-07-2021 03:30:00 15.3 C 12.8 g/m*3 15.3 C 0 km/h
908 15-07-2021 03:35:00 15.3 C 12.8 g/m*3 15.3 C 0 km/h
909 15-07-2021 03:40:00 15.3 C 12.8 g/m*3 15.3 C 0 km/h
910 15-07-2021 03:45:00 15.3 C 12.8 g/m*3 15.3 C 0 km/h
911 15-07-2021 03:50:00 15.3 C 12.8 g/m*3 15.3 C 0 km/h
912 15-07-2021 03:55:00 15.3 C 12.8 g/m*3 15.3 C 0 km/h
913 15-07-2021 04:00:00 15.3 C 12.8 g/m*3 15.3 C 0 km/h
914 15-07-2021 04:05:00 15.3 C 12.8 g/m*3 15.3 C 0 km/h
915 15-07-2021 04:10:00 15.3 C 12.8 g/m*3 15.3 C 0 km/h
916 15-07-2021 04:15:00 15.3 C 12.8 g/m*3 15.3 C 0 km/h
917 15-07-2021 04:20:00 15.4 C 12.88 g/m*3 15.4 C 0 km/h
918 15-07-2021 04:25:00 15.4 C 12.88 g/m*3 15.4 C 0 km/h
919 15-07-2021 04:30:00 15.4 C 12.88 g/m*3 15.4 C 0 km/h
920 15-07-2021 04:35:00 15.5 C 12.95 g/m*3 15.5 C 0 km/h
921 15-07-2021 04:40:00 15.5 C 12.95 g/m*3 15.5 C 0 km/h
922 15-07-2021 04:45:00 15.6 C 13.03 g/m*3 15.6 C 0 km/h
923 15-07-2021 04:50:00 15.6 C 13.03 g/m*3 15.6 C 0 km/h
924 15-07-2021 04:55:00 15.6 C 13.03 g/m*3 15.6 C 0 km/h
925 15-07-2021 05:00:00 15.6 C 13.03 g/m*3 15.6 C 0 km/h
Sensor: Nr:Datum:Temp:Abs-Feuchte:Windchill:Wind:
Aussen-T/F 926 15-07-2021 05:05:00 15.7 C 13.11 g/m*3 15.7 C 0 km/h
927 15-07-2021 05:10:00 15.7 C 13.11 g/m*3 15.7 C 0 km/h
928 15-07-2021 05:15:00 15.7 C 13.11 g/m*3 15.7 C 0 km/h
929 15-07-2021 05:20:00 15.7 C 13.11 g/m*3 15.7 C 0 km/h
930 15-07-2021 05:25:00 15.7 C 13.11 g/m*3 15.7 C 0 km/h
931 15-07-2021 05:30:00 15.8 C 13.19 g/m*3 15.8 C 0 km/h
932 15-07-2021 05:35:00 15.8 C 13.19 g/m*3 15.8 C 0 km/h
933 15-07-2021 05:40:00 15.8 C 13.19 g/m*3 15.8 C 0 km/h
934 15-07-2021 05:45:00 15.8 C 13.19 g/m*3 15.8 C 0 km/h
935 15-07-2021 05:50:00 15.8 C 13.19 g/m*3 15.8 C 0 km/h
936 15-07-2021 05:55:00 15.8 C 13.19 g/m*3 15.8 C 0 km/h
937 15-07-2021 06:00:00 15.8 C 13.19 g/m*3 15.8 C 0 km/h
938 15-07-2021 06:05:00 15.8 C 13.19 g/m*3 15.8 C 0 km/h
939 15-07-2021 06:10:00 15.8 C 13.19 g/m*3 15.8 C 0 km/h
940 15-07-2021 06:15:00 15.9 C 13.27 g/m*3 15.9 C 0 km/h
941 15-07-2021 06:20:00 15.9 C 13.27 g/m*3 15.9 C 0 km/h
942 15-07-2021 06:25:00 16 C 13.35 g/m*3 16 C 0 km/h
943 15-07-2021 06:30:00 16 C 13.35 g/m*3 16 C 0 km/h
944 15-07-2021 06:35:00 16 C 13.35 g/m*3 16 C 0 km/h
945 15-07-2021 06:40:00 16.1 C 13.43 g/m*3 16.1 C 0 km/h
946 15-07-2021 06:45:00 16.1 C 13.43 g/m*3 16.1 C 0 km/h
947 15-07-2021 06:50:00 16.1 C 13.43 g/m*3 16.1 C 0 km/h
948 15-07-2021 06:55:00 16.2 C 13.51 g/m*3 16.2 C 0 km/h
949 15-07-2021 07:00:00 16.2 C 13.51 g/m*3 16.2 C 0 km/h
950 15-07-2021 07:05:00 16.2 C 13.51 g/m*3 16.2 C 0 km/h
Sensor: Nr:Datum:Temp:Abs-Feuchte:Windchill:Wind:
Aussen-T/F 951 15-07-2021 07:10:00 16.2 C 13.51 g/m*3 16.2 C 0 km/h
952 15-07-2021 07:15:00 16.2 C 13.51 g/m*3 16.2 C 0 km/h
953 15-07-2021 07:20:00 16.3 C 13.6 g/m*3 16.3 C 0 km/h
954 15-07-2021 07:25:00 16.3 C 13.6 g/m*3 16.3 C 0 km/h
955 15-07-2021 07:30:00 16.3 C 13.6 g/m*3 16.3 C 0 km/h
956 15-07-2021 07:35:00 16.4 C 13.68 g/m*3 16.4 C 0 km/h
957 15-07-2021 07:40:00 16.4 C 13.68 g/m*3 16.4 C 0 km/h
958 15-07-2021 07:45:00 16.5 C 13.76 g/m*3 16.5 C 0 km/h
959 15-07-2021 07:50:00 16.6 C 13.84 g/m*3 16.6 C 0 km/h
960 15-07-2021 07:55:00 16.6 C 13.84 g/m*3 16.6 C 0 km/h
961 15-07-2021 08:00:00 16.6 C 13.84 g/m*3 16.6 C 0 km/h
962 15-07-2021 08:05:00 16.6 C 13.84 g/m*3 16.6 C 0 km/h
963 15-07-2021 08:10:00 16.6 C 13.84 g/m*3 16.6 C 0 km/h
964 15-07-2021 08:15:00 16.6 C 13.84 g/m*3 16.6 C 0 km/h
965 15-07-2021 08:20:00 16.7 C 13.93 g/m*3 16.7 C 0 km/h
966 15-07-2021 08:25:00 16.7 C 13.93 g/m*3 16.7 C 0 km/h
967 15-07-2021 08:30:00 16.8 C 14.01 g/m*3 16.8 C 0 km/h
968 15-07-2021 08:35:00 16.9 C 14.1 g/m*3 16.9 C 0 km/h
969 15-07-2021 08:40:00 16.9 C 14.1 g/m*3 16.9 C 1.6 km/h
970 15-07-2021 08:45:00 16.9 C 14.1 g/m*3 16.9 C 0 km/h
971 15-07-2021 08:50:00 16.8 C 14.01 g/m*3 16.8 C 0 km/h
972 15-07-2021 08:55:00 16.9 C 14.1 g/m*3 16.9 C 0 km/h
973 15-07-2021 09:00:00 17 C 14.18 g/m*3 17 C 0 km/h
974 15-07-2021 09:05:00 17.1 C 14.27 g/m*3 17.1 C 0 km/h
975 15-07-2021 09:10:00 17.2 C 14.35 g/m*3 17.2 C 0 km/h
Sensor: Nr:Datum:Temp:Abs-Feuchte:Windchill:Wind:
Aussen-T/F 976 15-07-2021 09:15:00 17.2 C 14.35 g/m*3 17.2 C 0 km/h
977 15-07-2021 09:20:00 17.3 C 14.44 g/m*3 17.3 C 0 km/h
978 15-07-2021 09:25:00 17.4 C 14.52 g/m*3 17.4 C 0 km/h
979 15-07-2021 09:30:00 17.6 C 14.7 g/m*3 17.6 C 0 km/h
980 15-07-2021 09:35:00 17.6 C 14.7 g/m*3 17.6 C 0 km/h
981 15-07-2021 09:40:00 17.7 C 14.79 g/m*3 17.7 C 0 km/h
982 15-07-2021 09:45:00 17.7 C 14.79 g/m*3 17.7 C 0 km/h
983 15-07-2021 09:50:00 17.6 C 14.7 g/m*3 17.6 C 0 km/h
984 15-07-2021 09:55:00 17.4 C 14.52 g/m*3 17.4 C 0 km/h
985 15-07-2021 10:00:00 17.4 C 14.52 g/m*3 17.4 C 0 km/h
986 15-07-2021 10:05:00 17.4 C 14.52 g/m*3 17.4 C 0 km/h
987 15-07-2021 10:10:00 17.6 C 14.7 g/m*3 17.6 C 0 km/h
988 15-07-2021 10:15:00 17.7 C 14.79 g/m*3 17.7 C 0 km/h
989 15-07-2021 10:20:00 17.8 C 14.87 g/m*3 17.8 C 0 km/h
990 15-07-2021 10:25:00 17.9 C 14.96 g/m*3 17.9 C 0 km/h
991 15-07-2021 10:30:00 18.1 C 15.14 g/m*3 18.1 C 0 km/h
992 15-07-2021 10:35:00 18.1 C 14.99 g/m*3 18.1 C 0 km/h
993 15-07-2021 10:40:00 17.9 C 14.81 g/m*3 17.9 C 0 km/h
994 15-07-2021 10:45:00 17.9 C 14.81 g/m*3 17.9 C 0 km/h
995 15-07-2021 10:50:00 18.1 C 14.99 g/m*3 18.1 C 0 km/h
996 15-07-2021 10:55:00 18.2 C 15.08 g/m*3 18.2 C 0 km/h
997 15-07-2021 11:00:00 18.3 C 15.17 g/m*3 18.3 C 0 km/h
998 15-07-2021 11:05:00 18.3 C 15.17 g/m*3 18.3 C 0 km/h
999 15-07-2021 11:10:00 18.4 C 15.26 g/m*3 18.4 C 0 km/h
1000 15-07-2021 11:15:00 18.4 C 15.26 g/m*3 18.4 C 0 km/h
Sensor: Nr:Datum:Temp:Abs-Feuchte:Windchill:Wind:
Aussen-T/F 1001 15-07-2021 11:20:00 18.3 C 15.01 g/m*3 18.3 C 0 km/h
1002 15-07-2021 11:25:00 18.3 C 15.01 g/m*3 18.3 C 0 km/h
1003 15-07-2021 11:30:00 18.4 C 15.1 g/m*3 18.4 C 0 km/h
1004 15-07-2021 11:35:00 18.5 C 15.19 g/m*3 18.5 C 0 km/h
1005 15-07-2021 11:40:00 18.4 C 15.1 g/m*3 18.4 C 1.6 km/h
1006 15-07-2021 11:45:00 18.4 C 14.94 g/m*3 18.4 C 0 km/h
1007 15-07-2021 11:50:00 18.5 C 15.03 g/m*3 18.5 C 0 km/h
1008 15-07-2021 11:55:00 18.6 C 15.12 g/m*3 18.6 C 0 km/h
1009 15-07-2021 12:00:00 18.7 C 15.21 g/m*3 18.7 C 0 km/h
1010 15-07-2021 12:05:00 18.8 C 14.98 g/m*3 18.8 C 1.6 km/h
1011 15-07-2021 12:10:00 18.9 C 14.9 g/m*3 18.9 C 0 km/h
1012 15-07-2021 12:15:00 19.1 C 14.92 g/m*3 19.1 C 0 km/h
1013 15-07-2021 12:20:00 19.2 C 15.17 g/m*3 19.2 C 0 km/h
1014 15-07-2021 12:25:00 19.4 C 15.35 g/m*3 19.4 C 0 km/h
1015 15-07-2021 12:30:00 19.6 C 15.36 g/m*3 19.6 C 6.4 km/h
1016 15-07-2021 12:35:00 19.7 C 15.11 g/m*3 19.7 C 6.4 km/h
1017 15-07-2021 12:40:00 19.8 C 15.2 g/m*3 19.8 C 8.1 km/h
1018 15-07-2021 12:45:00 19.8 C 14.86 g/m*3 19.8 C 6.4 km/h
1019 15-07-2021 12:50:00 19.9 C 14.78 g/m*3 19.9 C 4.8 km/h
1020 15-07-2021 12:55:00 20 C 14.86 g/m*3 20 C 1.6 km/h
1021 15-07-2021 13:00:00 20.1 C 14.6 g/m*3 20.1 C 6.4 km/h
1022 15-07-2021 13:05:00 20.2 C 14.69 g/m*3 20.2 C 8.1 km/h
1023 15-07-2021 13:10:00 20.3 C 14.77 g/m*3 20.3 C 6.4 km/h
1024 15-07-2021 13:15:00 20.4 C 15.04 g/m*3 20.4 C 3.2 km/h
1025 15-07-2021 13:20:00 20.5 C 14.77 g/m*3 20.5 C 4.8 km/h
Sensor: Nr:Datum:Temp:Abs-Feuchte:Windchill:Wind:
Aussen-T/F 1026 15-07-2021 13:25:00 20.7 C 14.94 g/m*3 20.7 C 6.4 km/h
1027 15-07-2021 13:30:00 20.7 C 14.4 g/m*3 20.7 C 4.8 km/h
1028 15-07-2021 13:35:00 20.8 C 14.67 g/m*3 20.8 C 4.8 km/h
1029 15-07-2021 13:40:00 21 C 14.84 g/m*3 21 C 6.4 km/h
1030 15-07-2021 13:45:00 21.1 C 14.56 g/m*3 21.1 C 4.8 km/h
1031 15-07-2021 13:50:00 21.2 C 14.27 g/m*3 21.2 C 4.8 km/h
1032 15-07-2021 13:55:00 21.2 C 14.27 g/m*3 21.2 C 9.7 km/h
1033 15-07-2021 14:00:00 21.3 C 14.73 g/m*3 21.3 C 9.7 km/h
1034 15-07-2021 14:05:00 21.3 C 14.54 g/m*3 21.3 C 4.8 km/h
1035 15-07-2021 14:10:00 21.3 C 14.54 g/m*3 21.3 C 6.4 km/h
1036 15-07-2021 14:15:00 21.4 C 14.62 g/m*3 21.4 C 6.4 km/h
1037 15-07-2021 14:20:00 21.5 C 14.52 g/m*3 21.5 C 0 km/h
1038 15-07-2021 14:25:00 21.6 C 14.79 g/m*3 21.6 C 3.2 km/h
1039 15-07-2021 14:30:00 21.7 C 14.88 g/m*3 21.7 C 4.8 km/h
1040 15-07-2021 14:35:00 21.7 C 15.07 g/m*3 21.7 C 8.1 km/h
1041 15-07-2021 14:40:00 21.7 C 15.07 g/m*3 21.7 C 4.8 km/h
1042 15-07-2021 14:45:00 21.7 C 14.31 g/m*3 21.7 C 8.1 km/h
1043 15-07-2021 14:50:00 21.8 C 14.97 g/m*3 21.8 C 6.4 km/h
1044 15-07-2021 14:55:00 21.8 C 14.58 g/m*3 21.8 C 6.4 km/h
1045 15-07-2021 15:00:00 21.9 C 14.86 g/m*3 21.9 C 8.1 km/h
1046 15-07-2021 15:05:00 22 C 14.75 g/m*3 22 C 6.4 km/h
1047 15-07-2021 15:10:00 22.1 C 14.64 g/m*3 22.1 C 9.7 km/h
1048 15-07-2021 15:15:00 22 C 14.75 g/m*3 22 C 9.7 km/h
1049 15-07-2021 15:20:00 22 C 14.75 g/m*3 22 C 12.9 km/h
1050 15-07-2021 15:25:00 22 C 14.17 g/m*3 22 C 8.1 km/h
Sensor: Nr:Datum:Temp:Abs-Feuchte:Windchill:Wind:
Aussen-T/F 1051 15-07-2021 15:30:00 22.1 C 14.64 g/m*3 22.1 C 6.4 km/h
1052 15-07-2021 15:35:00 22.2 C 14.53 g/m*3 22.2 C 9.7 km/h
1053 15-07-2021 15:40:00 22.4 C 14.3 g/m*3 22.4 C 6.4 km/h
1054 15-07-2021 15:45:00 22.8 C 14.43 g/m*3 22.8 C 11.3 km/h
1055 15-07-2021 15:50:00 23 C 14.39 g/m*3 23 C 9.7 km/h
1056 15-07-2021 15:55:00 23.2 C 14.55 g/m*3 23.2 C 11.3 km/h
1057 15-07-2021 16:00:00 23.4 C 14.51 g/m*3 23.4 C 9.7 km/h
1058 15-07-2021 16:05:00 23.5 C 14.59 g/m*3 23.5 C 4.8 km/h
1059 15-07-2021 16:10:00 23.5 C 14.17 g/m*3 23.5 C 8.1 km/h
1060 15-07-2021 16:15:00 23.4 C 14.51 g/m*3 23.4 C 4.8 km/h
1061 15-07-2021 16:20:00 23.4 C 15.35 g/m*3 23.4 C 0 km/h
1062 15-07-2021 16:25:00 23.6 C 15.95 g/m*3 23.6 C 4.8 km/h
1063 15-07-2021 16:30:00 23.8 C 16.35 g/m*3 23.8 C 4.8 km/h
1064 15-07-2021 16:35:00 23.8 C 14.63 g/m*3 23.8 C 8.1 km/h
1065 15-07-2021 16:40:00 24.1 C 14.66 g/m*3 24.1 C 8.1 km/h
1066 15-07-2021 16:45:00 24.4 C 14.69 g/m*3 24.4 C 9.7 km/h
1067 15-07-2021 16:50:00 24.7 C 16.07 g/m*3 24.7 C 1.6 km/h
1068 15-07-2021 16:55:00 24.7 C 16.3 g/m*3 24.7 C 6.4 km/h
1069 15-07-2021 17:00:00 24.8 C 14.8 g/m*3 24.8 C 6.4 km/h
1070 15-07-2021 17:05:00 24.7 C 14.94 g/m*3 24.7 C 3.2 km/h
1071 15-07-2021 17:10:00 24.8 C 15.02 g/m*3 24.8 C 6.4 km/h
1072 15-07-2021 17:15:00 24.9 C 15.34 g/m*3 24.9 C 6.4 km/h
1073 15-07-2021 17:20:00 25.3 C 14.75 g/m*3 25.3 C 3.2 km/h
1074 15-07-2021 17:25:00 25.3 C 14.51 g/m*3 25.3 C 6.4 km/h
1075 15-07-2021 17:30:00 25.2 C 15.13 g/m*3 25.2 C 1.6 km/h
Sensor: Nr:Datum:Temp:Abs-Feuchte:Windchill:Wind:
Aussen-T/F 1076 15-07-2021 17:35:00 25.2 C 15.36 g/m*3 25.2 C 4.8 km/h
1077 15-07-2021 17:40:00 25.3 C 15.45 g/m*3 25.3 C 8.1 km/h
1078 15-07-2021 17:45:00 25.3 C 14.98 g/m*3 25.3 C 6.4 km/h
1079 15-07-2021 17:50:00 25.3 C 15.22 g/m*3 25.3 C 4.8 km/h
1080 15-07-2021 17:55:00 25.4 C 15.07 g/m*3 25.4 C 4.8 km/h
1081 15-07-2021 18:00:00 25.4 C 15.07 g/m*3 25.4 C 3.2 km/h
1082 15-07-2021 18:05:00 25.5 C 14.44 g/m*3 25.5 C 4.8 km/h
1083 15-07-2021 18:10:00 25.5 C 15.15 g/m*3 25.5 C 8.1 km/h
1084 15-07-2021 18:15:00 25.3 C 14.51 g/m*3 25.3 C 6.4 km/h
1085 15-07-2021 18:20:00 25.4 C 14.6 g/m*3 25.4 C 4.8 km/h
1086 15-07-2021 18:25:00 25.3 C 14.51 g/m*3 25.3 C 8.1 km/h
1087 15-07-2021 18:30:00 25.1 C 14.35 g/m*3 25.1 C 8.1 km/h
1088 15-07-2021 18:35:00 24.9 C 14.19 g/m*3 24.9 C 9.7 km/h
1089 15-07-2021 18:40:00 24.9 C 14.42 g/m*3 24.9 C 11.3 km/h
1090 15-07-2021 18:45:00 24.8 C 14.57 g/m*3 24.8 C 12.9 km/h
1091 15-07-2021 18:50:00 24.5 C 14.55 g/m*3 24.5 C 9.7 km/h
1092 15-07-2021 18:55:00 24.2 C 14.74 g/m*3 24.2 C 8.1 km/h
1093 15-07-2021 19:00:00 23.9 C 14.71 g/m*3 23.9 C 8.1 km/h
1094 15-07-2021 19:05:00 23.7 C 14.76 g/m*3 23.7 C 11.3 km/h
1095 15-07-2021 19:10:00 23.4 C 14.93 g/m*3 23.4 C 6.4 km/h
1096 15-07-2021 19:15:00 23.2 C 14.76 g/m*3 23.2 C 11.3 km/h
1097 15-07-2021 19:20:00 23 C 15 g/m*3 23 C 9.7 km/h
1098 15-07-2021 19:25:00 22.8 C 15.04 g/m*3 22.8 C 11.3 km/h
1099 15-07-2021 19:30:00 22.7 C 15.15 g/m*3 22.7 C 3.2 km/h
1100 15-07-2021 19:35:00 22.6 C 15.07 g/m*3 22.6 C 9.7 km/h
Sensor: Nr:Datum:Temp:Abs-Feuchte:Windchill:Wind:
Aussen-T/F 1101 15-07-2021 19:40:00 22.4 C 14.7 g/m*3 22.4 C 6.4 km/h
1102 15-07-2021 19:45:00 22.4 C 15.29 g/m*3 22.4 C 3.2 km/h
1103 15-07-2021 19:50:00 22.4 C 14.89 g/m*3 22.4 C 4.8 km/h
1104 15-07-2021 19:55:00 22.4 C 14.89 g/m*3 22.4 C 6.4 km/h
1105 15-07-2021 20:00:00 22.3 C 15.01 g/m*3 22.3 C 6.4 km/h
1106 15-07-2021 20:05:00 22.3 C 14.81 g/m*3 22.3 C 1.6 km/h
1107 15-07-2021 20:10:00 22.2 C 15.12 g/m*3 22.2 C 3.2 km/h
1108 15-07-2021 20:15:00 22.2 C 15.71 g/m*3 22.2 C 0 km/h
1109 15-07-2021 20:20:00 22.1 C 15.81 g/m*3 22.1 C 1.6 km/h
1110 15-07-2021 20:25:00 21.9 C 15.63 g/m*3 21.9 C 1.6 km/h
1111 15-07-2021 20:30:00 21.7 C 15.07 g/m*3 21.7 C 3.2 km/h
1112 15-07-2021 20:35:00 21.6 C 15.55 g/m*3 21.6 C 0 km/h
1113 15-07-2021 20:40:00 21.4 C 15.37 g/m*3 21.4 C 3.2 km/h
1114 15-07-2021 20:45:00 21.3 C 15.1 g/m*3 21.3 C 6.4 km/h
1115 15-07-2021 20:50:00 21.2 C 15.2 g/m*3 21.2 C 0 km/h
1116 15-07-2021 20:55:00 21.1 C 15.48 g/m*3 21.1 C 0 km/h
1117 15-07-2021 21:00:00 21 C 15.39 g/m*3 21 C 1.6 km/h
1118 15-07-2021 21:05:00 20.8 C 15.39 g/m*3 20.8 C 0 km/h
1119 15-07-2021 21:10:00 20.7 C 15.48 g/m*3 20.7 C 0 km/h
1120 15-07-2021 21:15:00 20.6 C 15.39 g/m*3 20.6 C 0 km/h
1121 15-07-2021 21:20:00 20.4 C 15.21 g/m*3 20.4 C 3.2 km/h
1122 15-07-2021 21:25:00 20.3 C 15.13 g/m*3 20.3 C 1.6 km/h
1123 15-07-2021 21:30:00 20.1 C 15.12 g/m*3 20.1 C 1.6 km/h
1124 15-07-2021 21:35:00 20 C 15.21 g/m*3 20 C 1.6 km/h
1125 15-07-2021 21:40:00 19.9 C 15.12 g/m*3 19.9 C 0 km/h
Sensor: Nr:Datum:Temp:Abs-Feuchte:Windchill:Wind:
Aussen-T/F 1126 15-07-2021 21:45:00 19.8 C 15.2 g/m*3 19.8 C 1.6 km/h
1127 15-07-2021 21:50:00 19.7 C 15.11 g/m*3 19.7 C 0 km/h
1128 15-07-2021 21:55:00 19.6 C 15.19 g/m*3 19.6 C 0 km/h
1129 15-07-2021 22:00:00 19.6 C 15.19 g/m*3 19.6 C 0 km/h
1130 15-07-2021 22:05:00 19.6 C 15.36 g/m*3 19.6 C 0 km/h
1131 15-07-2021 22:10:00 19.6 C 15.36 g/m*3 19.6 C 0 km/h
1132 15-07-2021 22:15:00 19.5 C 15.27 g/m*3 19.5 C 0 km/h
1133 15-07-2021 22:20:00 19.6 C 15.53 g/m*3 19.6 C 6.4 km/h
1134 15-07-2021 22:25:00 19.6 C 15.53 g/m*3 19.6 C 0 km/h
1135 15-07-2021 22:30:00 19.6 C 15.53 g/m*3 19.6 C 1.6 km/h
1136 15-07-2021 22:35:00 19.6 C 15.53 g/m*3 19.6 C 0 km/h
1137 15-07-2021 22:40:00 19.6 C 15.53 g/m*3 19.6 C 3.2 km/h
1138 15-07-2021 22:45:00 19.6 C 15.53 g/m*3 19.6 C 0 km/h
1139 15-07-2021 22:50:00 19.5 C 15.44 g/m*3 19.5 C 0 km/h
1140 15-07-2021 22:55:00 19.4 C 15.35 g/m*3 19.4 C 3.2 km/h
1141 15-07-2021 23:00:00 19.4 C 15.35 g/m*3 19.4 C 3.2 km/h
1142 15-07-2021 23:05:00 19.4 C 15.52 g/m*3 19.4 C 1.6 km/h
1143 15-07-2021 23:10:00 19.3 C 15.43 g/m*3 19.3 C 0 km/h
1144 15-07-2021 23:15:00 19.3 C 15.43 g/m*3 19.3 C 0 km/h
1145 15-07-2021 23:20:00 19.3 C 15.43 g/m*3 19.3 C 0 km/h
1146 15-07-2021 23:25:00 19.4 C 15.52 g/m*3 19.4 C 0 km/h
1147 15-07-2021 23:30:00 19.4 C 15.68 g/m*3 19.4 C 0 km/h
1148 15-07-2021 23:35:00 19.4 C 15.68 g/m*3 19.4 C 0 km/h
1149 15-07-2021 23:40:00 19.3 C 15.59 g/m*3 19.3 C 0 km/h
1150 15-07-2021 23:45:00 19.3 C 15.59 g/m*3 19.3 C 1.6 km/h
Sensor: Nr:Datum:Temp:Abs-Feuchte:Windchill:Wind:
Aussen-T/F 1151 15-07-2021 23:50:00 19.3 C 15.59 g/m*3 19.3 C 0 km/h
1152 15-07-2021 23:55:00 19.3 C 15.59 g/m*3 19.3 C 3.2 km/h
1153 16-07-2021 00:00:00 19.3 C 15.59 g/m*3 19.3 C 1.6 km/h
1154 16-07-2021 00:05:00 19.3 C 15.59 g/m*3 19.3 C 0 km/h
1155 16-07-2021 00:10:00 19.3 C 15.59 g/m*3 19.3 C 0 km/h
1156 16-07-2021 00:15:00 19.3 C 15.59 g/m*3 19.3 C 0 km/h
1157 16-07-2021 00:20:00 19.3 C 15.59 g/m*3 19.3 C 4.8 km/h
1158 16-07-2021 00:25:00 19.3 C 15.59 g/m*3 19.3 C 1.6 km/h
1159 16-07-2021 00:30:00 19.3 C 15.59 g/m*3 19.3 C 0 km/h
1160 16-07-2021 00:35:00 19.3 C 15.59 g/m*3 19.3 C 3.2 km/h
1161 16-07-2021 00:40:00 19.3 C 15.59 g/m*3 19.3 C 0 km/h
1162 16-07-2021 00:45:00 19.3 C 15.59 g/m*3 19.3 C 1.6 km/h
1163 16-07-2021 00:50:00 19.3 C 15.59 g/m*3 19.3 C 0 km/h
1164 16-07-2021 00:55:00 19.3 C 15.59 g/m*3 19.3 C 0 km/h
1165 16-07-2021 01:00:00 19.3 C 15.59 g/m*3 19.3 C 3.2 km/h
1166 16-07-2021 01:05:00 19.3 C 15.59 g/m*3 19.3 C 0 km/h
1167 16-07-2021 01:10:00 19.2 C 15.5 g/m*3 19.2 C 1.6 km/h
1168 16-07-2021 01:15:00 19.2 C 15.5 g/m*3 19.2 C 6.4 km/h
1169 16-07-2021 01:20:00 19.2 C 15.5 g/m*3 19.2 C 6.4 km/h
1170 16-07-2021 01:25:00 19.2 C 15.5 g/m*3 19.2 C 1.6 km/h
1171 16-07-2021 01:30:00 19.2 C 15.5 g/m*3 19.2 C 0 km/h
1172 16-07-2021 01:35:00 19.2 C 15.5 g/m*3 19.2 C 0 km/h
1173 16-07-2021 01:40:00 19.2 C 15.5 g/m*3 19.2 C 0 km/h
1174 16-07-2021 01:45:00 19.2 C 15.5 g/m*3 19.2 C 0 km/h
1175 16-07-2021 01:50:00 19.2 C 15.5 g/m*3 19.2 C 0 km/h
Sensor: Nr:Datum:Temp:Abs-Feuchte:Windchill:Wind:
Aussen-T/F 1176 16-07-2021 01:55:00 19.2 C 15.5 g/m*3 19.2 C 3.2 km/h
1177 16-07-2021 02:00:00 19.1 C 15.41 g/m*3 19.1 C 6.4 km/h
1178 16-07-2021 02:05:00 19.1 C 15.41 g/m*3 19.1 C 1.6 km/h
1179 16-07-2021 02:10:00 19.1 C 15.41 g/m*3 19.1 C 4.8 km/h
1180 16-07-2021 02:15:00 19.1 C 15.41 g/m*3 19.1 C 6.4 km/h
1181 16-07-2021 02:20:00 19.2 C 15.5 g/m*3 19.2 C 3.2 km/h
1182 16-07-2021 02:25:00 19.2 C 15.5 g/m*3 19.2 C 3.2 km/h
1183 16-07-2021 02:30:00 19.2 C 15.5 g/m*3 19.2 C 4.8 km/h
1184 16-07-2021 02:35:00 19.2 C 15.34 g/m*3 19.2 C 6.4 km/h
1185 16-07-2021 02:40:00 19.2 C 15.34 g/m*3 19.2 C 8.1 km/h
1186 16-07-2021 02:45:00 19.2 C 15.34 g/m*3 19.2 C 8.1 km/h
1187 16-07-2021 02:50:00 19.3 C 15.43 g/m*3 19.3 C 9.7 km/h
1188 16-07-2021 02:55:00 19.3 C 15.43 g/m*3 19.3 C 6.4 km/h
1189 16-07-2021 03:00:00 19.3 C 15.43 g/m*3 19.3 C 4.8 km/h
1190 16-07-2021 03:05:00 19.3 C 15.43 g/m*3 19.3 C 1.6 km/h
1191 16-07-2021 03:10:00 19.3 C 15.43 g/m*3 19.3 C 8.1 km/h
1192 16-07-2021 03:15:00 19.3 C 15.43 g/m*3 19.3 C 3.2 km/h
1193 16-07-2021 03:20:00 19.3 C 15.43 g/m*3 19.3 C 1.6 km/h
1194 16-07-2021 03:25:00 19.3 C 15.43 g/m*3 19.3 C 4.8 km/h
1195 16-07-2021 03:30:00 19.3 C 15.43 g/m*3 19.3 C 3.2 km/h
1196 16-07-2021 03:35:00 19.3 C 15.43 g/m*3 19.3 C 6.4 km/h
1197 16-07-2021 03:40:00 19.3 C 15.43 g/m*3 19.3 C 6.4 km/h
1198 16-07-2021 03:45:00 19.3 C 15.43 g/m*3 19.3 C 0 km/h
1199 16-07-2021 03:50:00 19.3 C 15.43 g/m*3 19.3 C 3.2 km/h
1200 16-07-2021 03:55:00 19.2 C 15.34 g/m*3 19.2 C 1.6 km/h
Sensor: Nr:Datum:Temp:Abs-Feuchte:Windchill:Wind:
Aussen-T/F 1201 16-07-2021 04:00:00 19.2 C 15.34 g/m*3 19.2 C 6.4 km/h
1202 16-07-2021 04:05:00 19.2 C 15.34 g/m*3 19.2 C 1.6 km/h
1203 16-07-2021 04:10:00 19.2 C 15.34 g/m*3 19.2 C 1.6 km/h
1204 16-07-2021 04:15:00 19.2 C 15.34 g/m*3 19.2 C 4.8 km/h
1205 16-07-2021 04:20:00 19.1 C 15.25 g/m*3 19.1 C 1.6 km/h
1206 16-07-2021 04:25:00 19.1 C 15.25 g/m*3 19.1 C 4.8 km/h
1207 16-07-2021 04:30:00 19.1 C 15.25 g/m*3 19.1 C 8.1 km/h
1208 16-07-2021 04:35:00 19.1 C 15.25 g/m*3 19.1 C 4.8 km/h
1209 16-07-2021 04:40:00 19.1 C 15.25 g/m*3 19.1 C 4.8 km/h
1210 16-07-2021 04:45:00 19.1 C 15.25 g/m*3 19.1 C 4.8 km/h
1211 16-07-2021 04:50:00 19.1 C 15.25 g/m*3 19.1 C 8.1 km/h
1212 16-07-2021 04:55:00 19 C 15.16 g/m*3 19 C 1.6 km/h
1213 16-07-2021 05:00:00 19 C 15.16 g/m*3 19 C 0 km/h
1214 16-07-2021 05:05:00 19 C 15.16 g/m*3 19 C 0 km/h
1215 16-07-2021 05:10:00 18.9 C 15.07 g/m*3 18.9 C 3.2 km/h
1216 16-07-2021 05:15:00 18.9 C 15.07 g/m*3 18.9 C 3.2 km/h
1217 16-07-2021 05:20:00 18.8 C 14.98 g/m*3 18.8 C 1.6 km/h
1218 16-07-2021 05:25:00 18.8 C 14.98 g/m*3 18.8 C 4.8 km/h
1219 16-07-2021 05:30:00 18.8 C 14.98 g/m*3 18.8 C 1.6 km/h
1220 16-07-2021 05:35:00 18.8 C 14.98 g/m*3 18.8 C 8.1 km/h
1221 16-07-2021 05:40:00 18.8 C 14.98 g/m*3 18.8 C 4.8 km/h
1222 16-07-2021 05:45:00 18.7 C 14.89 g/m*3 18.7 C 6.4 km/h
1223 16-07-2021 05:50:00 18.7 C 14.89 g/m*3 18.7 C 8.1 km/h
1224 16-07-2021 05:55:00 18.7 C 14.89 g/m*3 18.7 C 4.8 km/h
1225 16-07-2021 06:00:00 18.7 C 14.89 g/m*3 18.7 C 8.1 km/h
Sensor: Nr:Datum:Temp:Abs-Feuchte:Windchill:Wind:
Aussen-T/F 1226 16-07-2021 06:05:00 18.7 C 14.89 g/m*3 18.7 C 4.8 km/h
1227 16-07-2021 06:10:00 18.7 C 14.89 g/m*3 18.7 C 8.1 km/h
1228 16-07-2021 06:15:00 18.7 C 14.89 g/m*3 18.7 C 4.8 km/h
1229 16-07-2021 06:20:00 18.7 C 14.89 g/m*3 18.7 C 4.8 km/h
1230 16-07-2021 06:25:00 18.7 C 14.89 g/m*3 18.7 C 1.6 km/h
1231 16-07-2021 06:30:00 18.7 C 14.89 g/m*3 18.7 C 0 km/h
1232 16-07-2021 06:35:00 18.7 C 14.89 g/m*3 18.7 C 1.6 km/h
1233 16-07-2021 06:40:00 18.7 C 14.89 g/m*3 18.7 C 4.8 km/h
1234 16-07-2021 06:45:00 18.7 C 14.89 g/m*3 18.7 C 8.1 km/h
1235 16-07-2021 06:50:00 18.6 C 14.8 g/m*3 18.6 C 4.8 km/h
1236 16-07-2021 06:55:00 18.6 C 14.8 g/m*3 18.6 C 6.4 km/h
1237 16-07-2021 07:00:00 18.6 C 14.8 g/m*3 18.6 C 9.7 km/h
1238 16-07-2021 07:05:00 18.5 C 14.71 g/m*3 18.5 C 6.4 km/h
1239 16-07-2021 07:10:00 18.4 C 14.63 g/m*3 18.4 C 8.1 km/h
1240 16-07-2021 07:15:00 18.3 C 14.54 g/m*3 18.3 C 9.7 km/h
1241 16-07-2021 07:20:00 18.3 C 14.54 g/m*3 18.3 C 6.4 km/h
1242 16-07-2021 07:25:00 18.2 C 14.46 g/m*3 18.2 C 11.3 km/h
1243 16-07-2021 07:30:00 18.1 C 14.37 g/m*3 18.1 C 14.5 km/h
1244 16-07-2021 07:35:00 18.1 C 14.37 g/m*3 18.1 C 4.8 km/h
1245 16-07-2021 07:40:00 18.1 C 14.37 g/m*3 18.1 C 9.7 km/h
1246 16-07-2021 07:45:00 18.1 C 14.37 g/m*3 18.1 C 4.8 km/h
1247 16-07-2021 07:50:00 18 C 14.28 g/m*3 18 C 4.8 km/h
1248 16-07-2021 07:55:00 18 C 14.28 g/m*3 18 C 6.4 km/h
1249 16-07-2021 08:00:00 17.9 C 14.2 g/m*3 17.9 C 3.2 km/h
1250 16-07-2021 08:05:00 17.9 C 14.2 g/m*3 17.9 C 8.1 km/h
Sensor: Nr:Datum:Temp:Abs-Feuchte:Windchill:Wind:
Aussen-T/F 1251 16-07-2021 08:10:00 17.9 C 14.2 g/m*3 17.9 C 1.6 km/h
1252 16-07-2021 08:15:00 17.9 C 14.2 g/m*3 17.9 C 4.8 km/h
1253 16-07-2021 08:20:00 17.8 C 14.12 g/m*3 17.8 C 8.1 km/h
1254 16-07-2021 08:25:00 17.8 C 14.12 g/m*3 17.8 C 8.1 km/h
1255 16-07-2021 08:30:00 17.8 C 14.12 g/m*3 17.8 C 4.8 km/h
1256 16-07-2021 08:35:00 17.8 C 14.12 g/m*3 17.8 C 4.8 km/h
1257 16-07-2021 08:40:00 17.8 C 14.12 g/m*3 17.8 C 6.4 km/h
1258 16-07-2021 08:45:00 17.7 C 14.03 g/m*3 17.7 C 4.8 km/h
1259 16-07-2021 08:50:00 17.7 C 14.03 g/m*3 17.7 C 3.2 km/h
1260 16-07-2021 08:55:00 17.7 C 14.03 g/m*3 17.7 C 8.1 km/h
1261 16-07-2021 09:00:00 17.7 C 14.03 g/m*3 17.7 C 9.7 km/h
1262 16-07-2021 09:05:00 17.7 C 14.03 g/m*3 17.7 C 4.8 km/h
1263 16-07-2021 09:10:00 17.7 C 14.03 g/m*3 17.7 C 4.8 km/h
1264 16-07-2021 09:15:00 17.8 C 14.12 g/m*3 17.8 C 3.2 km/h
1265 16-07-2021 09:20:00 17.8 C 14.12 g/m*3 17.8 C 1.6 km/h
1266 16-07-2021 09:25:00 17.8 C 14.12 g/m*3 17.8 C 4.8 km/h
1267 16-07-2021 09:30:00 17.8 C 14.12 g/m*3 17.8 C 6.4 km/h
1268 16-07-2021 09:35:00 17.8 C 13.96 g/m*3 17.8 C 6.4 km/h
1269 16-07-2021 09:40:00 17.8 C 13.96 g/m*3 17.8 C 4.8 km/h
1270 16-07-2021 09:45:00 17.8 C 13.96 g/m*3 17.8 C 4.8 km/h
1271 16-07-2021 09:50:00 17.8 C 13.96 g/m*3 17.8 C 3.2 km/h
1272 16-07-2021 09:55:00 17.7 C 13.88 g/m*3 17.7 C 6.4 km/h
1273 16-07-2021 10:00:00 17.8 C 13.96 g/m*3 17.8 C 4.8 km/h
1274 16-07-2021 10:05:00 17.8 C 13.96 g/m*3 17.8 C 4.8 km/h
1275 16-07-2021 10:10:00 17.8 C 13.96 g/m*3 17.8 C 1.6 km/h
Sensor: Nr:Datum:Temp:Abs-Feuchte:Windchill:Wind:
Aussen-T/F 1276 16-07-2021 10:15:00 17.9 C 14.05 g/m*3 17.9 C 4.8 km/h
1277 16-07-2021 10:20:00 17.9 C 13.89 g/m*3 17.9 C 6.4 km/h
1278 16-07-2021 10:25:00 18 C 13.98 g/m*3 18 C 12.9 km/h
1279 16-07-2021 10:30:00 18.1 C 13.91 g/m*3 18.1 C 9.7 km/h
1280 16-07-2021 10:35:00 18.1 C 13.91 g/m*3 18.1 C 8.1 km/h
1281 16-07-2021 10:40:00 18.1 C 13.75 g/m*3 18.1 C 8.1 km/h
1282 16-07-2021 10:45:00 18.1 C 13.75 g/m*3 18.1 C 3.2 km/h
1283 16-07-2021 10:50:00 18.1 C 13.75 g/m*3 18.1 C 1.6 km/h
1284 16-07-2021 10:55:00 18.1 C 13.75 g/m*3 18.1 C 9.7 km/h
1285 16-07-2021 11:00:00 18.1 C 13.75 g/m*3 18.1 C 8.1 km/h
1286 16-07-2021 11:05:00 18.1 C 13.91 g/m*3 18.1 C 11.3 km/h
1287 16-07-2021 11:10:00 18.1 C 13.91 g/m*3 18.1 C 8.1 km/h
1288 16-07-2021 11:15:00 18.1 C 13.91 g/m*3 18.1 C 3.2 km/h
1289 16-07-2021 11:20:00 18.1 C 13.91 g/m*3 18.1 C 6.4 km/h
1290 16-07-2021 11:25:00 18.1 C 13.91 g/m*3 18.1 C 6.4 km/h
1291 16-07-2021 11:30:00 18.1 C 13.91 g/m*3 18.1 C 8.1 km/h
1292 16-07-2021 11:35:00 18.1 C 13.91 g/m*3 18.1 C 11.3 km/h
1293 16-07-2021 11:40:00 18 C 13.82 g/m*3 18 C 9.7 km/h
1294 16-07-2021 11:45:00 17.9 C 13.74 g/m*3 17.9 C 12.9 km/h
1295 16-07-2021 11:50:00 17.8 C 13.66 g/m*3 17.8 C 8.1 km/h
1296 16-07-2021 11:55:00 17.8 C 13.66 g/m*3 17.8 C 9.7 km/h
1297 16-07-2021 12:00:00 17.7 C 13.58 g/m*3 17.7 C 11.3 km/h
1298 16-07-2021 12:05:00 17.7 C 13.58 g/m*3 17.7 C 9.7 km/h
1299 16-07-2021 12:10:00 17.7 C 13.58 g/m*3 17.7 C 3.2 km/h
1300 16-07-2021 12:15:00 17.6 C 13.65 g/m*3 17.6 C 9.7 km/h
Sensor: Nr:Datum:Temp:Abs-Feuchte:Windchill:Wind:
Aussen-T/F 1301 16-07-2021 12:20:00 17.6 C 13.65 g/m*3 17.6 C 8.1 km/h
1302 16-07-2021 12:25:00 17.6 C 13.65 g/m*3 17.6 C 8.1 km/h
1303 16-07-2021 12:30:00 17.6 C 13.65 g/m*3 17.6 C 8.1 km/h
1304 16-07-2021 12:35:00 17.6 C 13.65 g/m*3 17.6 C 8.1 km/h
1305 16-07-2021 12:40:00 17.5 C 13.57 g/m*3 17.5 C 8.1 km/h
1306 16-07-2021 12:45:00 17.6 C 13.65 g/m*3 17.6 C 1.6 km/h
1307 16-07-2021 12:50:00 17.6 C 13.65 g/m*3 17.6 C 6.4 km/h
1308 16-07-2021 12:55:00 17.6 C 13.65 g/m*3 17.6 C 6.4 km/h
1309 16-07-2021 13:00:00 17.6 C 13.5 g/m*3 17.6 C 6.4 km/h
1310 16-07-2021 13:05:00 17.7 C 13.58 g/m*3 17.7 C 3.2 km/h
1311 16-07-2021 13:10:00 17.7 C 13.58 g/m*3 17.7 C 3.2 km/h
1312 16-07-2021 13:15:00 17.7 C 13.58 g/m*3 17.7 C 9.7 km/h
1313 16-07-2021 13:20:00 17.7 C 13.73 g/m*3 17.7 C 8.1 km/h
1314 16-07-2021 13:25:00 17.8 C 13.66 g/m*3 17.8 C 3.2 km/h
1315 16-07-2021 13:30:00 17.8 C 13.66 g/m*3 17.8 C 6.4 km/h
1316 16-07-2021 13:35:00 17.8 C 13.66 g/m*3 17.8 C 8.1 km/h
1317 16-07-2021 13:40:00 17.9 C 13.74 g/m*3 17.9 C 6.4 km/h
1318 16-07-2021 13:45:00 17.9 C 13.59 g/m*3 17.9 C 8.1 km/h
1319 16-07-2021 13:50:00 17.9 C 13.59 g/m*3 17.9 C 9.7 km/h
1320 16-07-2021 13:55:00 17.8 C 13.51 g/m*3 17.8 C 12.9 km/h
1321 16-07-2021 14:00:00 17.8 C 13.51 g/m*3 17.8 C 9.7 km/h
1322 16-07-2021 14:05:00 17.9 C 13.59 g/m*3 17.9 C 3.2 km/h
1323 16-07-2021 14:10:00 17.9 C 13.59 g/m*3 17.9 C 11.3 km/h
1324 16-07-2021 14:15:00 17.9 C 13.59 g/m*3 17.9 C 6.4 km/h
1325 16-07-2021 14:20:00 17.9 C 13.59 g/m*3 17.9 C 8.1 km/h
Sensor: Nr:Datum:Temp:Abs-Feuchte:Windchill:Wind:
Aussen-T/F 1326 16-07-2021 14:25:00 17.9 C 13.59 g/m*3 17.9 C 8.1 km/h
1327 16-07-2021 14:30:00 18.1 C 13.75 g/m*3 18.1 C 4.8 km/h
1328 16-07-2021 14:35:00 18.2 C 13.83 g/m*3 18.2 C 6.4 km/h
1329 16-07-2021 14:40:00 18.3 C 13.76 g/m*3 18.3 C 6.4 km/h
1330 16-07-2021 14:45:00 18.4 C 13.84 g/m*3 18.4 C 8.1 km/h
1331 16-07-2021 14:50:00 18.6 C 13.85 g/m*3 18.6 C 11.3 km/h
1332 16-07-2021 14:55:00 18.7 C 13.93 g/m*3 18.7 C 4.8 km/h
1333 16-07-2021 15:00:00 18.8 C 13.85 g/m*3 18.8 C 12.9 km/h
1334 16-07-2021 15:05:00 18.9 C 13.77 g/m*3 18.9 C 9.7 km/h
1335 16-07-2021 15:10:00 18.9 C 13.93 g/m*3 18.9 C 6.4 km/h
1336 16-07-2021 15:15:00 18.9 C 13.77 g/m*3 18.9 C 4.8 km/h
1337 16-07-2021 15:20:00 19 C 13.85 g/m*3 19 C 9.7 km/h
1338 16-07-2021 15:25:00 19.1 C 13.93 g/m*3 19.1 C 9.7 km/h
1339 16-07-2021 15:30:00 19.1 C 13.77 g/m*3 19.1 C 8.1 km/h
1340 16-07-2021 15:35:00 19 C 13.69 g/m*3 19 C 12.9 km/h
1341 16-07-2021 15:40:00 18.9 C 13.61 g/m*3 18.9 C 11.3 km/h
1342 16-07-2021 15:45:00 18.8 C 13.69 g/m*3 18.8 C 6.4 km/h
1343 16-07-2021 15:50:00 18.8 C 13.53 g/m*3 18.8 C 9.7 km/h
1344 16-07-2021 15:55:00 18.7 C 13.61 g/m*3 18.7 C 9.7 km/h
1345 16-07-2021 16:00:00 18.7 C 13.61 g/m*3 18.7 C 4.8 km/h
1346 16-07-2021 16:05:00 18.7 C 13.61 g/m*3 18.7 C 9.7 km/h
1347 16-07-2021 16:10:00 18.7 C 13.77 g/m*3 18.7 C 4.8 km/h
1348 16-07-2021 16:15:00 18.7 C 13.61 g/m*3 18.7 C 9.7 km/h
1349 16-07-2021 16:20:00 18.7 C 13.61 g/m*3 18.7 C 8.1 km/h
1350 16-07-2021 16:25:00 18.8 C 13.53 g/m*3 18.8 C 8.1 km/h
Sensor: Nr:Datum:Temp:Abs-Feuchte:Windchill:Wind:
Aussen-T/F 1351 16-07-2021 16:30:00 18.9 C 13.61 g/m*3 18.9 C 9.7 km/h
1352 16-07-2021 16:35:00 18.9 C 13.45 g/m*3 18.9 C 9.7 km/h
1353 16-07-2021 16:40:00 18.9 C 13.45 g/m*3 18.9 C 9.7 km/h
1354 16-07-2021 16:45:00 19 C 13.53 g/m*3 19 C 12.9 km/h
1355 16-07-2021 16:50:00 19.1 C 13.61 g/m*3 19.1 C 9.7 km/h
1356 16-07-2021 16:55:00 19.1 C 13.44 g/m*3 19.1 C 9.7 km/h
1357 16-07-2021 17:00:00 19 C 13.36 g/m*3 19 C 12.9 km/h
1358 16-07-2021 17:05:00 19 C 13.36 g/m*3 19 C 9.7 km/h
1359 16-07-2021 17:10:00 19 C 13.36 g/m*3 19 C 6.4 km/h
1360 16-07-2021 17:15:00 18.9 C 13.28 g/m*3 18.9 C 11.3 km/h
1361 16-07-2021 17:20:00 18.9 C 13.45 g/m*3 18.9 C 8.1 km/h
1362 16-07-2021 17:25:00 19 C 13.53 g/m*3 19 C 4.8 km/h
1363 16-07-2021 17:30:00 19 C 13.69 g/m*3 19 C 8.1 km/h
1364 16-07-2021 17:35:00 18.9 C 13.45 g/m*3 18.9 C 8.1 km/h
1365 16-07-2021 17:40:00 18.9 C 13.45 g/m*3 18.9 C 6.4 km/h
1366 16-07-2021 17:45:00 18.9 C 13.45 g/m*3 18.9 C 3.2 km/h
1367 16-07-2021 17:50:00 18.9 C 13.45 g/m*3 18.9 C 3.2 km/h
1368 16-07-2021 17:55:00 18.9 C 13.61 g/m*3 18.9 C 1.6 km/h
1369 16-07-2021 18:00:00 18.9 C 13.45 g/m*3 18.9 C 6.4 km/h
1370 16-07-2021 18:05:00 18.9 C 13.45 g/m*3 18.9 C 6.4 km/h
1371 16-07-2021 18:10:00 18.9 C 13.45 g/m*3 18.9 C 6.4 km/h
1372 16-07-2021 18:15:00 18.9 C 13.45 g/m*3 18.9 C 6.4 km/h
1373 16-07-2021 18:20:00 18.9 C 13.45 g/m*3 18.9 C 9.7 km/h
1374 16-07-2021 18:25:00 18.9 C 13.61 g/m*3 18.9 C 8.1 km/h
1375 16-07-2021 18:30:00 18.8 C 13.37 g/m*3 18.8 C 6.4 km/h
Sensor: Nr:Datum:Temp:Abs-Feuchte:Windchill:Wind:
Aussen-T/F 1376 16-07-2021 18:35:00 18.8 C 13.37 g/m*3 18.8 C 4.8 km/h
1377 16-07-2021 18:40:00 18.8 C 13.53 g/m*3 18.8 C 6.4 km/h
1378 16-07-2021 18:45:00 18.8 C 13.37 g/m*3 18.8 C 6.4 km/h
1379 16-07-2021 18:50:00 18.8 C 13.37 g/m*3 18.8 C 4.8 km/h
1380 16-07-2021 18:55:00 18.8 C 13.37 g/m*3 18.8 C 4.8 km/h
1381 16-07-2021 19:00:00 18.8 C 13.53 g/m*3 18.8 C 3.2 km/h
1382 16-07-2021 19:05:00 18.8 C 13.37 g/m*3 18.8 C 8.1 km/h
1383 16-07-2021 19:10:00 18.8 C 13.37 g/m*3 18.8 C 8.1 km/h
1384 16-07-2021 19:15:00 18.7 C 13.29 g/m*3 18.7 C 11.3 km/h
1385 16-07-2021 19:20:00 18.7 C 13.29 g/m*3 18.7 C 6.4 km/h
1386 16-07-2021 19:25:00 18.7 C 13.29 g/m*3 18.7 C 9.7 km/h
1387 16-07-2021 19:30:00 18.6 C 13.21 g/m*3 18.6 C 6.4 km/h
1388 16-07-2021 19:35:00 18.6 C 13.21 g/m*3 18.6 C 11.3 km/h
1389 16-07-2021 19:40:00 18.6 C 13.37 g/m*3 18.6 C 4.8 km/h
1390 16-07-2021 19:45:00 18.6 C 13.37 g/m*3 18.6 C 4.8 km/h
1391 16-07-2021 19:50:00 18.6 C 13.37 g/m*3 18.6 C 6.4 km/h
1392 16-07-2021 19:55:00 18.5 C 13.29 g/m*3 18.5 C 4.8 km/h
1393 16-07-2021 20:00:00 18.5 C 13.29 g/m*3 18.5 C 3.2 km/h
1394 16-07-2021 20:05:00 18.5 C 13.45 g/m*3 18.5 C 1.6 km/h
1395 16-07-2021 20:10:00 18.6 C 13.69 g/m*3 18.6 C 1.6 km/h
1396 16-07-2021 20:15:00 18.5 C 13.45 g/m*3 18.5 C 3.2 km/h
1397 16-07-2021 20:20:00 18.4 C 13.37 g/m*3 18.4 C 3.2 km/h
1398 16-07-2021 20:25:00 18.4 C 13.37 g/m*3 18.4 C 1.6 km/h
1399 16-07-2021 20:30:00 18.4 C 13.37 g/m*3 18.4 C 4.8 km/h
1400 16-07-2021 20:35:00 18.3 C 13.29 g/m*3 18.3 C 3.2 km/h
Sensor: Nr:Datum:Temp:Abs-Feuchte:Windchill:Wind:
Aussen-T/F 1401 16-07-2021 20:40:00 18.3 C 13.29 g/m*3 18.3 C 1.6 km/h
1402 16-07-2021 20:45:00 18.3 C 13.29 g/m*3 18.3 C 3.2 km/h
1403 16-07-2021 20:50:00 18.3 C 13.29 g/m*3 18.3 C 4.8 km/h
1404 16-07-2021 20:55:00 18.3 C 13.45 g/m*3 18.3 C 3.2 km/h
1405 16-07-2021 21:00:00 18.2 C 13.21 g/m*3 18.2 C 3.2 km/h
1406 16-07-2021 21:05:00 18.2 C 13.21 g/m*3 18.2 C 1.6 km/h
1407 16-07-2021 21:10:00 18.2 C 13.21 g/m*3 18.2 C 3.2 km/h
1408 16-07-2021 21:15:00 18.2 C 13.37 g/m*3 18.2 C 0 km/h
1409 16-07-2021 21:20:00 18.2 C 13.21 g/m*3 18.2 C 3.2 km/h
1410 16-07-2021 21:25:00 18.2 C 13.52 g/m*3 18.2 C 0 km/h
1411 16-07-2021 21:30:00 18.2 C 13.37 g/m*3 18.2 C 4.8 km/h
1412 16-07-2021 21:35:00 18.1 C 13.13 g/m*3 18.1 C 1.6 km/h
1413 16-07-2021 21:40:00 18.1 C 13.13 g/m*3 18.1 C 8.1 km/h
1414 16-07-2021 21:45:00 18.1 C 13.13 g/m*3 18.1 C 8.1 km/h
1415 16-07-2021 21:50:00 18.2 C 13.21 g/m*3 18.2 C 6.4 km/h
1416 16-07-2021 21:55:00 18.2 C 13.21 g/m*3 18.2 C 1.6 km/h
1417 16-07-2021 22:00:00 18.2 C 13.21 g/m*3 18.2 C 1.6 km/h
1418 16-07-2021 22:05:00 18.2 C 13.21 g/m*3 18.2 C 1.6 km/h
1419 16-07-2021 22:10:00 18.2 C 13.37 g/m*3 18.2 C 0 km/h
1420 16-07-2021 22:15:00 18.2 C 13.52 g/m*3 18.2 C 0 km/h
1421 16-07-2021 22:20:00 18.1 C 13.13 g/m*3 18.1 C 3.2 km/h
1422 16-07-2021 22:25:00 18.1 C 13.29 g/m*3 18.1 C 1.6 km/h
1423 16-07-2021 22:30:00 18 C 13.36 g/m*3 18 C 0 km/h
1424 16-07-2021 22:35:00 17.9 C 12.98 g/m*3 17.9 C 3.2 km/h
1425 16-07-2021 22:40:00 17.9 C 13.13 g/m*3 17.9 C 1.6 km/h
Sensor: Nr:Datum:Temp:Abs-Feuchte:Windchill:Wind:
Aussen-T/F 1426 16-07-2021 22:45:00 17.9 C 13.13 g/m*3 17.9 C 1.6 km/h
1427 16-07-2021 22:50:00 17.9 C 13.13 g/m*3 17.9 C 1.6 km/h
1428 16-07-2021 22:55:00 17.9 C 13.28 g/m*3 17.9 C 0 km/h
1429 16-07-2021 23:00:00 17.9 C 13.13 g/m*3 17.9 C 1.6 km/h
1430 16-07-2021 23:05:00 17.8 C 13.2 g/m*3 17.8 C 1.6 km/h
1431 16-07-2021 23:10:00 17.9 C 13.28 g/m*3 17.9 C 0 km/h
1432 16-07-2021 23:15:00 17.9 C 13.44 g/m*3 17.9 C 4.8 km/h
1433 16-07-2021 23:20:00 17.8 C 13.2 g/m*3 17.8 C 4.8 km/h
1434 16-07-2021 23:25:00 17.8 C 13.2 g/m*3 17.8 C 0 km/h
1435 16-07-2021 23:30:00 17.8 C 13.36 g/m*3 17.8 C 0 km/h
1436 16-07-2021 23:35:00 17.8 C 13.36 g/m*3 17.8 C 0 km/h
1437 16-07-2021 23:40:00 17.8 C 13.36 g/m*3 17.8 C 0 km/h
1438 16-07-2021 23:45:00 17.7 C 13.43 g/m*3 17.7 C 0 km/h
1439 16-07-2021 23:50:00 17.7 C 13.43 g/m*3 17.7 C 0 km/h
1440 16-07-2021 23:55:00 17.7 C 13.43 g/m*3 17.7 C 4.8 km/h
1441 17-07-2021 00:00:00 17.7 C 13.43 g/m*3 17.7 C 3.2 km/h
1442 17-07-2021 00:05:00 17.6 C 13.35 g/m*3 17.6 C 1.6 km/h
1443 17-07-2021 00:10:00 17.6 C 13.35 g/m*3 17.6 C 0 km/h
1444 17-07-2021 00:15:00 17.7 C 13.43 g/m*3 17.7 C 0 km/h
1445 17-07-2021 00:20:00 17.7 C 13.58 g/m*3 17.7 C 0 km/h
1446 17-07-2021 00:25:00 17.7 C 13.58 g/m*3 17.7 C 0 km/h
1447 17-07-2021 00:30:00 17.6 C 13.5 g/m*3 17.6 C 0 km/h
1448 17-07-2021 00:35:00 17.6 C 13.5 g/m*3 17.6 C 0 km/h
1449 17-07-2021 00:40:00 17.6 C 13.5 g/m*3 17.6 C 0 km/h
1450 17-07-2021 00:45:00 17.5 C 13.57 g/m*3 17.5 C 0 km/h
Sensor: Nr:Datum:Temp:Abs-Feuchte:Windchill:Wind:
Aussen-T/F 1451 17-07-2021 00:50:00 17.5 C 13.57 g/m*3 17.5 C 0 km/h
1452 17-07-2021 00:55:00 17.4 C 13.49 g/m*3 17.4 C 0 km/h
1453 17-07-2021 01:00:00 17.4 C 13.49 g/m*3 17.4 C 0 km/h
1454 17-07-2021 01:05:00 17.4 C 13.49 g/m*3 17.4 C 0 km/h
1455 17-07-2021 01:10:00 17.4 C 13.49 g/m*3 17.4 C 0 km/h
1456 17-07-2021 01:15:00 17.3 C 13.41 g/m*3 17.3 C 0 km/h
1457 17-07-2021 01:20:00 17.3 C 13.41 g/m*3 17.3 C 0 km/h
1458 17-07-2021 01:25:00 17.3 C 13.41 g/m*3 17.3 C 0 km/h
1459 17-07-2021 01:30:00 17.3 C 13.55 g/m*3 17.3 C 0 km/h
1460 17-07-2021 01:35:00 17.3 C 13.55 g/m*3 17.3 C 0 km/h
1461 17-07-2021 01:40:00 17.3 C 13.55 g/m*3 17.3 C 0 km/h
1462 17-07-2021 01:45:00 17.2 C 13.47 g/m*3 17.2 C 0 km/h
1463 17-07-2021 01:50:00 17.2 C 13.47 g/m*3 17.2 C 0 km/h
1464 17-07-2021 01:55:00 17.2 C 13.47 g/m*3 17.2 C 0 km/h
1465 17-07-2021 02:00:00 17.2 C 13.47 g/m*3 17.2 C 0 km/h
1466 17-07-2021 02:05:00 17.2 C 13.47 g/m*3 17.2 C 0 km/h
1467 17-07-2021 02:10:00 17.1 C 13.39 g/m*3 17.1 C 0 km/h
1468 17-07-2021 02:15:00 17.1 C 13.39 g/m*3 17.1 C 0 km/h
1469 17-07-2021 02:20:00 17.1 C 13.39 g/m*3 17.1 C 0 km/h
1470 17-07-2021 02:25:00 17.1 C 13.39 g/m*3 17.1 C 0 km/h
1471 17-07-2021 02:30:00 17.1 C 13.54 g/m*3 17.1 C 0 km/h
1472 17-07-2021 02:35:00 17 C 13.46 g/m*3 17 C 0 km/h
1473 17-07-2021 02:40:00 17 C 13.46 g/m*3 17 C 0 km/h
1474 17-07-2021 02:45:00 17 C 13.46 g/m*3 17 C 0 km/h
1475 17-07-2021 02:50:00 16.9 C 13.38 g/m*3 16.9 C 0 km/h
Sensor: Nr:Datum:Temp:Abs-Feuchte:Windchill:Wind:
Aussen-T/F 1476 17-07-2021 02:55:00 16.9 C 13.38 g/m*3 16.9 C 0 km/h
1477 17-07-2021 03:00:00 16.9 C 13.38 g/m*3 16.9 C 0 km/h
1478 17-07-2021 03:05:00 16.9 C 13.38 g/m*3 16.9 C 0 km/h
1479 17-07-2021 03:10:00 16.9 C 13.38 g/m*3 16.9 C 0 km/h
1480 17-07-2021 03:15:00 16.9 C 13.38 g/m*3 16.9 C 0 km/h
1481 17-07-2021 03:20:00 16.9 C 13.38 g/m*3 16.9 C 0 km/h
1482 17-07-2021 03:25:00 16.9 C 13.38 g/m*3 16.9 C 0 km/h
1483 17-07-2021 03:30:00 16.9 C 13.38 g/m*3 16.9 C 3.2 km/h
1484 17-07-2021 03:35:00 16.8 C 13.3 g/m*3 16.8 C 0 km/h
1485 17-07-2021 03:40:00 16.8 C 13.3 g/m*3 16.8 C 0 km/h
1486 17-07-2021 03:45:00 16.8 C 13.3 g/m*3 16.8 C 0 km/h
1487 17-07-2021 03:50:00 16.8 C 13.3 g/m*3 16.8 C 0 km/h
1488 17-07-2021 03:55:00 16.8 C 13.3 g/m*3 16.8 C 0 km/h
1489 17-07-2021 04:00:00 16.8 C 13.3 g/m*3 16.8 C 0 km/h
1490 17-07-2021 04:05:00 16.8 C 13.3 g/m*3 16.8 C 0 km/h
1491 17-07-2021 04:10:00 16.8 C 13.3 g/m*3 16.8 C 0 km/h
1492 17-07-2021 04:15:00 16.8 C 13.3 g/m*3 16.8 C 0 km/h
1493 17-07-2021 04:20:00 16.8 C 13.3 g/m*3 16.8 C 0 km/h
1494 17-07-2021 04:25:00 16.8 C 13.3 g/m*3 16.8 C 1.6 km/h
1495 17-07-2021 04:30:00 16.8 C 13.3 g/m*3 16.8 C 0 km/h
1496 17-07-2021 04:35:00 16.8 C 13.3 g/m*3 16.8 C 0 km/h
1497 17-07-2021 04:40:00 16.8 C 13.3 g/m*3 16.8 C 0 km/h
1498 17-07-2021 04:45:00 16.8 C 13.3 g/m*3 16.8 C 0 km/h
1499 17-07-2021 04:50:00 16.8 C 13.3 g/m*3 16.8 C 0 km/h
1500 17-07-2021 04:55:00 16.8 C 13.3 g/m*3 16.8 C 1.6 km/h
Sensor: Nr:Datum:Temp:Abs-Feuchte:Windchill:Wind:
Aussen-T/F 1501 17-07-2021 05:00:00 16.7 C 13.36 g/m*3 16.7 C 0 km/h
1502 17-07-2021 05:05:00 16.7 C 13.36 g/m*3 16.7 C 0 km/h
1503 17-07-2021 05:10:00 16.7 C 13.36 g/m*3 16.7 C 0 km/h
1504 17-07-2021 05:15:00 16.7 C 13.22 g/m*3 16.7 C 0 km/h
1505 17-07-2021 05:20:00 16.7 C 13.22 g/m*3 16.7 C 0 km/h
1506 17-07-2021 05:25:00 16.7 C 13.22 g/m*3 16.7 C 1.6 km/h
1507 17-07-2021 05:30:00 16.7 C 13.22 g/m*3 16.7 C 4.8 km/h
1508 17-07-2021 05:35:00 16.7 C 13.07 g/m*3 16.7 C 4.8 km/h
1509 17-07-2021 05:40:00 16.8 C 13.15 g/m*3 16.8 C 1.6 km/h
1510 17-07-2021 05:45:00 16.8 C 13.15 g/m*3 16.8 C 6.4 km/h
1511 17-07-2021 05:50:00 16.9 C 13.23 g/m*3 16.9 C 6.4 km/h
1512 17-07-2021 05:55:00 16.9 C 13.09 g/m*3 16.9 C 4.8 km/h
1513 17-07-2021 06:00:00 17 C 13.17 g/m*3 17 C 4.8 km/h
1514 17-07-2021 06:05:00 17.1 C 13.25 g/m*3 17.1 C 3.2 km/h
1515 17-07-2021 06:10:00 17.1 C 13.25 g/m*3 17.1 C 3.2 km/h
1516 17-07-2021 06:15:00 17.1 C 13.25 g/m*3 17.1 C 0 km/h
1517 17-07-2021 06:20:00 17.2 C 13.33 g/m*3 17.2 C 3.2 km/h
1518 17-07-2021 06:25:00 17.1 C 13.25 g/m*3 17.1 C 1.6 km/h
1519 17-07-2021 06:30:00 17.2 C 13.33 g/m*3 17.2 C 3.2 km/h
1520 17-07-2021 06:35:00 17.2 C 13.18 g/m*3 17.2 C 0 km/h
1521 17-07-2021 06:40:00 17.2 C 13.33 g/m*3 17.2 C 0 km/h
1522 17-07-2021 06:45:00 17.2 C 13.33 g/m*3 17.2 C 1.6 km/h
1523 17-07-2021 06:50:00 17.2 C 13.33 g/m*3 17.2 C 0 km/h
1524 17-07-2021 06:55:00 17.2 C 13.33 g/m*3 17.2 C 0 km/h
1525 17-07-2021 07:00:00 17.2 C 13.33 g/m*3 17.2 C 0 km/h
Sensor: Nr:Datum:Temp:Abs-Feuchte:Windchill:Wind:
Aussen-T/F 1526 17-07-2021 07:05:00 17.3 C 13.41 g/m*3 17.3 C 0 km/h
1527 17-07-2021 07:10:00 17.3 C 13.41 g/m*3 17.3 C 1.6 km/h
1528 17-07-2021 07:15:00 17.3 C 13.41 g/m*3 17.3 C 3.2 km/h
1529 17-07-2021 07:20:00 17.3 C 13.41 g/m*3 17.3 C 3.2 km/h
1530 17-07-2021 07:25:00 17.3 C 13.41 g/m*3 17.3 C 0 km/h
1531 17-07-2021 07:30:00 17.3 C 13.41 g/m*3 17.3 C 1.6 km/h
1532 17-07-2021 07:35:00 17.3 C 13.41 g/m*3 17.3 C 1.6 km/h
1533 17-07-2021 07:40:00 17.3 C 13.41 g/m*3 17.3 C 1.6 km/h
1534 17-07-2021 07:45:00 17.3 C 13.41 g/m*3 17.3 C 0 km/h
1535 17-07-2021 07:50:00 17.3 C 13.41 g/m*3 17.3 C 0 km/h
1536 17-07-2021 07:55:00 17.3 C 13.41 g/m*3 17.3 C 0 km/h
1537 17-07-2021 08:00:00 17.3 C 13.41 g/m*3 17.3 C 0 km/h
1538 17-07-2021 08:05:00 17.4 C 13.49 g/m*3 17.4 C 0 km/h
1539 17-07-2021 08:10:00 17.4 C 13.49 g/m*3 17.4 C 1.6 km/h
1540 17-07-2021 08:15:00 17.4 C 13.49 g/m*3 17.4 C 3.2 km/h
1541 17-07-2021 08:20:00 17.4 C 13.34 g/m*3 17.4 C 3.2 km/h
1542 17-07-2021 08:25:00 17.5 C 13.42 g/m*3 17.5 C 1.6 km/h
1543 17-07-2021 08:30:00 17.6 C 13.5 g/m*3 17.6 C 1.6 km/h
1544 17-07-2021 08:35:00 17.6 C 13.5 g/m*3 17.6 C 1.6 km/h
1545 17-07-2021 08:40:00 17.6 C 13.5 g/m*3 17.6 C 4.8 km/h
1546 17-07-2021 08:45:00 17.7 C 13.58 g/m*3 17.7 C 1.6 km/h
1547 17-07-2021 08:50:00 17.7 C 13.58 g/m*3 17.7 C 4.8 km/h
1548 17-07-2021 08:55:00 17.7 C 13.58 g/m*3 17.7 C 6.4 km/h
1549 17-07-2021 09:00:00 17.7 C 13.58 g/m*3 17.7 C 3.2 km/h
1550 17-07-2021 09:05:00 17.7 C 13.58 g/m*3 17.7 C 1.6 km/h
Sensor: Nr:Datum:Temp:Abs-Feuchte:Windchill:Wind:
Aussen-T/F 1551 17-07-2021 09:10:00 17.7 C 13.58 g/m*3 17.7 C 4.8 km/h
1552 17-07-2021 09:15:00 17.7 C 13.58 g/m*3 17.7 C 4.8 km/h
1553 17-07-2021 09:20:00 17.7 C 13.58 g/m*3 17.7 C 3.2 km/h
1554 17-07-2021 09:25:00 17.8 C 13.66 g/m*3 17.8 C 4.8 km/h
1555 17-07-2021 09:30:00 17.8 C 13.66 g/m*3 17.8 C 8.1 km/h
1556 17-07-2021 09:35:00 17.8 C 13.81 g/m*3 17.8 C 4.8 km/h
1557 17-07-2021 09:40:00 17.8 C 13.66 g/m*3 17.8 C 6.4 km/h
1558 17-07-2021 09:45:00 17.9 C 13.74 g/m*3 17.9 C 4.8 km/h
1559 17-07-2021 09:50:00 17.9 C 13.74 g/m*3 17.9 C 8.1 km/h
1560 17-07-2021 09:55:00 17.9 C 13.74 g/m*3 17.9 C 6.4 km/h
1561 17-07-2021 10:00:00 17.9 C 13.74 g/m*3 17.9 C 8.1 km/h
1562 17-07-2021 10:05:00 17.9 C 13.59 g/m*3 17.9 C 9.7 km/h
1563 17-07-2021 10:10:00 17.9 C 13.74 g/m*3 17.9 C 3.2 km/h
1564 17-07-2021 10:15:00 18 C 13.67 g/m*3 18 C 6.4 km/h
1565 17-07-2021 10:20:00 18.1 C 13.75 g/m*3 18.1 C 4.8 km/h
1566 17-07-2021 10:25:00 18.2 C 13.83 g/m*3 18.2 C 9.7 km/h
1567 17-07-2021 10:30:00 18.3 C 13.76 g/m*3 18.3 C 8.1 km/h
1568 17-07-2021 10:35:00 18.5 C 13.77 g/m*3 18.5 C 11.3 km/h
1569 17-07-2021 10:40:00 18.6 C 13.69 g/m*3 18.6 C 6.4 km/h
1570 17-07-2021 10:45:00 18.7 C 13.61 g/m*3 18.7 C 9.7 km/h
1571 17-07-2021 10:50:00 18.8 C 13.69 g/m*3 18.8 C 9.7 km/h
1572 17-07-2021 10:55:00 19.2 C 13.69 g/m*3 19.2 C 11.3 km/h
1573 17-07-2021 11:00:00 19.4 C 13.68 g/m*3 19.4 C 9.7 km/h
1574 17-07-2021 11:05:00 19.6 C 13.84 g/m*3 19.6 C 8.1 km/h
1575 17-07-2021 11:10:00 19.7 C 13.92 g/m*3 19.7 C 3.2 km/h
Sensor: Nr:Datum:Temp:Abs-Feuchte:Windchill:Wind:
Aussen-T/F 1576 17-07-2021 11:15:00 19.8 C 13.84 g/m*3 19.8 C 6.4 km/h
1577 17-07-2021 11:20:00 19.9 C 13.92 g/m*3 19.9 C 3.2 km/h
1578 17-07-2021 11:25:00 20.1 C 14.08 g/m*3 20.1 C 4.8 km/h
1579 17-07-2021 11:30:00 20.3 C 14.07 g/m*3 20.3 C 8.1 km/h
1580 17-07-2021 11:35:00 20.3 C 13.89 g/m*3 20.3 C 11.3 km/h
1581 17-07-2021 11:40:00 20.4 C 13.98 g/m*3 20.4 C 11.3 km/h
1582 17-07-2021 11:45:00 20.3 C 14.07 g/m*3 20.3 C 12.9 km/h
1583 17-07-2021 11:50:00 20.4 C 14.15 g/m*3 20.4 C 12.9 km/h
1584 17-07-2021 11:55:00 20.4 C 13.98 g/m*3 20.4 C 16.1 km/h
1585 17-07-2021 12:00:00 20.4 C 14.15 g/m*3 20.4 C 16.1 km/h
1586 17-07-2021 12:05:00 20.4 C 14.15 g/m*3 20.4 C 11.3 km/h
1587 17-07-2021 12:10:00 20.5 C 14.23 g/m*3 20.5 C 12.9 km/h
1588 17-07-2021 12:15:00 20.6 C 14.14 g/m*3 20.6 C 14.5 km/h
1589 17-07-2021 12:20:00 20.6 C 14.32 g/m*3 20.6 C 11.3 km/h
1590 17-07-2021 12:25:00 20.6 C 14.32 g/m*3 20.6 C 12.9 km/h
1591 17-07-2021 12:30:00 20.6 C 14.14 g/m*3 20.6 C 12.9 km/h
1592 17-07-2021 12:35:00 20.6 C 14.32 g/m*3 20.6 C 14.5 km/h
1593 17-07-2021 12:40:00 20.6 C 14.32 g/m*3 20.6 C 17.7 km/h
1594 17-07-2021 12:45:00 20.7 C 14.4 g/m*3 20.7 C 12.9 km/h
1595 17-07-2021 12:50:00 20.8 C 14.49 g/m*3 20.8 C 16.1 km/h
1596 17-07-2021 12:55:00 20.7 C 14.4 g/m*3 20.7 C 14.5 km/h
1597 17-07-2021 13:00:00 20.7 C 14.4 g/m*3 20.7 C 11.3 km/h
1598 17-07-2021 13:05:00 20.7 C 14.4 g/m*3 20.7 C 14.5 km/h
1599 17-07-2021 13:10:00 20.6 C 14.5 g/m*3 20.6 C 11.3 km/h
1600 17-07-2021 13:15:00 20.6 C 14.5 g/m*3 20.6 C 6.4 km/h
Sensor: Nr:Datum:Temp:Abs-Feuchte:Windchill:Wind:
Aussen-T/F 1601 17-07-2021 13:20:00 20.7 C 14.76 g/m*3 20.7 C 9.7 km/h
1602 17-07-2021 13:25:00 20.7 C 14.58 g/m*3 20.7 C 6.4 km/h
1603 17-07-2021 13:30:00 20.7 C 14.4 g/m*3 20.7 C 12.9 km/h
1604 17-07-2021 13:35:00 20.6 C 14.5 g/m*3 20.6 C 11.3 km/h
1605 17-07-2021 13:40:00 20.4 C 14.33 g/m*3 20.4 C 11.3 km/h
1606 17-07-2021 13:45:00 20.3 C 14.25 g/m*3 20.3 C 9.7 km/h
1607 17-07-2021 13:50:00 20.3 C 14.42 g/m*3 20.3 C 8.1 km/h
1608 17-07-2021 13:55:00 20.3 C 14.42 g/m*3 20.3 C 9.7 km/h
1609 17-07-2021 14:00:00 20.2 C 14.34 g/m*3 20.2 C 11.3 km/h
1610 17-07-2021 14:05:00 20.2 C 14.34 g/m*3 20.2 C 11.3 km/h
1611 17-07-2021 14:10:00 20.2 C 14.51 g/m*3 20.2 C 6.4 km/h
1612 17-07-2021 14:15:00 20.4 C 14.51 g/m*3 20.4 C 12.9 km/h
1613 17-07-2021 14:20:00 20.4 C 14.51 g/m*3 20.4 C 9.7 km/h
1614 17-07-2021 14:25:00 20.4 C 14.51 g/m*3 20.4 C 14.5 km/h
1615 17-07-2021 14:30:00 20.4 C 14.51 g/m*3 20.4 C 9.7 km/h
1616 17-07-2021 14:35:00 20.5 C 14.59 g/m*3 20.5 C 11.3 km/h
1617 17-07-2021 14:40:00 20.4 C 14.51 g/m*3 20.4 C 8.1 km/h
1618 17-07-2021 14:45:00 20.4 C 14.51 g/m*3 20.4 C 11.3 km/h
1619 17-07-2021 14:50:00 20.4 C 14.68 g/m*3 20.4 C 11.3 km/h
1620 17-07-2021 14:55:00 20.4 C 14.51 g/m*3 20.4 C 11.3 km/h
1621 17-07-2021 15:00:00 20.5 C 14.59 g/m*3 20.5 C 8.1 km/h
1622 17-07-2021 15:05:00 20.6 C 14.68 g/m*3 20.6 C 11.3 km/h
1623 17-07-2021 15:10:00 20.6 C 14.68 g/m*3 20.6 C 8.1 km/h
1624 17-07-2021 15:15:00 20.6 C 14.68 g/m*3 20.6 C 11.3 km/h
1625 17-07-2021 15:20:00 20.6 C 14.68 g/m*3 20.6 C 9.7 km/h
Sensor: Nr:Datum:Temp:Abs-Feuchte:Windchill:Wind:
Aussen-T/F 1626 17-07-2021 15:25:00 20.7 C 14.94 g/m*3 20.7 C 4.8 km/h
1627 17-07-2021 15:30:00 20.7 C 14.76 g/m*3 20.7 C 12.9 km/h
1628 17-07-2021 15:35:00 20.8 C 14.85 g/m*3 20.8 C 9.7 km/h
1629 17-07-2021 15:40:00 21 C 15.2 g/m*3 21 C 8.1 km/h
1630 17-07-2021 15:45:00 21.2 C 15.2 g/m*3 21.2 C 11.3 km/h
1631 17-07-2021 15:50:00 21.3 C 15.1 g/m*3 21.3 C 12.9 km/h
1632 17-07-2021 15:55:00 21.4 C 15.19 g/m*3 21.4 C 8.1 km/h
1633 17-07-2021 16:00:00 21.4 C 15.37 g/m*3 21.4 C 11.3 km/h
1634 17-07-2021 16:05:00 21.6 C 15.55 g/m*3 21.6 C 8.1 km/h
1635 17-07-2021 16:10:00 21.8 C 15.54 g/m*3 21.8 C 8.1 km/h
1636 17-07-2021 16:15:00 21.9 C 15.63 g/m*3 21.9 C 9.7 km/h
1637 17-07-2021 16:20:00 22.1 C 15.62 g/m*3 22.1 C 6.4 km/h
1638 17-07-2021 16:25:00 22.2 C 15.9 g/m*3 22.2 C 12.9 km/h
1639 17-07-2021 16:30:00 22.3 C 15.8 g/m*3 22.3 C 9.7 km/h
1640 17-07-2021 16:35:00 22.3 C 15.8 g/m*3 22.3 C 8.1 km/h
1641 17-07-2021 16:40:00 22.4 C 15.89 g/m*3 22.4 C 11.3 km/h
1642 17-07-2021 16:45:00 22.7 C 15.96 g/m*3 22.7 C 6.4 km/h
1643 17-07-2021 16:50:00 22.8 C 16.26 g/m*3 22.8 C 3.2 km/h
1644 17-07-2021 16:55:00 23.2 C 16.42 g/m*3 23.2 C 8.1 km/h
1645 17-07-2021 17:00:00 23.3 C 16.31 g/m*3 23.3 C 6.4 km/h
1646 17-07-2021 17:05:00 23.4 C 16.19 g/m*3 23.4 C 9.7 km/h
1647 17-07-2021 17:10:00 23.6 C 16.38 g/m*3 23.6 C 6.4 km/h
1648 17-07-2021 17:15:00 23.7 C 16.68 g/m*3 23.7 C 8.1 km/h
1649 17-07-2021 17:20:00 23.9 C 16.66 g/m*3 23.9 C 9.7 km/h
1650 17-07-2021 17:25:00 24.2 C 16.94 g/m*3 24.2 C 9.7 km/h
Sensor: Nr:Datum:Temp:Abs-Feuchte:Windchill:Wind:
Aussen-T/F 1651 17-07-2021 17:30:00 24.7 C 17.2 g/m*3 24.7 C 8.1 km/h
1652 17-07-2021 17:35:00 25.3 C 17.32 g/m*3 25.3 C 8.1 km/h
1653 17-07-2021 17:40:00 25.6 C 17.14 g/m*3 25.6 C 12.9 km/h
1654 17-07-2021 17:45:00 25.8 C 17.09 g/m*3 25.8 C 11.3 km/h
1655 17-07-2021 17:50:00 25.9 C 17.19 g/m*3 25.9 C 9.7 km/h
1656 17-07-2021 17:55:00 26.1 C 16.89 g/m*3 26.1 C 11.3 km/h
1657 17-07-2021 18:00:00 26.1 C 16.89 g/m*3 26.1 C 12.9 km/h
1658 17-07-2021 18:05:00 26.2 C 17.48 g/m*3 26.2 C 9.7 km/h
1659 17-07-2021 18:10:00 26.3 C 17.08 g/m*3 26.3 C 8.1 km/h
1660 17-07-2021 18:15:00 26.3 C 17.08 g/m*3 26.3 C 11.3 km/h
1661 17-07-2021 18:20:00 26.4 C 16.68 g/m*3 26.4 C 9.7 km/h
1662 17-07-2021 18:25:00 26.4 C 16.68 g/m*3 26.4 C 12.9 km/h
1663 17-07-2021 18:30:00 26.5 C 16.77 g/m*3 26.5 C 14.5 km/h
1664 17-07-2021 18:35:00 26.6 C 16.61 g/m*3 26.6 C 11.3 km/h
1665 17-07-2021 18:40:00 26.6 C 16.87 g/m*3 26.6 C 9.7 km/h
1666 17-07-2021 18:45:00 26.6 C 16.61 g/m*3 26.6 C 9.7 km/h
1667 17-07-2021 18:50:00 26.6 C 16.11 g/m*3 26.6 C 9.7 km/h
1668 17-07-2021 18:55:00 26.6 C 16.11 g/m*3 26.6 C 11.3 km/h
1669 17-07-2021 19:00:00 26.4 C 15.68 g/m*3 26.4 C 11.3 km/h
1670 17-07-2021 19:05:00 26.3 C 15.6 g/m*3 26.3 C 11.3 km/h
1671 17-07-2021 19:10:00 26.3 C 15.84 g/m*3 26.3 C 12.9 km/h
1672 17-07-2021 19:15:00 26.2 C 15.26 g/m*3 26.2 C 12.9 km/h
1673 17-07-2021 19:20:00 26.1 C 15.42 g/m*3 26.1 C 9.7 km/h
1674 17-07-2021 19:25:00 26.1 C 15.18 g/m*3 26.1 C 12.9 km/h
1675 17-07-2021 19:30:00 26.1 C 15.18 g/m*3 26.1 C 11.3 km/h
Sensor: Nr:Datum:Temp:Abs-Feuchte:Windchill:Wind:
Aussen-T/F 1676 17-07-2021 19:35:00 25.9 C 15.25 g/m*3 25.9 C 12.9 km/h
1677 17-07-2021 19:40:00 25.9 C 15.01 g/m*3 25.9 C 9.7 km/h
1678 17-07-2021 19:45:00 25.8 C 14.93 g/m*3 25.8 C 12.9 km/h
1679 17-07-2021 19:50:00 25.8 C 14.93 g/m*3 25.8 C 9.7 km/h
1680 17-07-2021 19:55:00 25.7 C 15.08 g/m*3 25.7 C 8.1 km/h
1681 17-07-2021 20:00:00 25.7 C 15.08 g/m*3 25.7 C 3.2 km/h
1682 17-07-2021 20:05:00 25.7 C 15.08 g/m*3 25.7 C 6.4 km/h
1683 17-07-2021 20:10:00 25.6 C 15 g/m*3 25.6 C 6.4 km/h
1684 17-07-2021 20:15:00 25.4 C 14.83 g/m*3 25.4 C 4.8 km/h
1685 17-07-2021 20:20:00 25.3 C 14.98 g/m*3 25.3 C 3.2 km/h
1686 17-07-2021 20:25:00 25.2 C 14.9 g/m*3 25.2 C 4.8 km/h
1687 17-07-2021 20:30:00 25.1 C 15.05 g/m*3 25.1 C 6.4 km/h
1688 17-07-2021 20:35:00 25 C 14.96 g/m*3 25 C 8.1 km/h
1689 17-07-2021 20:40:00 24.9 C 15.57 g/m*3 24.9 C 4.8 km/h
1690 17-07-2021 20:45:00 24.8 C 15.48 g/m*3 24.8 C 1.6 km/h
1691 17-07-2021 20:50:00 24.6 C 15.3 g/m*3 24.6 C 1.6 km/h
1692 17-07-2021 20:55:00 24.4 C 15.58 g/m*3 24.4 C 1.6 km/h
1693 17-07-2021 21:00:00 24.2 C 16.06 g/m*3 24.2 C 1.6 km/h
1694 17-07-2021 21:05:00 23.9 C 15.79 g/m*3 23.9 C 0 km/h
1695 17-07-2021 21:10:00 23.4 C 15.77 g/m*3 23.4 C 0 km/h
1696 17-07-2021 21:15:00 22.9 C 15.74 g/m*3 22.9 C 1.6 km/h
1697 17-07-2021 21:20:00 22.4 C 15.49 g/m*3 22.4 C 3.2 km/h
1698 17-07-2021 21:25:00 22 C 15.53 g/m*3 22 C 3.2 km/h
1699 17-07-2021 21:30:00 21.6 C 15.36 g/m*3 21.6 C 3.2 km/h
1700 17-07-2021 21:35:00 21.2 C 15.01 g/m*3 21.2 C 0 km/h
Sensor: Nr:Datum:Temp:Abs-Feuchte:Windchill:Wind:
Aussen-T/F 1701 17-07-2021 21:40:00 20.9 C 14.93 g/m*3 20.9 C 0 km/h
1702 17-07-2021 21:45:00 20.7 C 14.76 g/m*3 20.7 C 0 km/h
1703 17-07-2021 21:50:00 20.6 C 14.86 g/m*3 20.6 C 6.4 km/h
1704 17-07-2021 21:55:00 20.4 C 14.68 g/m*3 20.4 C 3.2 km/h
1705 17-07-2021 22:00:00 20.2 C 14.51 g/m*3 20.2 C 1.6 km/h
1706 17-07-2021 22:05:00 20.1 C 14.6 g/m*3 20.1 C 3.2 km/h
1707 17-07-2021 22:10:00 19.8 C 14.52 g/m*3 19.8 C 3.2 km/h
1708 17-07-2021 22:15:00 19.7 C 14.6 g/m*3 19.7 C 4.8 km/h
1709 17-07-2021 22:20:00 19.6 C 14.52 g/m*3 19.6 C 4.8 km/h
1710 17-07-2021 22:25:00 19.4 C 14.35 g/m*3 19.4 C 4.8 km/h
1711 17-07-2021 22:30:00 19.4 C 14.52 g/m*3 19.4 C 3.2 km/h
1712 17-07-2021 22:35:00 19.3 C 14.43 g/m*3 19.3 C 0 km/h
1713 17-07-2021 22:40:00 19.2 C 14.35 g/m*3 19.2 C 1.6 km/h
1714 17-07-2021 22:45:00 19.1 C 14.43 g/m*3 19.1 C 1.6 km/h
1715 17-07-2021 22:50:00 19.1 C 14.26 g/m*3 19.1 C 1.6 km/h
1716 17-07-2021 22:55:00 18.9 C 14.26 g/m*3 18.9 C 1.6 km/h
1717 17-07-2021 23:00:00 18.9 C 14.26 g/m*3 18.9 C 3.2 km/h
1718 17-07-2021 23:05:00 18.8 C 14.17 g/m*3 18.8 C 4.8 km/h
1719 17-07-2021 23:10:00 18.8 C 14.17 g/m*3 18.8 C 1.6 km/h
1720 17-07-2021 23:15:00 18.7 C 14.09 g/m*3 18.7 C 0 km/h
1721 17-07-2021 23:20:00 18.6 C 14.01 g/m*3 18.6 C 1.6 km/h
1722 17-07-2021 23:25:00 18.5 C 13.92 g/m*3 18.5 C 0 km/h
1723 17-07-2021 23:30:00 18.4 C 13.84 g/m*3 18.4 C 3.2 km/h
1724 17-07-2021 23:35:00 18.3 C 13.76 g/m*3 18.3 C 3.2 km/h
1725 17-07-2021 23:40:00 18.3 C 13.76 g/m*3 18.3 C 0 km/h
Sensor: Nr:Datum:Temp:Abs-Feuchte:Windchill:Wind:
Aussen-T/F 1726 17-07-2021 23:45:00 18.2 C 13.83 g/m*3 18.2 C 1.6 km/h
1727 17-07-2021 23:50:00 18.1 C 13.75 g/m*3 18.1 C 0 km/h
1728 17-07-2021 23:55:00 18 C 13.67 g/m*3 18 C 0 km/h
1729 18-07-2021 00:00:00 18 C 13.67 g/m*3 18 C 4.8 km/h
1730 18-07-2021 00:05:00 18 C 13.67 g/m*3 18 C 0 km/h
1731 18-07-2021 00:10:00 17.9 C 13.59 g/m*3 17.9 C 4.8 km/h
1732 18-07-2021 00:15:00 17.9 C 13.59 g/m*3 17.9 C 1.6 km/h
1733 18-07-2021 00:20:00 17.8 C 13.51 g/m*3 17.8 C 1.6 km/h
1734 18-07-2021 00:25:00 17.7 C 13.43 g/m*3 17.7 C 0 km/h
1735 18-07-2021 00:30:00 17.7 C 13.43 g/m*3 17.7 C 3.2 km/h
1736 18-07-2021 00:35:00 17.6 C 13.35 g/m*3 17.6 C 1.6 km/h
1737 18-07-2021 00:40:00 17.6 C 13.35 g/m*3 17.6 C 3.2 km/h
1738 18-07-2021 00:45:00 17.4 C 13.19 g/m*3 17.4 C 3.2 km/h
1739 18-07-2021 00:50:00 17.3 C 13.11 g/m*3 17.3 C 3.2 km/h
1740 18-07-2021 00:55:00 17.3 C 13.11 g/m*3 17.3 C 3.2 km/h
1741 18-07-2021 01:00:00 17.3 C 13.26 g/m*3 17.3 C 0 km/h
1742 18-07-2021 01:05:00 17.2 C 13.18 g/m*3 17.2 C 0 km/h
1743 18-07-2021 01:10:00 17.2 C 13.18 g/m*3 17.2 C 6.4 km/h
1744 18-07-2021 01:15:00 17.2 C 13.18 g/m*3 17.2 C 1.6 km/h
1745 18-07-2021 01:20:00 17.2 C 13.18 g/m*3 17.2 C 1.6 km/h
1746 18-07-2021 01:25:00 17.2 C 13.18 g/m*3 17.2 C 1.6 km/h
1747 18-07-2021 01:30:00 17.1 C 13.1 g/m*3 17.1 C 3.2 km/h
1748 18-07-2021 01:35:00 17.1 C 12.96 g/m*3 17.1 C 3.2 km/h
1749 18-07-2021 01:40:00 17 C 12.88 g/m*3 17 C 1.6 km/h
1750 18-07-2021 01:45:00 16.9 C 12.8 g/m*3 16.9 C 1.6 km/h
Sensor: Nr:Datum:Temp:Abs-Feuchte:Windchill:Wind:
Aussen-T/F 1751 18-07-2021 01:50:00 16.8 C 12.72 g/m*3 16.8 C 0 km/h
1752 18-07-2021 01:55:00 16.7 C 12.65 g/m*3 16.7 C 4.8 km/h
1753 18-07-2021 02:00:00 16.7 C 12.79 g/m*3 16.7 C 4.8 km/h
1754 18-07-2021 02:05:00 16.7 C 12.93 g/m*3 16.7 C 0 km/h
1755 18-07-2021 02:10:00 16.7 C 12.79 g/m*3 16.7 C 1.6 km/h
1756 18-07-2021 02:15:00 16.6 C 12.71 g/m*3 16.6 C 0 km/h
1757 18-07-2021 02:20:00 16.6 C 12.71 g/m*3 16.6 C 8.1 km/h
1758 18-07-2021 02:25:00 16.5 C 12.64 g/m*3 16.5 C 0 km/h
1759 18-07-2021 02:30:00 16.4 C 12.7 g/m*3 16.4 C 0 km/h
1760 18-07-2021 02:35:00 16.4 C 12.7 g/m*3 16.4 C 0 km/h
1761 18-07-2021 02:40:00 16.3 C 12.49 g/m*3 16.3 C 1.6 km/h
1762 18-07-2021 02:45:00 16.2 C 12.41 g/m*3 16.2 C 4.8 km/h
1763 18-07-2021 02:50:00 16.1 C 12.47 g/m*3 16.1 C 3.2 km/h
1764 18-07-2021 02:55:00 16 C 12.4 g/m*3 16 C 3.2 km/h
1765 18-07-2021 03:00:00 15.9 C 12.32 g/m*3 15.9 C 1.6 km/h
1766 18-07-2021 03:05:00 15.8 C 12.25 g/m*3 15.8 C 1.6 km/h
1767 18-07-2021 03:10:00 15.8 C 12.25 g/m*3 15.8 C 1.6 km/h
1768 18-07-2021 03:15:00 15.8 C 12.38 g/m*3 15.8 C 3.2 km/h
1769 18-07-2021 03:20:00 15.7 C 12.31 g/m*3 15.7 C 4.8 km/h
1770 18-07-2021 03:25:00 15.7 C 12.31 g/m*3 15.7 C 4.8 km/h
1771 18-07-2021 03:30:00 15.7 C 12.31 g/m*3 15.7 C 4.8 km/h
1772 18-07-2021 03:35:00 15.6 C 12.23 g/m*3 15.6 C 3.2 km/h
1773 18-07-2021 03:40:00 15.5 C 12.16 g/m*3 15.5 C 3.2 km/h
1774 18-07-2021 03:45:00 15.5 C 12.29 g/m*3 15.5 C 0 km/h
1775 18-07-2021 03:50:00 15.4 C 12.22 g/m*3 15.4 C 1.6 km/h
Sensor: Nr:Datum:Temp:Abs-Feuchte:Windchill:Wind:
Aussen-T/F 1776 18-07-2021 03:55:00 15.4 C 12.22 g/m*3 15.4 C 1.6 km/h
1777 18-07-2021 04:00:00 15.4 C 12.22 g/m*3 15.4 C 8.1 km/h
1778 18-07-2021 04:05:00 15.3 C 12.14 g/m*3 15.3 C 6.4 km/h
1779 18-07-2021 04:10:00 15.3 C 12.14 g/m*3 15.3 C 3.2 km/h
1780 18-07-2021 04:15:00 15.3 C 12.14 g/m*3 15.3 C 6.4 km/h
1781 18-07-2021 04:20:00 15.3 C 12.14 g/m*3 15.3 C 4.8 km/h
1782 18-07-2021 04:25:00 15.3 C 12.14 g/m*3 15.3 C 3.2 km/h
1783 18-07-2021 04:30:00 15.3 C 12.14 g/m*3 15.3 C 1.6 km/h
1784 18-07-2021 04:35:00 15.2 C 12.07 g/m*3 15.2 C 1.6 km/h
1785 18-07-2021 04:40:00 15.2 C 12.07 g/m*3 15.2 C 6.4 km/h
1786 18-07-2021 04:45:00 15.2 C 12.2 g/m*3 15.2 C 6.4 km/h
1787 18-07-2021 04:50:00 15.2 C 12.2 g/m*3 15.2 C 4.8 km/h
1788 18-07-2021 04:55:00 15.2 C 12.2 g/m*3 15.2 C 4.8 km/h
1789 18-07-2021 05:00:00 15.2 C 12.2 g/m*3 15.2 C 4.8 km/h
1790 18-07-2021 05:05:00 15.2 C 12.2 g/m*3 15.2 C 4.8 km/h
1791 18-07-2021 05:10:00 15.1 C 12.13 g/m*3 15.1 C 4.8 km/h
1792 18-07-2021 05:15:00 15.1 C 12.13 g/m*3 15.1 C 6.4 km/h
1793 18-07-2021 05:20:00 15.1 C 12.13 g/m*3 15.1 C 4.8 km/h
1794 18-07-2021 05:25:00 15.1 C 12.13 g/m*3 15.1 C 3.2 km/h
1795 18-07-2021 05:30:00 15.1 C 12.13 g/m*3 15.1 C 4.8 km/h
1796 18-07-2021 05:35:00 15.1 C 12.13 g/m*3 15.1 C 3.2 km/h
1797 18-07-2021 05:40:00 15.2 C 12.2 g/m*3 15.2 C 4.8 km/h
1798 18-07-2021 05:45:00 15.2 C 12.33 g/m*3 15.2 C 3.2 km/h
1799 18-07-2021 05:50:00 15.2 C 12.33 g/m*3 15.2 C 3.2 km/h
1800 18-07-2021 05:55:00 15.3 C 12.41 g/m*3 15.3 C 6.4 km/h
Sensor: Nr:Datum:Temp:Abs-Feuchte:Windchill:Wind:
Aussen-T/F 1801 18-07-2021 06:00:00 15.3 C 12.41 g/m*3 15.3 C 8.1 km/h
1802 18-07-2021 06:05:00 15.4 C 12.48 g/m*3 15.4 C 8.1 km/h
1803 18-07-2021 06:10:00 15.4 C 12.48 g/m*3 15.4 C 4.8 km/h
1804 18-07-2021 06:15:00 15.4 C 12.48 g/m*3 15.4 C 1.6 km/h
1805 18-07-2021 06:20:00 15.4 C 12.48 g/m*3 15.4 C 4.8 km/h
1806 18-07-2021 06:25:00 15.5 C 12.56 g/m*3 15.5 C 3.2 km/h
1807 18-07-2021 06:30:00 15.5 C 12.56 g/m*3 15.5 C 4.8 km/h
1808 18-07-2021 06:35:00 15.5 C 12.56 g/m*3 15.5 C 3.2 km/h
1809 18-07-2021 06:40:00 15.6 C 12.63 g/m*3 15.6 C 1.6 km/h
1810 18-07-2021 06:45:00 15.6 C 12.63 g/m*3 15.6 C 4.8 km/h
1811 18-07-2021 06:50:00 15.6 C 12.63 g/m*3 15.6 C 3.2 km/h
1812 18-07-2021 06:55:00 15.6 C 12.63 g/m*3 15.6 C 4.8 km/h
1813 18-07-2021 07:00:00 15.6 C 12.63 g/m*3 15.6 C 4.8 km/h
1814 18-07-2021 07:05:00 15.7 C 12.71 g/m*3 15.7 C 0 km/h
1815 18-07-2021 07:10:00 15.7 C 12.71 g/m*3 15.7 C 1.6 km/h
1816 18-07-2021 07:15:00 15.7 C 12.71 g/m*3 15.7 C 0 km/h
1817 18-07-2021 07:20:00 15.8 C 12.79 g/m*3 15.8 C 1.6 km/h
1818 18-07-2021 07:25:00 15.8 C 12.79 g/m*3 15.8 C 1.6 km/h
1819 18-07-2021 07:30:00 15.9 C 12.87 g/m*3 15.9 C 1.6 km/h
1820 18-07-2021 07:35:00 16.1 C 13.02 g/m*3 16.1 C 4.8 km/h
1821 18-07-2021 07:40:00 16.2 C 13.24 g/m*3 16.2 C 4.8 km/h
1822 18-07-2021 07:45:00 16.3 C 13.18 g/m*3 16.3 C 4.8 km/h
1823 18-07-2021 07:50:00 16.4 C 13.26 g/m*3 16.4 C 1.6 km/h
1824 18-07-2021 07:55:00 16.5 C 13.34 g/m*3 16.5 C 4.8 km/h
1825 18-07-2021 08:00:00 16.6 C 13.42 g/m*3 16.6 C 0 km/h
Sensor: Nr:Datum:Temp:Abs-Feuchte:Windchill:Wind:
Aussen-T/F 1826 18-07-2021 08:05:00 16.6 C 13.28 g/m*3 16.6 C 0 km/h
1827 18-07-2021 08:10:00 16.7 C 13.36 g/m*3 16.7 C 0 km/h
1828 18-07-2021 08:15:00 16.7 C 13.5 g/m*3 16.7 C 0 km/h
1829 18-07-2021 08:20:00 16.8 C 13.44 g/m*3 16.8 C 0 km/h
1830 18-07-2021 08:25:00 16.8 C 13.44 g/m*3 16.8 C 0 km/h
1831 18-07-2021 08:30:00 16.9 C 13.52 g/m*3 16.9 C 0 km/h
1832 18-07-2021 08:35:00 16.9 C 13.52 g/m*3 16.9 C 1.6 km/h
1833 18-07-2021 08:40:00 17.1 C 13.54 g/m*3 17.1 C 1.6 km/h
1834 18-07-2021 08:45:00 17.3 C 13.7 g/m*3 17.3 C 4.8 km/h
1835 18-07-2021 08:50:00 17.4 C 13.78 g/m*3 17.4 C 1.6 km/h
1836 18-07-2021 08:55:00 17.6 C 13.8 g/m*3 17.6 C 8.1 km/h
1837 18-07-2021 09:00:00 17.7 C 13.73 g/m*3 17.7 C 8.1 km/h
1838 18-07-2021 09:05:00 17.8 C 13.66 g/m*3 17.8 C 6.4 km/h
1839 18-07-2021 09:10:00 17.8 C 13.51 g/m*3 17.8 C 4.8 km/h
1840 18-07-2021 09:15:00 17.9 C 13.59 g/m*3 17.9 C 1.6 km/h
1841 18-07-2021 09:20:00 18 C 13.67 g/m*3 18 C 6.4 km/h
1842 18-07-2021 09:25:00 18.1 C 13.6 g/m*3 18.1 C 6.4 km/h
1843 18-07-2021 09:30:00 18.2 C 13.68 g/m*3 18.2 C 0 km/h
1844 18-07-2021 09:35:00 18.3 C 13.76 g/m*3 18.3 C 1.6 km/h
1845 18-07-2021 09:40:00 18.4 C 14 g/m*3 18.4 C 0 km/h
1846 18-07-2021 09:45:00 18.4 C 13.68 g/m*3 18.4 C 8.1 km/h
1847 18-07-2021 09:50:00 18.5 C 13.61 g/m*3 18.5 C 1.6 km/h
1848 18-07-2021 09:55:00 18.6 C 13.85 g/m*3 18.6 C 3.2 km/h
1849 18-07-2021 10:00:00 18.7 C 13.77 g/m*3 18.7 C 6.4 km/h
1850 18-07-2021 10:05:00 18.8 C 13.85 g/m*3 18.8 C 3.2 km/h
Sensor: Nr:Datum:Temp:Abs-Feuchte:Windchill:Wind:
Aussen-T/F 1851 18-07-2021 10:10:00 19 C 13.85 g/m*3 19 C 4.8 km/h
1852 18-07-2021 10:15:00 19.2 C 13.85 g/m*3 19.2 C 3.2 km/h
1853 18-07-2021 10:20:00 19.3 C 13.77 g/m*3 19.3 C 4.8 km/h
1854 18-07-2021 10:25:00 19.6 C 13.84 g/m*3 19.6 C 6.4 km/h
1855 18-07-2021 10:30:00 19.8 C 14.01 g/m*3 19.8 C 4.8 km/h
1856 18-07-2021 10:35:00 19.9 C 13.92 g/m*3 19.9 C 1.6 km/h
1857 18-07-2021 10:40:00 20.2 C 14.16 g/m*3 20.2 C 11.3 km/h
1858 18-07-2021 10:45:00 20.4 C 14.15 g/m*3 20.4 C 11.3 km/h
1859 18-07-2021 10:50:00 20.6 C 14.14 g/m*3 20.6 C 8.1 km/h
1860 18-07-2021 10:55:00 20.7 C 14.04 g/m*3 20.7 C 0 km/h
1861 18-07-2021 11:00:00 20.7 C 14.04 g/m*3 20.7 C 9.7 km/h
1862 18-07-2021 11:05:00 20.8 C 14.3 g/m*3 20.8 C 8.1 km/h
1863 18-07-2021 11:10:00 20.9 C 14.21 g/m*3 20.9 C 11.3 km/h
1864 18-07-2021 11:15:00 20.9 C 14.02 g/m*3 20.9 C 9.7 km/h
1865 18-07-2021 11:20:00 21.1 C 14.19 g/m*3 21.1 C 1.6 km/h
1866 18-07-2021 11:25:00 21.2 C 14.46 g/m*3 21.2 C 8.1 km/h
1867 18-07-2021 11:30:00 21.3 C 14.54 g/m*3 21.3 C 8.1 km/h
1868 18-07-2021 11:35:00 21.3 C 14.17 g/m*3 21.3 C 6.4 km/h
1869 18-07-2021 11:40:00 21.4 C 14.25 g/m*3 21.4 C 8.1 km/h
1870 18-07-2021 11:45:00 21.6 C 14.6 g/m*3 21.6 C 11.3 km/h
1871 18-07-2021 11:50:00 21.8 C 14.58 g/m*3 21.8 C 11.3 km/h
1872 18-07-2021 11:55:00 21.9 C 14.47 g/m*3 21.9 C 8.1 km/h
1873 18-07-2021 12:00:00 22.1 C 14.84 g/m*3 22.1 C 8.1 km/h
1874 18-07-2021 12:05:00 22.2 C 14.53 g/m*3 22.2 C 12.9 km/h
1875 18-07-2021 12:10:00 22.3 C 14.61 g/m*3 22.3 C 11.3 km/h
Sensor: Nr:Datum:Temp:Abs-Feuchte:Windchill:Wind:
Aussen-T/F 1876 18-07-2021 12:15:00 22.4 C 14.3 g/m*3 22.4 C 12.9 km/h
1877 18-07-2021 12:20:00 22.7 C 14.55 g/m*3 22.7 C 11.3 km/h
1878 18-07-2021 12:25:00 22.8 C 14.43 g/m*3 22.8 C 8.1 km/h
1879 18-07-2021 12:30:00 22.9 C 14.92 g/m*3 22.9 C 4.8 km/h
1880 18-07-2021 12:35:00 23 C 14.59 g/m*3 23 C 8.1 km/h
1881 18-07-2021 12:40:00 23.1 C 14.68 g/m*3 23.1 C 8.1 km/h
1882 18-07-2021 12:45:00 23.2 C 14.76 g/m*3 23.2 C 12.9 km/h
1883 18-07-2021 12:50:00 23.2 C 14.76 g/m*3 23.2 C 11.3 km/h
1884 18-07-2021 12:55:00 23.2 C 14.55 g/m*3 23.2 C 12.9 km/h
1885 18-07-2021 13:00:00 23.3 C 14.64 g/m*3 23.3 C 11.3 km/h
1886 18-07-2021 13:05:00 23.3 C 14.64 g/m*3 23.3 C 12.9 km/h
1887 18-07-2021 13:10:00 23.4 C 14.72 g/m*3 23.4 C 9.7 km/h
1888 18-07-2021 13:15:00 23.4 C 14.72 g/m*3 23.4 C 11.3 km/h
1889 18-07-2021 13:20:00 23.4 C 14.51 g/m*3 23.4 C 11.3 km/h
1890 18-07-2021 13:25:00 23.5 C 14.38 g/m*3 23.5 C 11.3 km/h
1891 18-07-2021 13:30:00 23.7 C 14.76 g/m*3 23.7 C 11.3 km/h
1892 18-07-2021 13:35:00 23.8 C 14.41 g/m*3 23.8 C 12.9 km/h
1893 18-07-2021 13:40:00 23.9 C 14.71 g/m*3 23.9 C 11.3 km/h
1894 18-07-2021 13:45:00 23.9 C 14.71 g/m*3 23.9 C 14.5 km/h
1895 18-07-2021 13:50:00 23.9 C 14.49 g/m*3 23.9 C 12.9 km/h
1896 18-07-2021 13:55:00 23.8 C 14.2 g/m*3 23.8 C 16.1 km/h
1897 18-07-2021 14:00:00 23.9 C 14.71 g/m*3 23.9 C 11.3 km/h
1898 18-07-2021 14:05:00 24.1 C 14.66 g/m*3 24.1 C 12.9 km/h
1899 18-07-2021 14:10:00 24.1 C 14.66 g/m*3 24.1 C 12.9 km/h
1900 18-07-2021 14:15:00 24.3 C 14.83 g/m*3 24.3 C 12.9 km/h
Sensor: Nr:Datum:Temp:Abs-Feuchte:Windchill:Wind:
Aussen-T/F 1901 18-07-2021 14:20:00 24.4 C 14.69 g/m*3 24.4 C 16.1 km/h
1902 18-07-2021 14:25:00 24.4 C 14.47 g/m*3 24.4 C 14.5 km/h
1903 18-07-2021 14:30:00 24.5 C 14.55 g/m*3 24.5 C 12.9 km/h
1904 18-07-2021 14:35:00 24.6 C 14.63 g/m*3 24.6 C 11.3 km/h
1905 18-07-2021 14:40:00 24.8 C 14.57 g/m*3 24.8 C 12.9 km/h
1906 18-07-2021 14:45:00 24.9 C 14.88 g/m*3 24.9 C 12.9 km/h
1907 18-07-2021 14:50:00 25.2 C 14.67 g/m*3 25.2 C 17.7 km/h
1908 18-07-2021 14:55:00 25.2 C 14.2 g/m*3 25.2 C 14.5 km/h
1909 18-07-2021 15:00:00 25.2 C 14.43 g/m*3 25.2 C 12.9 km/h
1910 18-07-2021 15:05:00 25.3 C 14.75 g/m*3 25.3 C 14.5 km/h
1911 18-07-2021 15:10:00 25.4 C 14.6 g/m*3 25.4 C 12.9 km/h
1912 18-07-2021 15:15:00 25.6 C 14.76 g/m*3 25.6 C 16.1 km/h
1913 18-07-2021 15:20:00 25.7 C 14.6 g/m*3 25.7 C 14.5 km/h
1914 18-07-2021 15:25:00 25.8 C 14.45 g/m*3 25.8 C 11.3 km/h
1915 18-07-2021 15:30:00 26 C 14.61 g/m*3 26 C 9.7 km/h
1916 18-07-2021 15:35:00 26.1 C 14.93 g/m*3 26.1 C 16.1 km/h
1917 18-07-2021 15:40:00 26.3 C 14.85 g/m*3 26.3 C 11.3 km/h
1918 18-07-2021 15:45:00 26.5 C 15.27 g/m*3 26.5 C 14.5 km/h
1919 18-07-2021 15:50:00 26.9 C 15.36 g/m*3 26.9 C 11.3 km/h
1920 18-07-2021 15:55:00 27.1 C 15.53 g/m*3 27.1 C 12.9 km/h
1921 18-07-2021 16:00:00 27.3 C 15.44 g/m*3 27.3 C 17.7 km/h
1922 18-07-2021 16:05:00 27.3 C 15.18 g/m*3 27.3 C 9.7 km/h
1923 18-07-2021 16:10:00 27.4 C 15.26 g/m*3 27.4 C 11.3 km/h
1924 18-07-2021 16:15:00 27.4 C 15 g/m*3 27.4 C 11.3 km/h
1925 18-07-2021 16:20:00 27.4 C 15.26 g/m*3 27.4 C 14.5 km/h
Sensor: Nr:Datum:Temp:Abs-Feuchte:Windchill:Wind:
Aussen-T/F 1926 18-07-2021 16:25:00 27.4 C 15 g/m*3 27.4 C 17.7 km/h
1927 18-07-2021 16:30:00 27.3 C 15.18 g/m*3 27.3 C 16.1 km/h
1928 18-07-2021 16:35:00 27.3 C 15.44 g/m*3 27.3 C 11.3 km/h
1929 18-07-2021 16:40:00 27.6 C 15.16 g/m*3 27.6 C 9.7 km/h
1930 18-07-2021 16:45:00 27.7 C 15.25 g/m*3 27.7 C 8.1 km/h
1931 18-07-2021 16:50:00 27.7 C 15.25 g/m*3 27.7 C 9.7 km/h
1932 18-07-2021 16:55:00 27.8 C 15.06 g/m*3 27.8 C 12.9 km/h
1933 18-07-2021 17:00:00 27.9 C 15.15 g/m*3 27.9 C 12.9 km/h
1934 18-07-2021 17:05:00 27.9 C 15.15 g/m*3 27.9 C 11.3 km/h
1935 18-07-2021 17:10:00 27.9 C 15.15 g/m*3 27.9 C 16.1 km/h
1936 18-07-2021 17:15:00 27.7 C 15.25 g/m*3 27.7 C 12.9 km/h
1937 18-07-2021 17:20:00 27.8 C 15.6 g/m*3 27.8 C 12.9 km/h
1938 18-07-2021 17:25:00 27.8 C 14.79 g/m*3 27.8 C 14.5 km/h
1939 18-07-2021 17:30:00 27.8 C 14.52 g/m*3 27.8 C 11.3 km/h
1940 18-07-2021 17:35:00 27.9 C 14.87 g/m*3 27.9 C 12.9 km/h
1941 18-07-2021 17:40:00 27.8 C 14.79 g/m*3 27.8 C 14.5 km/h
1942 18-07-2021 17:45:00 27.8 C 14.79 g/m*3 27.8 C 11.3 km/h
1943 18-07-2021 17:50:00 27.9 C 14.6 g/m*3 27.9 C 14.5 km/h
1944 18-07-2021 17:55:00 28.1 C 15.04 g/m*3 28.1 C 16.1 km/h
1945 18-07-2021 18:00:00 28.1 C 15.04 g/m*3 28.1 C 12.9 km/h
1946 18-07-2021 18:05:00 28.2 C 14.85 g/m*3 28.2 C 11.3 km/h
1947 18-07-2021 18:10:00 28.2 C 14.57 g/m*3 28.2 C 12.9 km/h
1948 18-07-2021 18:15:00 28.2 C 14.85 g/m*3 28.2 C 9.7 km/h
1949 18-07-2021 18:20:00 28.2 C 14.57 g/m*3 28.2 C 14.5 km/h
1950 18-07-2021 18:25:00 28 C 14.41 g/m*3 28 C 14.5 km/h
Sensor: Nr:Datum:Temp:Abs-Feuchte:Windchill:Wind:
Aussen-T/F 1951 18-07-2021 18:30:00 28 C 14.68 g/m*3 28 C 8.1 km/h
1952 18-07-2021 18:35:00 28.1 C 14.77 g/m*3 28.1 C 11.3 km/h
1953 18-07-2021 18:40:00 27.9 C 14.6 g/m*3 27.9 C 12.9 km/h
1954 18-07-2021 18:45:00 27.9 C 14.33 g/m*3 27.9 C 11.3 km/h
1955 18-07-2021 18:50:00 27.8 C 14.52 g/m*3 27.8 C 14.5 km/h
1956 18-07-2021 18:55:00 27.7 C 14.98 g/m*3 27.7 C 11.3 km/h
1957 18-07-2021 19:00:00 27.6 C 14.9 g/m*3 27.6 C 12.9 km/h
1958 18-07-2021 19:05:00 27.6 C 15.16 g/m*3 27.6 C 14.5 km/h
1959 18-07-2021 19:10:00 27.4 C 15 g/m*3 27.4 C 8.1 km/h
1960 18-07-2021 19:15:00 27.3 C 14.91 g/m*3 27.3 C 8.1 km/h
1961 18-07-2021 19:20:00 27.3 C 15.18 g/m*3 27.3 C 11.3 km/h
1962 18-07-2021 19:25:00 27.2 C 15.09 g/m*3 27.2 C 9.7 km/h
1963 18-07-2021 19:30:00 27.1 C 14.75 g/m*3 27.1 C 11.3 km/h
1964 18-07-2021 19:35:00 26.9 C 14.84 g/m*3 26.9 C 9.7 km/h
1965 18-07-2021 19:40:00 26.8 C 14.76 g/m*3 26.8 C 11.3 km/h
1966 18-07-2021 19:45:00 26.7 C 14.93 g/m*3 26.7 C 12.9 km/h
1967 18-07-2021 19:50:00 26.6 C 14.85 g/m*3 26.6 C 6.4 km/h
1968 18-07-2021 19:55:00 26.6 C 14.85 g/m*3 26.6 C 11.3 km/h
1969 18-07-2021 20:00:00 26.4 C 14.44 g/m*3 26.4 C 14.5 km/h
1970 18-07-2021 20:05:00 26.2 C 14.52 g/m*3 26.2 C 8.1 km/h
1971 18-07-2021 20:10:00 26.1 C 14.69 g/m*3 26.1 C 6.4 km/h
1972 18-07-2021 20:15:00 26.1 C 14.69 g/m*3 26.1 C 6.4 km/h
1973 18-07-2021 20:20:00 25.9 C 14.53 g/m*3 25.9 C 11.3 km/h
1974 18-07-2021 20:25:00 25.8 C 14.69 g/m*3 25.8 C 6.4 km/h
1975 18-07-2021 20:30:00 25.7 C 14.84 g/m*3 25.7 C 6.4 km/h
Sensor: Nr:Datum:Temp:Abs-Feuchte:Windchill:Wind:
Aussen-T/F 1976 18-07-2021 20:35:00 25.7 C 15.32 g/m*3 25.7 C 3.2 km/h
1977 18-07-2021 20:40:00 25.6 C 15.95 g/m*3 25.6 C 3.2 km/h
1978 18-07-2021 20:45:00 25.4 C 16.24 g/m*3 25.4 C 4.8 km/h
1979 18-07-2021 20:50:00 25.2 C 14.9 g/m*3 25.2 C 6.4 km/h
1980 18-07-2021 20:55:00 25 C 15.42 g/m*3 25 C 0 km/h
1981 18-07-2021 21:00:00 24.7 C 16.07 g/m*3 24.7 C 0 km/h
1982 18-07-2021 21:05:00 24.3 C 16.15 g/m*3 24.3 C 0 km/h
1983 18-07-2021 21:10:00 23.7 C 15.83 g/m*3 23.7 C 1.6 km/h
1984 18-07-2021 21:15:00 23.2 C 15.8 g/m*3 23.2 C 0 km/h
1985 18-07-2021 21:20:00 22.8 C 15.44 g/m*3 22.8 C 3.2 km/h
1986 18-07-2021 21:25:00 22.4 C 15.49 g/m*3 22.4 C 0 km/h
1987 18-07-2021 21:30:00 22.1 C 15.42 g/m*3 22.1 C 1.6 km/h
1988 18-07-2021 21:35:00 21.8 C 15.35 g/m*3 21.8 C 3.2 km/h
1989 18-07-2021 21:40:00 21.5 C 15.09 g/m*3 21.5 C 4.8 km/h
1990 18-07-2021 21:45:00 21.3 C 15.1 g/m*3 21.3 C 4.8 km/h
1991 18-07-2021 21:50:00 21.1 C 14.92 g/m*3 21.1 C 4.8 km/h
1992 18-07-2021 21:55:00 20.9 C 14.93 g/m*3 20.9 C 4.8 km/h
1993 18-07-2021 22:00:00 20.8 C 14.85 g/m*3 20.8 C 4.8 km/h
1994 18-07-2021 22:05:00 20.7 C 14.94 g/m*3 20.7 C 4.8 km/h
1995 18-07-2021 22:10:00 20.6 C 15.03 g/m*3 20.6 C 6.4 km/h
1996 18-07-2021 22:15:00 20.4 C 14.86 g/m*3 20.4 C 6.4 km/h
1997 18-07-2021 22:20:00 20.3 C 14.77 g/m*3 20.3 C 6.4 km/h
1998 18-07-2021 22:25:00 20.3 C 14.95 g/m*3 20.3 C 4.8 km/h
1999 18-07-2021 22:30:00 20.2 C 14.86 g/m*3 20.2 C 6.4 km/h
2000 18-07-2021 22:35:00 20.1 C 14.78 g/m*3 20.1 C 4.8 km/h
Sensor: Nr:Datum:Temp:Abs-Feuchte:Windchill:Wind:
Aussen-T/F 2001 18-07-2021 22:40:00 20 C 14.86 g/m*3 20 C 4.8 km/h
2002 18-07-2021 22:45:00 19.9 C 14.78 g/m*3 19.9 C 6.4 km/h
2003 18-07-2021 22:50:00 19.8 C 14.69 g/m*3 19.8 C 6.4 km/h
2004 18-07-2021 22:55:00 19.7 C 14.6 g/m*3 19.7 C 6.4 km/h
2005 18-07-2021 23:00:00 19.7 C 14.6 g/m*3 19.7 C 4.8 km/h
2006 18-07-2021 23:05:00 19.6 C 14.52 g/m*3 19.6 C 4.8 km/h
2007 18-07-2021 23:10:00 19.6 C 14.69 g/m*3 19.6 C 6.4 km/h
2008 18-07-2021 23:15:00 19.4 C 14.52 g/m*3 19.4 C 3.2 km/h
2009 18-07-2021 23:20:00 19.4 C 14.52 g/m*3 19.4 C 1.6 km/h
2010 18-07-2021 23:25:00 19.3 C 14.43 g/m*3 19.3 C 4.8 km/h
2011 18-07-2021 23:30:00 19.2 C 14.51 g/m*3 19.2 C 0 km/h
2012 18-07-2021 23:35:00 19.1 C 14.43 g/m*3 19.1 C 0 km/h
2013 18-07-2021 23:40:00 18.9 C 14.26 g/m*3 18.9 C 4.8 km/h
2014 18-07-2021 23:45:00 18.8 C 14.33 g/m*3 18.8 C 1.6 km/h
2015 18-07-2021 23:50:00 18.7 C 14.25 g/m*3 18.7 C 0 km/h
2016 18-07-2021 23:55:00 18.6 C 14.17 g/m*3 18.6 C 0 km/h
2017 19-07-2021 00:00:00 18.5 C 14.08 g/m*3 18.5 C 0 km/h
2018 19-07-2021 00:05:00 18.4 C 14 g/m*3 18.4 C 0 km/h
2019 19-07-2021 00:10:00 18.3 C 14.07 g/m*3 18.3 C 0 km/h
2020 19-07-2021 00:15:00 18.2 C 13.99 g/m*3 18.2 C 0 km/h
2021 19-07-2021 00:20:00 18.1 C 13.91 g/m*3 18.1 C 0 km/h
2022 19-07-2021 00:25:00 18 C 13.82 g/m*3 18 C 0 km/h
2023 19-07-2021 00:30:00 17.9 C 13.89 g/m*3 17.9 C 0 km/h
2024 19-07-2021 00:35:00 17.8 C 13.81 g/m*3 17.8 C 0 km/h
2025 19-07-2021 00:40:00 17.7 C 13.73 g/m*3 17.7 C 0 km/h
Sensor: Nr:Datum:Temp:Abs-Feuchte:Windchill:Wind:
Aussen-T/F 2026 19-07-2021 00:45:00 17.6 C 13.65 g/m*3 17.6 C 0 km/h
2027 19-07-2021 00:50:00 17.6 C 13.8 g/m*3 17.6 C 0 km/h
2028 19-07-2021 00:55:00 17.5 C 13.72 g/m*3 17.5 C 1.6 km/h
2029 19-07-2021 01:00:00 17.4 C 13.63 g/m*3 17.4 C 1.6 km/h
2030 19-07-2021 01:05:00 17.4 C 13.63 g/m*3 17.4 C 0 km/h
2031 19-07-2021 01:10:00 17.3 C 13.55 g/m*3 17.3 C 1.6 km/h
2032 19-07-2021 01:15:00 17.3 C 13.55 g/m*3 17.3 C 0 km/h
2033 19-07-2021 01:20:00 17.3 C 13.55 g/m*3 17.3 C 0 km/h
2034 19-07-2021 01:25:00 17.2 C 13.47 g/m*3 17.2 C 0 km/h
2035 19-07-2021 01:30:00 17.2 C 13.62 g/m*3 17.2 C 1.6 km/h
2036 19-07-2021 01:35:00 17.2 C 13.62 g/m*3 17.2 C 0 km/h
2037 19-07-2021 01:40:00 17.1 C 13.54 g/m*3 17.1 C 1.6 km/h
2038 19-07-2021 01:45:00 17.1 C 13.39 g/m*3 17.1 C 1.6 km/h
2039 19-07-2021 01:50:00 17 C 13.46 g/m*3 17 C 3.2 km/h
2040 19-07-2021 01:55:00 16.9 C 13.38 g/m*3 16.9 C 0 km/h
2041 19-07-2021 02:00:00 16.8 C 13.3 g/m*3 16.8 C 0 km/h
2042 19-07-2021 02:05:00 16.8 C 13.3 g/m*3 16.8 C 4.8 km/h
2043 19-07-2021 02:10:00 16.7 C 13.22 g/m*3 16.7 C 4.8 km/h
2044 19-07-2021 02:15:00 16.7 C 13.22 g/m*3 16.7 C 4.8 km/h
2045 19-07-2021 02:20:00 16.6 C 13.14 g/m*3 16.6 C 6.4 km/h
2046 19-07-2021 02:25:00 16.6 C 13.14 g/m*3 16.6 C 1.6 km/h
2047 19-07-2021 02:30:00 16.6 C 13.14 g/m*3 16.6 C 1.6 km/h
2048 19-07-2021 02:35:00 16.5 C 13.06 g/m*3 16.5 C 0 km/h
2049 19-07-2021 02:40:00 16.4 C 12.98 g/m*3 16.4 C 1.6 km/h
2050 19-07-2021 02:45:00 16.3 C 12.9 g/m*3 16.3 C 4.8 km/h
Sensor: Nr:Datum:Temp:Abs-Feuchte:Windchill:Wind:
Aussen-T/F 2051 19-07-2021 02:50:00 16.3 C 12.9 g/m*3 16.3 C 1.6 km/h
2052 19-07-2021 02:55:00 16.2 C 12.82 g/m*3 16.2 C 0 km/h
2053 19-07-2021 03:00:00 16.2 C 12.82 g/m*3 16.2 C 1.6 km/h
2054 19-07-2021 03:05:00 16.1 C 12.75 g/m*3 16.1 C 1.6 km/h
2055 19-07-2021 03:10:00 16.1 C 12.75 g/m*3 16.1 C 0 km/h
2056 19-07-2021 03:15:00 16 C 12.67 g/m*3 16 C 0 km/h
2057 19-07-2021 03:20:00 15.9 C 12.59 g/m*3 15.9 C 0 km/h
2058 19-07-2021 03:25:00 15.8 C 12.52 g/m*3 15.8 C 0 km/h
2059 19-07-2021 03:30:00 15.8 C 12.52 g/m*3 15.8 C 0 km/h
2060 19-07-2021 03:35:00 15.7 C 12.44 g/m*3 15.7 C 0 km/h
2061 19-07-2021 03:40:00 15.6 C 12.37 g/m*3 15.6 C 0 km/h
2062 19-07-2021 03:45:00 15.5 C 12.29 g/m*3 15.5 C 0 km/h
2063 19-07-2021 03:50:00 15.4 C 12.22 g/m*3 15.4 C 0 km/h
2064 19-07-2021 03:55:00 15.3 C 12.14 g/m*3 15.3 C 0 km/h
2065 19-07-2021 04:00:00 15.3 C 12.28 g/m*3 15.3 C 0 km/h
2066 19-07-2021 04:05:00 15.2 C 12.2 g/m*3 15.2 C 0 km/h
2067 19-07-2021 04:10:00 15.2 C 12.2 g/m*3 15.2 C 0 km/h
2068 19-07-2021 04:15:00 15.1 C 12.13 g/m*3 15.1 C 0 km/h
2069 19-07-2021 04:20:00 15.1 C 12.13 g/m*3 15.1 C 0 km/h
2070 19-07-2021 04:25:00 15 C 12.05 g/m*3 15 C 0 km/h
2071 19-07-2021 04:30:00 14.9 C 11.98 g/m*3 14.9 C 0 km/h
2072 19-07-2021 04:35:00 14.9 C 11.98 g/m*3 14.9 C 0 km/h
2073 19-07-2021 04:40:00 14.8 C 11.91 g/m*3 14.8 C 0 km/h
2074 19-07-2021 04:45:00 14.8 C 11.91 g/m*3 14.8 C 0 km/h
2075 19-07-2021 04:50:00 14.7 C 11.83 g/m*3 14.7 C 0 km/h
Sensor: Nr:Datum:Temp:Abs-Feuchte:Windchill:Wind:
Aussen-T/F 2076 19-07-2021 04:55:00 14.7 C 11.83 g/m*3 14.7 C 0 km/h
2077 19-07-2021 05:00:00 14.7 C 11.83 g/m*3 14.7 C 0 km/h
2078 19-07-2021 05:05:00 14.7 C 11.83 g/m*3 14.7 C 0 km/h
2079 19-07-2021 05:10:00 14.6 C 11.76 g/m*3 14.6 C 0 km/h
2080 19-07-2021 05:15:00 14.6 C 11.89 g/m*3 14.6 C 0 km/h
2081 19-07-2021 05:20:00 14.6 C 11.89 g/m*3 14.6 C 1.6 km/h
2082 19-07-2021 05:25:00 14.7 C 11.96 g/m*3 14.7 C 0 km/h
2083 19-07-2021 05:30:00 14.7 C 11.96 g/m*3 14.7 C 0 km/h
2084 19-07-2021 05:35:00 14.7 C 11.96 g/m*3 14.7 C 0 km/h
2085 19-07-2021 05:40:00 14.7 C 11.96 g/m*3 14.7 C 0 km/h
2086 19-07-2021 05:45:00 14.7 C 11.96 g/m*3 14.7 C 0 km/h
2087 19-07-2021 05:50:00 14.7 C 11.96 g/m*3 14.7 C 0 km/h
2088 19-07-2021 05:55:00 14.7 C 11.96 g/m*3 14.7 C 0 km/h
2089 19-07-2021 06:00:00 14.7 C 11.96 g/m*3 14.7 C 0 km/h
2090 19-07-2021 06:05:00 14.7 C 11.96 g/m*3 14.7 C 0 km/h
2091 19-07-2021 06:10:00 14.7 C 11.96 g/m*3 14.7 C 0 km/h
2092 19-07-2021 06:15:00 14.7 C 11.96 g/m*3 14.7 C 0 km/h
2093 19-07-2021 06:20:00 14.7 C 11.96 g/m*3 14.7 C 0 km/h
2094 19-07-2021 06:25:00 14.6 C 11.89 g/m*3 14.6 C 0 km/h
2095 19-07-2021 06:30:00 14.6 C 11.89 g/m*3 14.6 C 0 km/h
2096 19-07-2021 06:35:00 14.6 C 11.89 g/m*3 14.6 C 0 km/h
2097 19-07-2021 06:40:00 14.6 C 11.89 g/m*3 14.6 C 0 km/h
2098 19-07-2021 06:45:00 14.6 C 11.89 g/m*3 14.6 C 0 km/h
2099 19-07-2021 06:50:00 14.6 C 11.89 g/m*3 14.6 C 0 km/h
2100 19-07-2021 06:55:00 14.6 C 11.89 g/m*3 14.6 C 0 km/h
Sensor: Nr:Datum:Temp:Abs-Feuchte:Windchill:Wind:
Aussen-T/F 2101 19-07-2021 07:00:00 14.7 C 12.09 g/m*3 14.7 C 0 km/h
2102 19-07-2021 07:05:00 14.7 C 12.09 g/m*3 14.7 C 1.6 km/h
2103 19-07-2021 07:10:00 14.7 C 12.09 g/m*3 14.7 C 0 km/h
2104 19-07-2021 07:15:00 14.7 C 12.09 g/m*3 14.7 C 0 km/h
2105 19-07-2021 07:20:00 14.8 C 12.16 g/m*3 14.8 C 0 km/h
2106 19-07-2021 07:25:00 14.8 C 12.16 g/m*3 14.8 C 0 km/h
2107 19-07-2021 07:30:00 14.9 C 12.24 g/m*3 14.9 C 0 km/h
2108 19-07-2021 07:35:00 14.9 C 12.24 g/m*3 14.9 C 0 km/h
2109 19-07-2021 07:40:00 15 C 12.31 g/m*3 15 C 0 km/h
2110 19-07-2021 07:45:00 15.1 C 12.39 g/m*3 15.1 C 0 km/h
2111 19-07-2021 07:50:00 15.1 C 12.39 g/m*3 15.1 C 0 km/h
2112 19-07-2021 07:55:00 15.2 C 12.46 g/m*3 15.2 C 0 km/h
2113 19-07-2021 08:00:00 15.3 C 12.54 g/m*3 15.3 C 0 km/h
2114 19-07-2021 08:05:00 15.3 C 12.54 g/m*3 15.3 C 0 km/h
2115 19-07-2021 08:10:00 15.4 C 12.61 g/m*3 15.4 C 0 km/h
2116 19-07-2021 08:15:00 15.6 C 12.9 g/m*3 15.6 C 0 km/h
2117 19-07-2021 08:20:00 15.8 C 13.06 g/m*3 15.8 C 0 km/h
2118 19-07-2021 08:25:00 15.9 C 13.14 g/m*3 15.9 C 0 km/h
2119 19-07-2021 08:30:00 16.1 C 13.3 g/m*3 16.1 C 0 km/h
2120 19-07-2021 08:35:00 16.3 C 13.46 g/m*3 16.3 C 0 km/h
2121 19-07-2021 08:40:00 16.6 C 13.7 g/m*3 16.6 C 0 km/h
2122 19-07-2021 08:45:00 16.6 C 13.7 g/m*3 16.6 C 4.8 km/h
2123 19-07-2021 08:50:00 16.7 C 13.79 g/m*3 16.7 C 1.6 km/h
2124 19-07-2021 08:55:00 16.8 C 13.73 g/m*3 16.8 C 0 km/h
2125 19-07-2021 09:00:00 16.9 C 13.81 g/m*3 16.9 C 1.6 km/h
Sensor: Nr:Datum:Temp:Abs-Feuchte:Windchill:Wind:
Aussen-T/F 2126 19-07-2021 09:05:00 17 C 13.75 g/m*3 17 C 0 km/h
2127 19-07-2021 09:10:00 17.2 C 13.91 g/m*3 17.2 C 1.6 km/h
2128 19-07-2021 09:15:00 17.3 C 13.85 g/m*3 17.3 C 4.8 km/h
2129 19-07-2021 09:20:00 17.5 C 13.87 g/m*3 17.5 C 4.8 km/h
2130 19-07-2021 09:25:00 17.7 C 13.88 g/m*3 17.7 C 3.2 km/h
2131 19-07-2021 09:30:00 17.9 C 13.74 g/m*3 17.9 C 6.4 km/h
2132 19-07-2021 09:35:00 18.2 C 13.83 g/m*3 18.2 C 6.4 km/h
2133 19-07-2021 09:40:00 18.3 C 13.92 g/m*3 18.3 C 1.6 km/h
2134 19-07-2021 09:45:00 18.6 C 14.17 g/m*3 18.6 C 3.2 km/h
2135 19-07-2021 09:50:00 18.8 C 14.01 g/m*3 18.8 C 4.8 km/h
2136 19-07-2021 09:55:00 19.1 C 13.93 g/m*3 19.1 C 4.8 km/h
2137 19-07-2021 10:00:00 19.3 C 13.77 g/m*3 19.3 C 8.1 km/h
2138 19-07-2021 10:05:00 19.6 C 13.67 g/m*3 19.6 C 9.7 km/h
2139 19-07-2021 10:10:00 19.8 C 13.66 g/m*3 19.8 C 9.7 km/h
2140 19-07-2021 10:15:00 20.1 C 14.08 g/m*3 20.1 C 11.3 km/h
2141 19-07-2021 10:20:00 20.2 C 13.81 g/m*3 20.2 C 12.9 km/h
2142 19-07-2021 10:25:00 20.4 C 13.98 g/m*3 20.4 C 11.3 km/h
2143 19-07-2021 10:30:00 20.6 C 13.96 g/m*3 20.6 C 9.7 km/h
2144 19-07-2021 10:35:00 20.7 C 13.86 g/m*3 20.7 C 11.3 km/h
2145 19-07-2021 10:40:00 20.6 C 13.6 g/m*3 20.6 C 9.7 km/h
2146 19-07-2021 10:45:00 20.4 C 13.27 g/m*3 20.4 C 8.1 km/h
2147 19-07-2021 10:50:00 20.4 C 13.44 g/m*3 20.4 C 8.1 km/h
2148 19-07-2021 10:55:00 20.4 C 13.44 g/m*3 20.4 C 9.7 km/h
2149 19-07-2021 11:00:00 20.3 C 13.37 g/m*3 20.3 C 8.1 km/h
2150 19-07-2021 11:05:00 20.4 C 13.27 g/m*3 20.4 C 8.1 km/h
Sensor: Nr:Datum:Temp:Abs-Feuchte:Windchill:Wind:
Aussen-T/F 2151 19-07-2021 11:10:00 20.5 C 13.35 g/m*3 20.5 C 9.7 km/h
2152 19-07-2021 11:15:00 20.6 C 13.24 g/m*3 20.6 C 8.1 km/h
2153 19-07-2021 11:20:00 20.6 C 13.42 g/m*3 20.6 C 8.1 km/h
2154 19-07-2021 11:25:00 20.8 C 13.22 g/m*3 20.8 C 8.1 km/h
2155 19-07-2021 11:30:00 20.9 C 13.3 g/m*3 20.9 C 6.4 km/h
2156 19-07-2021 11:35:00 20.9 C 13.3 g/m*3 20.9 C 6.4 km/h
2157 19-07-2021 11:40:00 21.1 C 13.45 g/m*3 21.1 C 12.9 km/h
2158 19-07-2021 11:45:00 21.3 C 13.61 g/m*3 21.3 C 11.3 km/h
2159 19-07-2021 11:50:00 21.3 C 13.42 g/m*3 21.3 C 8.1 km/h
2160 19-07-2021 11:55:00 21.3 C 13.61 g/m*3 21.3 C 6.4 km/h
2161 19-07-2021 12:00:00 21.3 C 13.42 g/m*3 21.3 C 9.7 km/h
2162 19-07-2021 12:05:00 21.3 C 13.42 g/m*3 21.3 C 14.5 km/h
2163 19-07-2021 12:10:00 21.3 C 13.42 g/m*3 21.3 C 11.3 km/h
2164 19-07-2021 12:15:00 21.3 C 13.23 g/m*3 21.3 C 11.3 km/h
2165 19-07-2021 12:20:00 21.4 C 13.69 g/m*3 21.4 C 9.7 km/h
2166 19-07-2021 12:25:00 21.5 C 13.39 g/m*3 21.5 C 12.9 km/h
2167 19-07-2021 12:30:00 21.6 C 13.47 g/m*3 21.6 C 4.8 km/h
2168 19-07-2021 12:35:00 21.6 C 13.47 g/m*3 21.6 C 9.7 km/h
2169 19-07-2021 12:40:00 21.7 C 13.54 g/m*3 21.7 C 11.3 km/h
2170 19-07-2021 12:45:00 21.7 C 13.54 g/m*3 21.7 C 8.1 km/h
2171 19-07-2021 12:50:00 21.7 C 13.54 g/m*3 21.7 C 9.7 km/h
2172 19-07-2021 12:55:00 21.7 C 13.35 g/m*3 21.7 C 11.3 km/h
2173 19-07-2021 13:00:00 21.8 C 13.43 g/m*3 21.8 C 9.7 km/h
2174 19-07-2021 13:05:00 21.9 C 13.7 g/m*3 21.9 C 9.7 km/h
2175 19-07-2021 13:10:00 22 C 13.59 g/m*3 22 C 9.7 km/h
Sensor: Nr:Datum:Temp:Abs-Feuchte:Windchill:Wind:
Aussen-T/F 2176 19-07-2021 13:15:00 22.1 C 13.47 g/m*3 22.1 C 6.4 km/h
2177 19-07-2021 13:20:00 22.1 C 13.47 g/m*3 22.1 C 8.1 km/h
2178 19-07-2021 13:25:00 22.2 C 13.35 g/m*3 22.2 C 9.7 km/h
2179 19-07-2021 13:30:00 22.2 C 13.35 g/m*3 22.2 C 6.4 km/h
2180 19-07-2021 13:35:00 22.2 C 13.35 g/m*3 22.2 C 12.9 km/h
2181 19-07-2021 13:40:00 22.2 C 13.35 g/m*3 22.2 C 11.3 km/h
2182 19-07-2021 13:45:00 22.2 C 13.35 g/m*3 22.2 C 8.1 km/h
2183 19-07-2021 13:50:00 22.3 C 13.43 g/m*3 22.3 C 4.8 km/h
2184 19-07-2021 13:55:00 22.4 C 13.5 g/m*3 22.4 C 3.2 km/h
2185 19-07-2021 14:00:00 22.6 C 13.66 g/m*3 22.6 C 12.9 km/h
2186 19-07-2021 14:05:00 22.6 C 13.46 g/m*3 22.6 C 12.9 km/h
2187 19-07-2021 14:10:00 22.5 C 13.58 g/m*3 22.5 C 8.1 km/h
2188 19-07-2021 14:15:00 22.5 C 13.38 g/m*3 22.5 C 12.9 km/h
2189 19-07-2021 14:20:00 22.6 C 14.06 g/m*3 22.6 C 9.7 km/h
2190 19-07-2021 14:25:00 22.7 C 13.33 g/m*3 22.7 C 11.3 km/h
2191 19-07-2021 14:30:00 22.7 C 13.74 g/m*3 22.7 C 12.9 km/h
2192 19-07-2021 14:35:00 22.7 C 13.33 g/m*3 22.7 C 11.3 km/h
2193 19-07-2021 14:40:00 22.7 C 13.33 g/m*3 22.7 C 14.5 km/h
2194 19-07-2021 14:45:00 22.7 C 13.54 g/m*3 22.7 C 12.9 km/h
2195 19-07-2021 14:50:00 22.9 C 13.9 g/m*3 22.9 C 11.3 km/h
2196 19-07-2021 14:55:00 23 C 13.36 g/m*3 23 C 14.5 km/h
2197 19-07-2021 15:00:00 22.8 C 13.21 g/m*3 22.8 C 14.5 km/h
2198 19-07-2021 15:05:00 22.8 C 13.82 g/m*3 22.8 C 11.3 km/h
2199 19-07-2021 15:10:00 23 C 13.57 g/m*3 23 C 12.9 km/h
2200 19-07-2021 15:15:00 23.1 C 13.44 g/m*3 23.1 C 12.9 km/h
Sensor: Nr:Datum:Temp:Abs-Feuchte:Windchill:Wind:
Aussen-T/F 2201 19-07-2021 15:20:00 23.1 C 13.64 g/m*3 23.1 C 12.9 km/h
2202 19-07-2021 15:25:00 23.2 C 13.72 g/m*3 23.2 C 14.5 km/h
2203 19-07-2021 15:30:00 23.3 C 13.59 g/m*3 23.3 C 14.5 km/h
2204 19-07-2021 15:35:00 23.4 C 13.67 g/m*3 23.4 C 12.9 km/h
2205 19-07-2021 15:40:00 23.6 C 13.61 g/m*3 23.6 C 12.9 km/h
2206 19-07-2021 15:45:00 24 C 14.14 g/m*3 24 C 11.3 km/h
2207 19-07-2021 15:50:00 24.2 C 13.42 g/m*3 24.2 C 14.5 km/h
2208 19-07-2021 15:55:00 24.2 C 13.42 g/m*3 24.2 C 17.7 km/h
2209 19-07-2021 16:00:00 24.3 C 13.28 g/m*3 24.3 C 12.9 km/h
2210 19-07-2021 16:05:00 24.4 C 13.8 g/m*3 24.4 C 12.9 km/h
2211 19-07-2021 16:10:00 24.4 C 13.35 g/m*3 24.4 C 14.5 km/h
2212 19-07-2021 16:15:00 24.6 C 13.73 g/m*3 24.6 C 11.3 km/h
2213 19-07-2021 16:20:00 24.6 C 13.5 g/m*3 24.6 C 12.9 km/h
2214 19-07-2021 16:25:00 24.5 C 13.2 g/m*3 24.5 C 14.5 km/h
2215 19-07-2021 16:30:00 24.4 C 12.91 g/m*3 24.4 C 11.3 km/h
2216 19-07-2021 16:35:00 24.3 C 13.5 g/m*3 24.3 C 6.4 km/h
2217 19-07-2021 16:40:00 24.3 C 13.28 g/m*3 24.3 C 16.1 km/h
2218 19-07-2021 16:45:00 24.1 C 13.13 g/m*3 24.1 C 14.5 km/h
2219 19-07-2021 16:50:00 24.1 C 13.13 g/m*3 24.1 C 9.7 km/h
2220 19-07-2021 16:55:00 24.1 C 13.35 g/m*3 24.1 C 11.3 km/h
2221 19-07-2021 17:00:00 23.8 C 12.91 g/m*3 23.8 C 16.1 km/h
2222 19-07-2021 17:05:00 23.5 C 13.11 g/m*3 23.5 C 14.5 km/h
2223 19-07-2021 17:10:00 23.4 C 13.46 g/m*3 23.4 C 12.9 km/h
2224 19-07-2021 17:15:00 23.3 C 13.38 g/m*3 23.3 C 11.3 km/h
2225 19-07-2021 17:20:00 23.2 C 13.1 g/m*3 23.2 C 14.5 km/h
Sensor: Nr:Datum:Temp:Abs-Feuchte:Windchill:Wind:
Aussen-T/F 2226 19-07-2021 17:25:00 23.3 C 13.38 g/m*3 23.3 C 9.7 km/h
2227 19-07-2021 17:30:00 23.4 C 13.25 g/m*3 23.4 C 11.3 km/h
2228 19-07-2021 17:35:00 23.5 C 13.32 g/m*3 23.5 C 16.1 km/h
2229 19-07-2021 17:40:00 23.3 C 13.17 g/m*3 23.3 C 14.5 km/h
2230 19-07-2021 17:45:00 23.4 C 13.04 g/m*3 23.4 C 11.3 km/h
2231 19-07-2021 17:50:00 23.5 C 13.11 g/m*3 23.5 C 12.9 km/h
2232 19-07-2021 17:55:00 23.6 C 13.19 g/m*3 23.6 C 16.1 km/h
2233 19-07-2021 18:00:00 23.7 C 13.26 g/m*3 23.7 C 16.1 km/h
2234 19-07-2021 18:05:00 23.7 C 13.05 g/m*3 23.7 C 12.9 km/h
2235 19-07-2021 18:10:00 23.4 C 12.83 g/m*3 23.4 C 17.7 km/h
2236 19-07-2021 18:15:00 23.1 C 13.02 g/m*3 23.1 C 12.9 km/h
2237 19-07-2021 18:20:00 22.9 C 12.88 g/m*3 22.9 C 17.7 km/h
2238 19-07-2021 18:25:00 22.6 C 12.86 g/m*3 22.6 C 14.5 km/h
2239 19-07-2021 18:30:00 22.6 C 13.06 g/m*3 22.6 C 11.3 km/h
2240 19-07-2021 18:35:00 22.7 C 13.13 g/m*3 22.7 C 12.9 km/h
2241 19-07-2021 18:40:00 22.8 C 13 g/m*3 22.8 C 11.3 km/h
2242 19-07-2021 18:45:00 22.7 C 12.73 g/m*3 22.7 C 17.7 km/h
2243 19-07-2021 18:50:00 22.2 C 12.76 g/m*3 22.2 C 11.3 km/h
2244 19-07-2021 18:55:00 22 C 12.81 g/m*3 22 C 11.3 km/h
2245 19-07-2021 19:00:00 21.9 C 12.74 g/m*3 21.9 C 12.9 km/h
2246 19-07-2021 19:05:00 21.8 C 12.47 g/m*3 21.8 C 11.3 km/h
2247 19-07-2021 19:10:00 21.7 C 12.59 g/m*3 21.7 C 14.5 km/h
2248 19-07-2021 19:15:00 21.7 C 12.59 g/m*3 21.7 C 6.4 km/h
2249 19-07-2021 19:20:00 21.7 C 12.78 g/m*3 21.7 C 12.9 km/h
2250 19-07-2021 19:25:00 21.6 C 12.52 g/m*3 21.6 C 12.9 km/h
Sensor: Nr:Datum:Temp:Abs-Feuchte:Windchill:Wind:
Aussen-T/F 2251 19-07-2021 19:30:00 21.6 C 12.71 g/m*3 21.6 C 8.1 km/h
2252 19-07-2021 19:35:00 21.5 C 12.45 g/m*3 21.5 C 9.7 km/h
2253 19-07-2021 19:40:00 21.4 C 12.37 g/m*3 21.4 C 9.7 km/h
2254 19-07-2021 19:45:00 21.4 C 12.37 g/m*3 21.4 C 9.7 km/h
2255 19-07-2021 19:50:00 21.3 C 12.3 g/m*3 21.3 C 8.1 km/h
2256 19-07-2021 19:55:00 21.3 C 12.12 g/m*3 21.3 C 8.1 km/h
2257 19-07-2021 20:00:00 21.2 C 12.05 g/m*3 21.2 C 8.1 km/h
2258 19-07-2021 20:05:00 21.1 C 12.16 g/m*3 21.1 C 4.8 km/h
2259 19-07-2021 20:10:00 21 C 11.91 g/m*3 21 C 4.8 km/h
2260 19-07-2021 20:15:00 20.9 C 12.02 g/m*3 20.9 C 6.4 km/h
2261 19-07-2021 20:20:00 20.9 C 12.38 g/m*3 20.9 C 1.6 km/h
2262 19-07-2021 20:25:00 20.8 C 12.13 g/m*3 20.8 C 4.8 km/h
2263 19-07-2021 20:30:00 20.7 C 12.24 g/m*3 20.7 C 0 km/h
2264 19-07-2021 20:35:00 20.7 C 12.24 g/m*3 20.7 C 0 km/h
2265 19-07-2021 20:40:00 20.6 C 12.17 g/m*3 20.6 C 4.8 km/h
2266 19-07-2021 20:45:00 20.4 C 12.03 g/m*3 20.4 C 6.4 km/h
2267 19-07-2021 20:50:00 20.4 C 12.21 g/m*3 20.4 C 0 km/h
2268 19-07-2021 20:55:00 20.3 C 12.14 g/m*3 20.3 C 0 km/h
2269 19-07-2021 21:00:00 20.2 C 12.76 g/m*3 20.2 C 0 km/h
2270 19-07-2021 21:05:00 20.1 C 12.69 g/m*3 20.1 C 0 km/h
2271 19-07-2021 21:10:00 19.8 C 12.47 g/m*3 19.8 C 1.6 km/h
2272 19-07-2021 21:15:00 19.6 C 12.83 g/m*3 19.6 C 0 km/h
2273 19-07-2021 21:20:00 19.2 C 12.53 g/m*3 19.2 C 0 km/h
2274 19-07-2021 21:25:00 18.8 C 12.56 g/m*3 18.8 C 0 km/h
2275 19-07-2021 21:30:00 18.4 C 12.27 g/m*3 18.4 C 3.2 km/h
Sensor: Nr:Datum:Temp:Abs-Feuchte:Windchill:Wind:
Aussen-T/F 2276 19-07-2021 21:35:00 18 C 12.29 g/m*3 18 C 0 km/h
2277 19-07-2021 21:40:00 17.7 C 12.07 g/m*3 17.7 C 0 km/h
2278 19-07-2021 21:45:00 17.5 C 12.08 g/m*3 17.5 C 0 km/h
2279 19-07-2021 21:50:00 17.3 C 12.08 g/m*3 17.3 C 0 km/h
2280 19-07-2021 21:55:00 17.1 C 12.08 g/m*3 17.1 C 3.2 km/h
2281 19-07-2021 22:00:00 16.9 C 11.94 g/m*3 16.9 C 4.8 km/h
2282 19-07-2021 22:05:00 16.8 C 12.01 g/m*3 16.8 C 4.8 km/h
2283 19-07-2021 22:10:00 16.7 C 12.08 g/m*3 16.7 C 4.8 km/h
2284 19-07-2021 22:15:00 16.7 C 12.08 g/m*3 16.7 C 3.2 km/h
2285 19-07-2021 22:20:00 16.6 C 12.01 g/m*3 16.6 C 0 km/h
2286 19-07-2021 22:25:00 16.4 C 12 g/m*3 16.4 C 0 km/h
2287 19-07-2021 22:30:00 16.3 C 11.93 g/m*3 16.3 C 0 km/h
2288 19-07-2021 22:35:00 16.3 C 11.93 g/m*3 16.3 C 1.6 km/h
2289 19-07-2021 22:40:00 16.2 C 12 g/m*3 16.2 C 4.8 km/h
2290 19-07-2021 22:45:00 16.1 C 11.93 g/m*3 16.1 C 3.2 km/h
2291 19-07-2021 22:50:00 16.1 C 12.06 g/m*3 16.1 C 1.6 km/h
2292 19-07-2021 22:55:00 16 C 11.99 g/m*3 16 C 3.2 km/h
2293 19-07-2021 23:00:00 15.9 C 11.92 g/m*3 15.9 C 0 km/h
2294 19-07-2021 23:05:00 15.8 C 11.85 g/m*3 15.8 C 0 km/h
2295 19-07-2021 23:10:00 15.7 C 11.91 g/m*3 15.7 C 0 km/h
2296 19-07-2021 23:15:00 15.6 C 11.84 g/m*3 15.6 C 3.2 km/h
2297 19-07-2021 23:20:00 15.6 C 11.84 g/m*3 15.6 C 1.6 km/h
2298 19-07-2021 23:25:00 15.4 C 11.69 g/m*3 15.4 C 0 km/h
2299 19-07-2021 23:30:00 15.3 C 11.62 g/m*3 15.3 C 0 km/h
2300 19-07-2021 23:35:00 15.3 C 11.62 g/m*3 15.3 C 0 km/h
Sensor: Nr:Datum:Temp:Abs-Feuchte:Windchill:Wind:
Aussen-T/F 2301 19-07-2021 23:40:00 15.2 C 11.68 g/m*3 15.2 C 0 km/h
2302 19-07-2021 23:45:00 15.1 C 11.61 g/m*3 15.1 C 0 km/h
2303 19-07-2021 23:50:00 14.9 C 11.47 g/m*3 14.9 C 0 km/h
2304 19-07-2021 23:55:00 14.8 C 11.4 g/m*3 14.8 C 0 km/h
2305 20-07-2021 00:00:00 14.7 C 11.46 g/m*3 14.7 C 0 km/h
2306 20-07-2021 00:05:00 14.7 C 11.46 g/m*3 14.7 C 0 km/h
2307 20-07-2021 00:10:00 14.6 C 11.39 g/m*3 14.6 C 0 km/h
2308 20-07-2021 00:15:00 14.5 C 11.32 g/m*3 14.5 C 0 km/h
2309 20-07-2021 00:20:00 14.4 C 11.25 g/m*3 14.4 C 0 km/h
2310 20-07-2021 00:25:00 14.3 C 11.18 g/m*3 14.3 C 0 km/h
2311 20-07-2021 00:30:00 14.3 C 11.3 g/m*3 14.3 C 0 km/h
2312 20-07-2021 00:35:00 14.2 C 11.23 g/m*3 14.2 C 0 km/h
2313 20-07-2021 00:40:00 14.1 C 11.17 g/m*3 14.1 C 0 km/h
2314 20-07-2021 00:45:00 14.1 C 11.17 g/m*3 14.1 C 0 km/h
2315 20-07-2021 00:50:00 14 C 11.1 g/m*3 14 C 0 km/h
2316 20-07-2021 00:55:00 13.9 C 11.03 g/m*3 13.9 C 0 km/h
2317 20-07-2021 01:00:00 13.9 C 11.15 g/m*3 13.9 C 0 km/h
2318 20-07-2021 01:05:00 13.8 C 11.08 g/m*3 13.8 C 0 km/h
2319 20-07-2021 01:10:00 13.8 C 11.08 g/m*3 13.8 C 0 km/h
2320 20-07-2021 01:15:00 13.7 C 11.01 g/m*3 13.7 C 0 km/h
2321 20-07-2021 01:20:00 13.7 C 11.01 g/m*3 13.7 C 0 km/h
2322 20-07-2021 01:25:00 13.6 C 10.95 g/m*3 13.6 C 0 km/h
2323 20-07-2021 01:30:00 13.6 C 10.95 g/m*3 13.6 C 0 km/h
2324 20-07-2021 01:35:00 13.5 C 10.88 g/m*3 13.5 C 0 km/h
2325 20-07-2021 01:40:00 13.4 C 10.81 g/m*3 13.4 C 0 km/h
Sensor: Nr:Datum:Temp:Abs-Feuchte:Windchill:Wind:
Aussen-T/F 2326 20-07-2021 01:45:00 13.4 C 10.93 g/m*3 13.4 C 0 km/h
2327 20-07-2021 01:50:00 13.4 C 10.93 g/m*3 13.4 C 0 km/h
2328 20-07-2021 01:55:00 13.4 C 10.93 g/m*3 13.4 C 0 km/h
2329 20-07-2021 02:00:00 13.3 C 10.86 g/m*3 13.3 C 0 km/h
2330 20-07-2021 02:05:00 13.3 C 10.86 g/m*3 13.3 C 0 km/h
2331 20-07-2021 02:10:00 13.2 C 10.79 g/m*3 13.2 C 0 km/h
2332 20-07-2021 02:15:00 13.2 C 10.79 g/m*3 13.2 C 0 km/h
2333 20-07-2021 02:20:00 13.2 C 10.79 g/m*3 13.2 C 0 km/h
2334 20-07-2021 02:25:00 13.2 C 10.79 g/m*3 13.2 C 0 km/h
2335 20-07-2021 02:30:00 13.1 C 10.73 g/m*3 13.1 C 0 km/h
2336 20-07-2021 02:35:00 13.1 C 10.73 g/m*3 13.1 C 0 km/h
2337 20-07-2021 02:40:00 13.1 C 10.73 g/m*3 13.1 C 0 km/h
2338 20-07-2021 02:45:00 13.1 C 10.73 g/m*3 13.1 C 0 km/h
2339 20-07-2021 02:50:00 13 C 10.66 g/m*3 13 C 0 km/h
2340 20-07-2021 02:55:00 13 C 10.77 g/m*3 13 C 0 km/h
2341 20-07-2021 03:00:00 12.9 C 10.71 g/m*3 12.9 C 0 km/h
2342 20-07-2021 03:05:00 12.9 C 10.71 g/m*3 12.9 C 0 km/h
2343 20-07-2021 03:10:00 12.8 C 10.64 g/m*3 12.8 C 0 km/h
2344 20-07-2021 03:15:00 12.8 C 10.64 g/m*3 12.8 C 0 km/h
2345 20-07-2021 03:20:00 12.7 C 10.46 g/m*3 12.7 C 0 km/h
2346 20-07-2021 03:25:00 12.7 C 10.58 g/m*3 12.7 C 0 km/h
2347 20-07-2021 03:30:00 12.6 C 10.51 g/m*3 12.6 C 0 km/h
2348 20-07-2021 03:35:00 12.6 C 10.51 g/m*3 12.6 C 0 km/h
2349 20-07-2021 03:40:00 12.6 C 10.51 g/m*3 12.6 C 0 km/h
2350 20-07-2021 03:45:00 12.6 C 10.51 g/m*3 12.6 C 0 km/h
Sensor: Nr:Datum:Temp:Abs-Feuchte:Windchill:Wind:
Aussen-T/F 2351 20-07-2021 03:50:00 12.5 C 10.44 g/m*3 12.5 C 0 km/h
2352 20-07-2021 03:55:00 12.4 C 10.38 g/m*3 12.4 C 0 km/h
2353 20-07-2021 04:00:00 12.4 C 10.38 g/m*3 12.4 C 0 km/h
2354 20-07-2021 04:05:00 12.4 C 10.38 g/m*3 12.4 C 0 km/h
2355 20-07-2021 04:10:00 12.4 C 10.38 g/m*3 12.4 C 0 km/h
2356 20-07-2021 04:15:00 12.3 C 10.32 g/m*3 12.3 C 0 km/h
2357 20-07-2021 04:20:00 12.3 C 10.32 g/m*3 12.3 C 0 km/h
2358 20-07-2021 04:25:00 12.2 C 10.25 g/m*3 12.2 C 0 km/h
2359 20-07-2021 04:30:00 12.2 C 10.25 g/m*3 12.2 C 0 km/h
2360 20-07-2021 04:35:00 12.2 C 10.25 g/m*3 12.2 C 0 km/h
2361 20-07-2021 04:40:00 12.2 C 10.25 g/m*3 12.2 C 0 km/h
2362 20-07-2021 04:45:00 12.2 C 10.25 g/m*3 12.2 C 0 km/h
2363 20-07-2021 04:50:00 12.1 C 10.19 g/m*3 12.1 C 0 km/h
2364 20-07-2021 04:55:00 12.1 C 10.19 g/m*3 12.1 C 0 km/h
2365 20-07-2021 05:00:00 12 C 10.12 g/m*3 12 C 0 km/h
2366 20-07-2021 05:05:00 11.9 C 10.06 g/m*3 11.9 C 0 km/h
2367 20-07-2021 05:10:00 11.9 C 10.06 g/m*3 11.9 C 0 km/h
2368 20-07-2021 05:15:00 11.9 C 10.06 g/m*3 11.9 C 0 km/h
2369 20-07-2021 05:20:00 11.9 C 10.06 g/m*3 11.9 C 0 km/h
2370 20-07-2021 05:25:00 11.8 C 10 g/m*3 11.8 C 0 km/h
2371 20-07-2021 05:30:00 11.8 C 10 g/m*3 11.8 C 0 km/h
2372 20-07-2021 05:35:00 11.8 C 10 g/m*3 11.8 C 0 km/h
2373 20-07-2021 05:40:00 11.8 C 10 g/m*3 11.8 C 0 km/h
2374 20-07-2021 05:45:00 11.8 C 10 g/m*3 11.8 C 0 km/h
2375 20-07-2021 05:50:00 11.7 C 9.94 g/m*3 11.7 C 0 km/h
Sensor: Nr:Datum:Temp:Abs-Feuchte:Windchill:Wind:
Aussen-T/F 2376 20-07-2021 05:55:00 11.7 C 10.04 g/m*3 11.7 C 0 km/h
2377 20-07-2021 06:00:00 11.7 C 10.04 g/m*3 11.7 C 0 km/h
2378 20-07-2021 06:05:00 11.7 C 10.04 g/m*3 11.7 C 0 km/h
2379 20-07-2021 06:10:00 11.7 C 10.04 g/m*3 11.7 C 0 km/h
2380 20-07-2021 06:15:00 11.7 C 10.04 g/m*3 11.7 C 0 km/h
2381 20-07-2021 06:20:00 11.6 C 9.98 g/m*3 11.6 C 0 km/h
2382 20-07-2021 06:25:00 11.6 C 9.98 g/m*3 11.6 C 0 km/h
2383 20-07-2021 06:30:00 11.7 C 10.04 g/m*3 11.7 C 0 km/h
2384 20-07-2021 06:35:00 11.7 C 10.04 g/m*3 11.7 C 0 km/h
2385 20-07-2021 06:40:00 11.8 C 10.1 g/m*3 11.8 C 0 km/h
2386 20-07-2021 06:45:00 11.9 C 10.17 g/m*3 11.9 C 0 km/h
2387 20-07-2021 06:50:00 12.1 C 10.29 g/m*3 12.1 C 1.6 km/h
2388 20-07-2021 06:55:00 12.1 C 10.29 g/m*3 12.1 C 1.6 km/h
2389 20-07-2021 07:00:00 12.2 C 10.36 g/m*3 12.2 C 3.2 km/h
2390 20-07-2021 07:05:00 12.2 C 10.36 g/m*3 12.2 C 1.6 km/h
2391 20-07-2021 07:10:00 12.2 C 10.36 g/m*3 12.2 C 0 km/h
2392 20-07-2021 07:15:00 12.2 C 10.36 g/m*3 12.2 C 0 km/h
2393 20-07-2021 07:20:00 12.2 C 10.36 g/m*3 12.2 C 0 km/h
2394 20-07-2021 07:25:00 12.3 C 10.42 g/m*3 12.3 C 1.6 km/h
2395 20-07-2021 07:30:00 12.3 C 10.42 g/m*3 12.3 C 0 km/h
2396 20-07-2021 07:35:00 12.3 C 10.42 g/m*3 12.3 C 3.2 km/h
2397 20-07-2021 07:40:00 12.4 C 10.6 g/m*3 12.4 C 4.8 km/h
2398 20-07-2021 07:45:00 12.4 C 10.6 g/m*3 12.4 C 1.6 km/h
2399 20-07-2021 07:50:00 12.5 C 10.66 g/m*3 12.5 C 1.6 km/h
2400 20-07-2021 07:55:00 12.6 C 10.73 g/m*3 12.6 C 0 km/h
Sensor: Nr:Datum:Temp:Abs-Feuchte:Windchill:Wind:
Aussen-T/F 2401 20-07-2021 08:00:00 12.7 C 10.8 g/m*3 12.7 C 1.6 km/h
2402 20-07-2021 08:05:00 12.7 C 10.8 g/m*3 12.7 C 1.6 km/h
2403 20-07-2021 08:10:00 12.7 C 10.8 g/m*3 12.7 C 1.6 km/h
2404 20-07-2021 08:15:00 12.8 C 10.87 g/m*3 12.8 C 1.6 km/h
2405 20-07-2021 08:20:00 12.8 C 10.87 g/m*3 12.8 C 0 km/h
2406 20-07-2021 08:25:00 12.9 C 10.93 g/m*3 12.9 C 1.6 km/h
2407 20-07-2021 08:30:00 12.9 C 10.93 g/m*3 12.9 C 1.6 km/h
2408 20-07-2021 08:35:00 13.1 C 11.07 g/m*3 13.1 C 0 km/h
2409 20-07-2021 08:40:00 13.2 C 11.14 g/m*3 13.2 C 0 km/h
2410 20-07-2021 08:45:00 13.3 C 11.21 g/m*3 13.3 C 0 km/h
2411 20-07-2021 08:50:00 13.4 C 11.28 g/m*3 13.4 C 0 km/h
2412 20-07-2021 08:55:00 13.5 C 11.35 g/m*3 13.5 C 1.6 km/h
2413 20-07-2021 09:00:00 13.6 C 11.42 g/m*3 13.6 C 0 km/h
2414 20-07-2021 09:05:00 13.6 C 11.42 g/m*3 13.6 C 0 km/h
2415 20-07-2021 09:10:00 13.6 C 11.42 g/m*3 13.6 C 0 km/h
2416 20-07-2021 09:15:00 13.7 C 11.49 g/m*3 13.7 C 1.6 km/h
2417 20-07-2021 09:20:00 13.8 C 11.56 g/m*3 13.8 C 3.2 km/h
2418 20-07-2021 09:25:00 13.9 C 11.63 g/m*3 13.9 C 4.8 km/h
2419 20-07-2021 09:30:00 14.1 C 11.77 g/m*3 14.1 C 0 km/h
2420 20-07-2021 09:35:00 14.2 C 11.84 g/m*3 14.2 C 0 km/h
2421 20-07-2021 09:40:00 14.4 C 11.87 g/m*3 14.4 C 0 km/h
2422 20-07-2021 09:45:00 14.6 C 12.01 g/m*3 14.6 C 3.2 km/h
2423 20-07-2021 09:50:00 14.7 C 12.09 g/m*3 14.7 C 1.6 km/h
2424 20-07-2021 09:55:00 14.8 C 12.16 g/m*3 14.8 C 0 km/h
2425 20-07-2021 10:00:00 14.9 C 12.11 g/m*3 14.9 C 3.2 km/h
Sensor: Nr:Datum:Temp:Abs-Feuchte:Windchill:Wind:
Aussen-T/F 2426 20-07-2021 10:05:00 15.1 C 12.39 g/m*3 15.1 C 4.8 km/h
2427 20-07-2021 10:10:00 15.3 C 12.41 g/m*3 15.3 C 3.2 km/h
2428 20-07-2021 10:15:00 15.4 C 12.35 g/m*3 15.4 C 1.6 km/h
2429 20-07-2021 10:20:00 15.6 C 12.5 g/m*3 15.6 C 6.4 km/h
2430 20-07-2021 10:25:00 15.8 C 12.65 g/m*3 15.8 C 0 km/h
2431 20-07-2021 10:30:00 16.1 C 12.75 g/m*3 16.1 C 6.4 km/h
2432 20-07-2021 10:35:00 16.3 C 12.76 g/m*3 16.3 C 1.6 km/h
2433 20-07-2021 10:40:00 16.7 C 13.07 g/m*3 16.7 C 0 km/h
2434 20-07-2021 10:45:00 16.9 C 12.94 g/m*3 16.9 C 1.6 km/h
2435 20-07-2021 10:50:00 17.1 C 12.81 g/m*3 17.1 C 1.6 km/h
2436 20-07-2021 10:55:00 17.3 C 12.96 g/m*3 17.3 C 1.6 km/h
2437 20-07-2021 11:00:00 17.5 C 12.82 g/m*3 17.5 C 4.8 km/h
2438 20-07-2021 11:05:00 17.7 C 12.67 g/m*3 17.7 C 4.8 km/h
2439 20-07-2021 11:10:00 17.9 C 12.67 g/m*3 17.9 C 0 km/h
2440 20-07-2021 11:15:00 18.1 C 12.05 g/m*3 18.1 C 3.2 km/h
2441 20-07-2021 11:20:00 18.3 C 11.88 g/m*3 18.3 C 1.6 km/h
2442 20-07-2021 11:25:00 18.6 C 11.62 g/m*3 18.6 C 4.8 km/h
2443 20-07-2021 11:30:00 18.8 C 11.92 g/m*3 18.8 C 3.2 km/h
2444 20-07-2021 11:35:00 19.1 C 11.8 g/m*3 19.1 C 6.4 km/h
2445 20-07-2021 11:40:00 19.2 C 11.71 g/m*3 19.2 C 6.4 km/h
2446 20-07-2021 11:45:00 19.3 C 11.94 g/m*3 19.3 C 6.4 km/h
2447 20-07-2021 11:50:00 19.4 C 11.68 g/m*3 19.4 C 8.1 km/h
2448 20-07-2021 11:55:00 19.5 C 11.58 g/m*3 19.5 C 8.1 km/h
2449 20-07-2021 12:00:00 19.6 C 11.82 g/m*3 19.6 C 6.4 km/h
2450 20-07-2021 12:05:00 19.7 C 11.89 g/m*3 19.7 C 9.7 km/h
Sensor: Nr:Datum:Temp:Abs-Feuchte:Windchill:Wind:
Aussen-T/F 2451 20-07-2021 12:10:00 19.8 C 12.13 g/m*3 19.8 C 9.7 km/h
2452 20-07-2021 12:15:00 20 C 12.1 g/m*3 20 C 6.4 km/h
2453 20-07-2021 12:20:00 20.1 C 11.99 g/m*3 20.1 C 6.4 km/h
2454 20-07-2021 12:25:00 20.2 C 11.89 g/m*3 20.2 C 9.7 km/h
2455 20-07-2021 12:30:00 20.2 C 11.71 g/m*3 20.2 C 9.7 km/h
2456 20-07-2021 12:35:00 20.2 C 11.89 g/m*3 20.2 C 6.4 km/h
2457 20-07-2021 12:40:00 20.2 C 11.71 g/m*3 20.2 C 8.1 km/h
2458 20-07-2021 12:45:00 20.2 C 11.89 g/m*3 20.2 C 6.4 km/h
2459 20-07-2021 12:50:00 20.2 C 12.06 g/m*3 20.2 C 4.8 km/h
2460 20-07-2021 12:55:00 20.2 C 11.71 g/m*3 20.2 C 8.1 km/h
2461 20-07-2021 13:00:00 20.3 C 11.78 g/m*3 20.3 C 11.3 km/h
2462 20-07-2021 13:05:00 20.4 C 11.85 g/m*3 20.4 C 0 km/h
2463 20-07-2021 13:10:00 20.4 C 11.85 g/m*3 20.4 C 3.2 km/h
2464 20-07-2021 13:15:00 20.5 C 11.74 g/m*3 20.5 C 4.8 km/h
2465 20-07-2021 13:20:00 20.6 C 11.99 g/m*3 20.6 C 4.8 km/h
2466 20-07-2021 13:25:00 20.7 C 11.88 g/m*3 20.7 C 3.2 km/h
2467 20-07-2021 13:30:00 20.8 C 12.49 g/m*3 20.8 C 0 km/h
2468 20-07-2021 13:35:00 20.8 C 11.77 g/m*3 20.8 C 6.4 km/h
2469 20-07-2021 13:40:00 20.8 C 12.31 g/m*3 20.8 C 3.2 km/h
2470 20-07-2021 13:45:00 20.9 C 11.84 g/m*3 20.9 C 4.8 km/h
2471 20-07-2021 13:50:00 20.9 C 11.66 g/m*3 20.9 C 8.1 km/h
2472 20-07-2021 13:55:00 20.9 C 11.29 g/m*3 20.9 C 6.4 km/h
2473 20-07-2021 14:00:00 21.1 C 11.79 g/m*3 21.1 C 4.8 km/h
2474 20-07-2021 14:05:00 21.3 C 11.37 g/m*3 21.3 C 9.7 km/h
2475 20-07-2021 14:10:00 21.5 C 11.5 g/m*3 21.5 C 11.3 km/h
Sensor: Nr:Datum:Temp:Abs-Feuchte:Windchill:Wind:
Aussen-T/F 2476 20-07-2021 14:15:00 21.7 C 11.64 g/m*3 21.7 C 14.5 km/h
2477 20-07-2021 14:20:00 21.7 C 11.45 g/m*3 21.7 C 9.7 km/h
2478 20-07-2021 14:25:00 21.7 C 11.64 g/m*3 21.7 C 4.8 km/h
2479 20-07-2021 14:30:00 21.8 C 11.51 g/m*3 21.8 C 0 km/h
2480 20-07-2021 14:35:00 21.8 C 11.32 g/m*3 21.8 C 3.2 km/h
2481 20-07-2021 14:40:00 21.9 C 11.58 g/m*3 21.9 C 9.7 km/h
2482 20-07-2021 14:45:00 22.1 C 11.91 g/m*3 22.1 C 11.3 km/h
2483 20-07-2021 14:50:00 22.2 C 11.58 g/m*3 22.2 C 6.4 km/h
2484 20-07-2021 14:55:00 22.3 C 11.85 g/m*3 22.3 C 8.1 km/h
2485 20-07-2021 15:00:00 22.4 C 11.52 g/m*3 22.4 C 6.4 km/h
2486 20-07-2021 15:05:00 22.5 C 11.58 g/m*3 22.5 C 6.4 km/h
2487 20-07-2021 15:10:00 22.6 C 12.05 g/m*3 22.6 C 9.7 km/h
2488 20-07-2021 15:15:00 22.7 C 12.32 g/m*3 22.7 C 4.8 km/h
2489 20-07-2021 15:20:00 22.8 C 11.99 g/m*3 22.8 C 9.7 km/h
2490 20-07-2021 15:25:00 22.9 C 11.65 g/m*3 22.9 C 11.3 km/h
2491 20-07-2021 15:30:00 22.9 C 11.65 g/m*3 22.9 C 9.7 km/h
2492 20-07-2021 15:35:00 22.9 C 11.65 g/m*3 22.9 C 11.3 km/h
2493 20-07-2021 15:40:00 23.2 C 11.85 g/m*3 23.2 C 6.4 km/h
2494 20-07-2021 15:45:00 23.7 C 12.62 g/m*3 23.7 C 6.4 km/h
2495 20-07-2021 15:50:00 24.3 C 11.95 g/m*3 24.3 C 14.5 km/h
2496 20-07-2021 15:55:00 24.6 C 12.15 g/m*3 24.6 C 9.7 km/h
2497 20-07-2021 16:00:00 24.8 C 12.52 g/m*3 24.8 C 4.8 km/h
2498 20-07-2021 16:05:00 25 C 11.74 g/m*3 25 C 9.7 km/h
2499 20-07-2021 16:10:00 25.1 C 12.27 g/m*3 25.1 C 9.7 km/h
2500 20-07-2021 16:15:00 25.2 C 12.11 g/m*3 25.2 C 8.1 km/h
Sensor: Nr:Datum:Temp:Abs-Feuchte:Windchill:Wind:
Aussen-T/F 2501 20-07-2021 16:20:00 25.3 C 11.94 g/m*3 25.3 C 8.1 km/h
2502 20-07-2021 16:25:00 25.4 C 11.77 g/m*3 25.4 C 8.1 km/h
2503 20-07-2021 16:30:00 25.6 C 11.9 g/m*3 25.6 C 8.1 km/h
2504 20-07-2021 16:35:00 25.5 C 11.84 g/m*3 25.5 C 9.7 km/h
2505 20-07-2021 16:40:00 25.7 C 12.21 g/m*3 25.7 C 3.2 km/h
2506 20-07-2021 16:45:00 25.7 C 11.73 g/m*3 25.7 C 8.1 km/h
2507 20-07-2021 16:50:00 25.7 C 11.97 g/m*3 25.7 C 4.8 km/h
2508 20-07-2021 16:55:00 25.7 C 11.49 g/m*3 25.7 C 14.5 km/h
2509 20-07-2021 17:00:00 25.6 C 11.9 g/m*3 25.6 C 6.4 km/h
2510 20-07-2021 17:05:00 25.6 C 11.67 g/m*3 25.6 C 9.7 km/h
2511 20-07-2021 17:10:00 25.6 C 12.14 g/m*3 25.6 C 8.1 km/h
2512 20-07-2021 17:15:00 25.6 C 11.9 g/m*3 25.6 C 9.7 km/h
2513 20-07-2021 17:20:00 25.7 C 11.97 g/m*3 25.7 C 8.1 km/h
2514 20-07-2021 17:25:00 25.9 C 11.86 g/m*3 25.9 C 8.1 km/h
2515 20-07-2021 17:30:00 25.9 C 12.1 g/m*3 25.9 C 9.7 km/h
2516 20-07-2021 17:35:00 26 C 11.93 g/m*3 26 C 8.1 km/h
2517 20-07-2021 17:40:00 26.1 C 11.51 g/m*3 26.1 C 8.1 km/h
2518 20-07-2021 17:45:00 26.2 C 11.57 g/m*3 26.2 C 8.1 km/h
2519 20-07-2021 17:50:00 26.1 C 11.51 g/m*3 26.1 C 8.1 km/h
2520 20-07-2021 17:55:00 25.8 C 11.56 g/m*3 25.8 C 9.7 km/h
2521 20-07-2021 18:00:00 25.7 C 11.97 g/m*3 25.7 C 11.3 km/h
2522 20-07-2021 18:05:00 25.7 C 11.49 g/m*3 25.7 C 9.7 km/h
2523 20-07-2021 18:10:00 25.6 C 11.43 g/m*3 25.6 C 9.7 km/h
2524 20-07-2021 18:15:00 25.6 C 10.95 g/m*3 25.6 C 6.4 km/h
2525 20-07-2021 18:20:00 25.6 C 11.43 g/m*3 25.6 C 8.1 km/h
Sensor: Nr:Datum:Temp:Abs-Feuchte:Windchill:Wind:
Aussen-T/F 2526 20-07-2021 18:25:00 25.7 C 11.49 g/m*3 25.7 C 11.3 km/h
2527 20-07-2021 18:30:00 25.7 C 11.49 g/m*3 25.7 C 8.1 km/h
2528 20-07-2021 18:35:00 25.6 C 11.67 g/m*3 25.6 C 6.4 km/h
2529 20-07-2021 18:40:00 25.7 C 11.73 g/m*3 25.7 C 8.1 km/h
2530 20-07-2021 18:45:00 25.6 C 11.67 g/m*3 25.6 C 8.1 km/h
2531 20-07-2021 18:50:00 25.3 C 11.47 g/m*3 25.3 C 11.3 km/h
2532 20-07-2021 18:55:00 25.2 C 11.41 g/m*3 25.2 C 11.3 km/h
2533 20-07-2021 19:00:00 25 C 11.28 g/m*3 25 C 9.7 km/h
2534 20-07-2021 19:05:00 24.8 C 11.38 g/m*3 24.8 C 6.4 km/h
2535 20-07-2021 19:10:00 24.7 C 11.77 g/m*3 24.7 C 6.4 km/h
2536 20-07-2021 19:15:00 24.6 C 11.7 g/m*3 24.6 C 6.4 km/h
2537 20-07-2021 19:20:00 24.5 C 11.64 g/m*3 24.5 C 6.4 km/h
2538 20-07-2021 19:25:00 24.3 C 11.51 g/m*3 24.3 C 6.4 km/h
2539 20-07-2021 19:30:00 24.2 C 11.44 g/m*3 24.2 C 6.4 km/h
2540 20-07-2021 19:35:00 24.1 C 11.16 g/m*3 24.1 C 8.1 km/h
2541 20-07-2021 19:40:00 23.9 C 11.25 g/m*3 23.9 C 4.8 km/h
2542 20-07-2021 19:45:00 23.9 C 11.68 g/m*3 23.9 C 4.8 km/h
2543 20-07-2021 19:50:00 23.8 C 11.62 g/m*3 23.8 C 6.4 km/h
2544 20-07-2021 19:55:00 23.7 C 11.34 g/m*3 23.7 C 9.7 km/h
2545 20-07-2021 20:00:00 23.6 C 11.48 g/m*3 23.6 C 8.1 km/h
2546 20-07-2021 20:05:00 23.5 C 11.42 g/m*3 23.5 C 4.8 km/h
2547 20-07-2021 20:10:00 23.4 C 11.78 g/m*3 23.4 C 6.4 km/h
2548 20-07-2021 20:15:00 23.3 C 11.5 g/m*3 23.3 C 3.2 km/h
2549 20-07-2021 20:20:00 23.2 C 11.23 g/m*3 23.2 C 6.4 km/h
2550 20-07-2021 20:25:00 23.1 C 11.58 g/m*3 23.1 C 1.6 km/h
Sensor: Nr:Datum:Temp:Abs-Feuchte:Windchill:Wind:
Aussen-T/F 2551 20-07-2021 20:30:00 22.9 C 11.65 g/m*3 22.9 C 4.8 km/h
2552 20-07-2021 20:35:00 22.8 C 11.79 g/m*3 22.8 C 1.6 km/h
2553 20-07-2021 20:40:00 22.7 C 11.72 g/m*3 22.7 C 3.2 km/h
2554 20-07-2021 20:45:00 22.6 C 13.06 g/m*3 22.6 C 1.6 km/h
2555 20-07-2021 20:50:00 22.3 C 13.03 g/m*3 22.3 C 0 km/h
2556 20-07-2021 20:55:00 22.1 C 13.08 g/m*3 22.1 C 0 km/h
2557 20-07-2021 21:00:00 21.5 C 12.82 g/m*3 21.5 C 0 km/h
2558 20-07-2021 21:05:00 21 C 12.82 g/m*3 21 C 0 km/h
2559 20-07-2021 21:10:00 20.4 C 12.74 g/m*3 20.4 C 0 km/h
2560 20-07-2021 21:15:00 19.9 C 12.89 g/m*3 19.9 C 0 km/h
2561 20-07-2021 21:20:00 19.4 C 12.68 g/m*3 19.4 C 0 km/h
2562 20-07-2021 21:25:00 19.1 C 12.46 g/m*3 19.1 C 6.4 km/h
2563 20-07-2021 21:30:00 18.8 C 12.24 g/m*3 18.8 C 8.1 km/h
2564 20-07-2021 21:35:00 18.5 C 12.18 g/m*3 18.5 C 8.1 km/h
2565 20-07-2021 21:40:00 18.3 C 12.04 g/m*3 18.3 C 8.1 km/h
2566 20-07-2021 21:45:00 18.2 C 11.97 g/m*3 18.2 C 6.4 km/h
2567 20-07-2021 21:50:00 18 C 12.13 g/m*3 18 C 6.4 km/h
2568 20-07-2021 21:55:00 17.8 C 11.99 g/m*3 17.8 C 8.1 km/h
2569 20-07-2021 22:00:00 17.7 C 11.92 g/m*3 17.7 C 6.4 km/h
2570 20-07-2021 22:05:00 17.6 C 12 g/m*3 17.6 C 6.4 km/h
2571 20-07-2021 22:10:00 17.4 C 11.86 g/m*3 17.4 C 8.1 km/h
2572 20-07-2021 22:15:00 17.3 C 11.79 g/m*3 17.3 C 8.1 km/h
2573 20-07-2021 22:20:00 17.3 C 11.79 g/m*3 17.3 C 8.1 km/h
2574 20-07-2021 22:25:00 17.2 C 11.72 g/m*3 17.2 C 6.4 km/h
2575 20-07-2021 22:30:00 17.1 C 11.79 g/m*3 17.1 C 6.4 km/h
Sensor: Nr:Datum:Temp:Abs-Feuchte:Windchill:Wind:
Aussen-T/F 2576 20-07-2021 22:35:00 17 C 11.72 g/m*3 17 C 6.4 km/h
2577 20-07-2021 22:40:00 16.9 C 11.65 g/m*3 16.9 C 6.4 km/h
2578 20-07-2021 22:45:00 16.8 C 11.72 g/m*3 16.8 C 4.8 km/h
2579 20-07-2021 22:50:00 16.7 C 11.51 g/m*3 16.7 C 6.4 km/h
2580 20-07-2021 22:55:00 16.7 C 11.65 g/m*3 16.7 C 6.4 km/h
2581 20-07-2021 23:00:00 16.6 C 11.72 g/m*3 16.6 C 3.2 km/h
2582 20-07-2021 23:05:00 16.5 C 11.51 g/m*3 16.5 C 4.8 km/h
2583 20-07-2021 23:10:00 16.4 C 11.45 g/m*3 16.4 C 0 km/h
2584 20-07-2021 23:15:00 16.3 C 11.52 g/m*3 16.3 C 0 km/h
2585 20-07-2021 23:20:00 16.2 C 11.58 g/m*3 16.2 C 0 km/h
2586 20-07-2021 23:25:00 16.1 C 11.51 g/m*3 16.1 C 0 km/h
2587 20-07-2021 23:30:00 16 C 11.44 g/m*3 16 C 0 km/h
2588 20-07-2021 23:35:00 15.9 C 11.51 g/m*3 15.9 C 3.2 km/h
2589 20-07-2021 23:40:00 15.8 C 11.44 g/m*3 15.8 C 3.2 km/h
2590 20-07-2021 23:45:00 15.8 C 11.44 g/m*3 15.8 C 0 km/h
2591 20-07-2021 23:50:00 15.7 C 11.51 g/m*3 15.7 C 0 km/h
2592 20-07-2021 23:55:00 15.6 C 11.44 g/m*3 15.6 C 0 km/h
2593 21-07-2021 00:00:00 15.6 C 11.44 g/m*3 15.6 C 0 km/h
2594 21-07-2021 00:05:00 15.5 C 11.37 g/m*3 15.5 C 0 km/h
2595 21-07-2021 00:10:00 15.4 C 11.3 g/m*3 15.4 C 0 km/h
2596 21-07-2021 00:15:00 15.3 C 11.23 g/m*3 15.3 C 0 km/h
2597 21-07-2021 00:20:00 15.2 C 11.29 g/m*3 15.2 C 0 km/h
2598 21-07-2021 00:25:00 15 C 11.16 g/m*3 15 C 0 km/h
2599 21-07-2021 00:30:00 14.9 C 11.09 g/m*3 14.9 C 0 km/h
2600 21-07-2021 00:35:00 14.7 C 11.08 g/m*3 14.7 C 0 km/h
Sensor: Nr:Datum:Temp:Abs-Feuchte:Windchill:Wind:
Aussen-T/F 2601 21-07-2021 00:40:00 14.6 C 11.01 g/m*3 14.6 C 0 km/h
2602 21-07-2021 00:45:00 14.6 C 11.01 g/m*3 14.6 C 0 km/h
2603 21-07-2021 00:50:00 14.4 C 11 g/m*3 14.4 C 0 km/h
2604 21-07-2021 00:55:00 14.3 C 10.93 g/m*3 14.3 C 0 km/h
2605 21-07-2021 01:00:00 14.2 C 10.87 g/m*3 14.2 C 0 km/h
2606 21-07-2021 01:05:00 14.2 C 10.87 g/m*3 14.2 C 0 km/h
2607 21-07-2021 01:10:00 14.1 C 10.8 g/m*3 14.1 C 0 km/h
2608 21-07-2021 01:15:00 13.9 C 10.79 g/m*3 13.9 C 0 km/h
2609 21-07-2021 01:20:00 13.8 C 10.72 g/m*3 13.8 C 0 km/h
2610 21-07-2021 01:25:00 13.7 C 10.66 g/m*3 13.7 C 0 km/h
2611 21-07-2021 01:30:00 13.7 C 10.66 g/m*3 13.7 C 0 km/h
2612 21-07-2021 01:35:00 13.6 C 10.59 g/m*3 13.6 C 0 km/h
2613 21-07-2021 01:40:00 13.5 C 10.53 g/m*3 13.5 C 0 km/h
2614 21-07-2021 01:45:00 13.4 C 10.46 g/m*3 13.4 C 0 km/h
2615 21-07-2021 01:50:00 13.3 C 10.4 g/m*3 13.3 C 0 km/h
2616 21-07-2021 01:55:00 13.3 C 10.4 g/m*3 13.3 C 1.6 km/h
2617 21-07-2021 02:00:00 13.2 C 10.33 g/m*3 13.2 C 0 km/h
2618 21-07-2021 02:05:00 13.2 C 10.45 g/m*3 13.2 C 0 km/h
2619 21-07-2021 02:10:00 13.2 C 10.33 g/m*3 13.2 C 0 km/h
2620 21-07-2021 02:15:00 13.1 C 10.27 g/m*3 13.1 C 0 km/h
2621 21-07-2021 02:20:00 13 C 10.21 g/m*3 13 C 0 km/h
2622 21-07-2021 02:25:00 12.9 C 10.26 g/m*3 12.9 C 0 km/h
2623 21-07-2021 02:30:00 12.9 C 10.26 g/m*3 12.9 C 1.6 km/h
2624 21-07-2021 02:35:00 12.8 C 10.19 g/m*3 12.8 C 0 km/h
2625 21-07-2021 02:40:00 12.8 C 10.19 g/m*3 12.8 C 1.6 km/h
Sensor: Nr:Datum:Temp:Abs-Feuchte:Windchill:Wind:
Aussen-T/F 2626 21-07-2021 02:45:00 12.8 C 10.19 g/m*3 12.8 C 0 km/h
2627 21-07-2021 02:50:00 12.7 C 10.13 g/m*3 12.7 C 0 km/h
2628 21-07-2021 02:55:00 12.7 C 10.13 g/m*3 12.7 C 0 km/h
2629 21-07-2021 03:00:00 12.6 C 10.07 g/m*3 12.6 C 0 km/h
2630 21-07-2021 03:05:00 12.6 C 10.07 g/m*3 12.6 C 0 km/h
2631 21-07-2021 03:10:00 12.5 C 10 g/m*3 12.5 C 1.6 km/h
2632 21-07-2021 03:15:00 12.5 C 10.11 g/m*3 12.5 C 0 km/h
2633 21-07-2021 03:20:00 12.4 C 10.05 g/m*3 12.4 C 0 km/h
2634 21-07-2021 03:25:00 12.4 C 10.05 g/m*3 12.4 C 1.6 km/h
2635 21-07-2021 03:30:00 12.3 C 9.99 g/m*3 12.3 C 0 km/h
2636 21-07-2021 03:35:00 12.3 C 9.99 g/m*3 12.3 C 0 km/h
2637 21-07-2021 03:40:00 12.2 C 9.93 g/m*3 12.2 C 0 km/h
2638 21-07-2021 03:45:00 12.2 C 9.93 g/m*3 12.2 C 0 km/h
2639 21-07-2021 03:50:00 12.1 C 9.87 g/m*3 12.1 C 0 km/h
2640 21-07-2021 03:55:00 12.1 C 9.87 g/m*3 12.1 C 0 km/h
2641 21-07-2021 04:00:00 12 C 9.8 g/m*3 12 C 0 km/h
2642 21-07-2021 04:05:00 11.9 C 9.74 g/m*3 11.9 C 0 km/h
2643 21-07-2021 04:10:00 11.9 C 9.85 g/m*3 11.9 C 0 km/h
2644 21-07-2021 04:15:00 11.8 C 9.79 g/m*3 11.8 C 0 km/h
2645 21-07-2021 04:20:00 11.8 C 9.79 g/m*3 11.8 C 0 km/h
2646 21-07-2021 04:25:00 11.8 C 9.79 g/m*3 11.8 C 0 km/h
2647 21-07-2021 04:30:00 11.7 C 9.73 g/m*3 11.7 C 0 km/h
2648 21-07-2021 04:35:00 11.7 C 9.73 g/m*3 11.7 C 0 km/h
2649 21-07-2021 04:40:00 11.6 C 9.67 g/m*3 11.6 C 0 km/h
2650 21-07-2021 04:45:00 11.6 C 9.67 g/m*3 11.6 C 0 km/h
Sensor: Nr:Datum:Temp:Abs-Feuchte:Windchill:Wind:
Aussen-T/F 2651 21-07-2021 04:50:00 11.5 C 9.71 g/m*3 11.5 C 0 km/h
2652 21-07-2021 04:55:00 11.5 C 9.71 g/m*3 11.5 C 0 km/h
2653 21-07-2021 05:00:00 11.5 C 9.71 g/m*3 11.5 C 0 km/h
2654 21-07-2021 05:05:00 11.4 C 9.55 g/m*3 11.4 C 0 km/h
2655 21-07-2021 05:10:00 11.4 C 9.65 g/m*3 11.4 C 0 km/h
2656 21-07-2021 05:15:00 11.3 C 9.59 g/m*3 11.3 C 0 km/h
2657 21-07-2021 05:20:00 11.3 C 9.59 g/m*3 11.3 C 0 km/h
2658 21-07-2021 05:25:00 11.2 C 9.53 g/m*3 11.2 C 0 km/h
2659 21-07-2021 05:30:00 11.2 C 9.53 g/m*3 11.2 C 0 km/h
2660 21-07-2021 05:35:00 11.2 C 9.53 g/m*3 11.2 C 0 km/h
2661 21-07-2021 05:40:00 11.1 C 9.47 g/m*3 11.1 C 0 km/h
2662 21-07-2021 05:45:00 11 C 9.41 g/m*3 11 C 0 km/h
2663 21-07-2021 05:50:00 10.9 C 9.35 g/m*3 10.9 C 0 km/h
2664 21-07-2021 05:55:00 10.9 C 9.35 g/m*3 10.9 C 0 km/h
2665 21-07-2021 06:00:00 10.9 C 9.35 g/m*3 10.9 C 0 km/h
2666 21-07-2021 06:05:00 10.9 C 9.35 g/m*3 10.9 C 0 km/h
2667 21-07-2021 06:10:00 10.8 C 9.29 g/m*3 10.8 C 0 km/h
2668 21-07-2021 06:15:00 10.9 C 9.35 g/m*3 10.9 C 0 km/h
2669 21-07-2021 06:20:00 10.9 C 9.35 g/m*3 10.9 C 0 km/h
2670 21-07-2021 06:25:00 10.9 C 9.45 g/m*3 10.9 C 0 km/h
2671 21-07-2021 06:30:00 10.9 C 9.45 g/m*3 10.9 C 0 km/h
2672 21-07-2021 06:35:00 10.9 C 9.45 g/m*3 10.9 C 0 km/h
2673 21-07-2021 06:40:00 11 C 9.51 g/m*3 11 C 0 km/h
2674 21-07-2021 06:45:00 11.1 C 9.57 g/m*3 11.1 C 0 km/h
2675 21-07-2021 06:50:00 11.1 C 9.57 g/m*3 11.1 C 0 km/h
Sensor: Nr:Datum:Temp:Abs-Feuchte:Windchill:Wind:
Aussen-T/F 2676 21-07-2021 06:55:00 11.2 C 9.63 g/m*3 11.2 C 0 km/h
2677 21-07-2021 07:00:00 11.2 C 9.63 g/m*3 11.2 C 0 km/h
2678 21-07-2021 07:05:00 11.3 C 9.69 g/m*3 11.3 C 0 km/h
2679 21-07-2021 07:10:00 11.3 C 9.69 g/m*3 11.3 C 0 km/h
2680 21-07-2021 07:15:00 11.4 C 9.75 g/m*3 11.4 C 0 km/h
2681 21-07-2021 07:20:00 11.4 C 9.75 g/m*3 11.4 C 0 km/h
2682 21-07-2021 07:25:00 11.6 C 9.98 g/m*3 11.6 C 0 km/h
2683 21-07-2021 07:30:00 11.6 C 9.98 g/m*3 11.6 C 0 km/h
2684 21-07-2021 07:35:00 11.7 C 10.04 g/m*3 11.7 C 0 km/h
2685 21-07-2021 07:40:00 11.8 C 10.1 g/m*3 11.8 C 0 km/h
2686 21-07-2021 07:45:00 11.9 C 10.17 g/m*3 11.9 C 0 km/h
2687 21-07-2021 07:50:00 11.9 C 10.17 g/m*3 11.9 C 0 km/h
2688 21-07-2021 07:55:00 12.1 C 10.29 g/m*3 12.1 C 0 km/h
2689 21-07-2021 08:00:00 12.1 C 10.29 g/m*3 12.1 C 0 km/h
2690 21-07-2021 08:05:00 12.2 C 10.36 g/m*3 12.2 C 0 km/h
2691 21-07-2021 08:10:00 12.3 C 10.42 g/m*3 12.3 C 0 km/h
2692 21-07-2021 08:15:00 12.4 C 10.49 g/m*3 12.4 C 0 km/h
2693 21-07-2021 08:20:00 12.5 C 10.55 g/m*3 12.5 C 0 km/h
2694 21-07-2021 08:25:00 12.6 C 10.62 g/m*3 12.6 C 0 km/h
2695 21-07-2021 08:30:00 12.7 C 10.69 g/m*3 12.7 C 0 km/h
2696 21-07-2021 08:35:00 12.7 C 10.69 g/m*3 12.7 C 0 km/h
2697 21-07-2021 08:40:00 12.8 C 10.75 g/m*3 12.8 C 0 km/h
2698 21-07-2021 08:45:00 12.9 C 10.82 g/m*3 12.9 C 0 km/h
2699 21-07-2021 08:50:00 13 C 10.89 g/m*3 13 C 0 km/h
2700 21-07-2021 08:55:00 13.1 C 10.95 g/m*3 13.1 C 0 km/h
Sensor: Nr:Datum:Temp:Abs-Feuchte:Windchill:Wind:
Aussen-T/F 2701 21-07-2021 09:00:00 13.2 C 11.02 g/m*3 13.2 C 0 km/h
2702 21-07-2021 09:05:00 13.2 C 11.02 g/m*3 13.2 C 0 km/h
2703 21-07-2021 09:10:00 13.3 C 11.09 g/m*3 13.3 C 0 km/h
2704 21-07-2021 09:15:00 13.4 C 11.16 g/m*3 13.4 C 0 km/h
2705 21-07-2021 09:20:00 13.6 C 11.3 g/m*3 13.6 C 0 km/h
2706 21-07-2021 09:25:00 13.7 C 11.37 g/m*3 13.7 C 0 km/h
2707 21-07-2021 09:30:00 13.8 C 11.44 g/m*3 13.8 C 1.6 km/h
2708 21-07-2021 09:35:00 14 C 11.58 g/m*3 14 C 0 km/h
2709 21-07-2021 09:40:00 14.2 C 11.72 g/m*3 14.2 C 0 km/h
2710 21-07-2021 09:45:00 14.3 C 11.79 g/m*3 14.3 C 0 km/h
2711 21-07-2021 09:50:00 14.4 C 11.87 g/m*3 14.4 C 0 km/h
2712 21-07-2021 09:55:00 14.6 C 12.01 g/m*3 14.6 C 0 km/h
2713 21-07-2021 10:00:00 14.7 C 12.09 g/m*3 14.7 C 1.6 km/h
2714 21-07-2021 10:05:00 14.7 C 11.96 g/m*3 14.7 C 0 km/h
2715 21-07-2021 10:10:00 14.8 C 12.03 g/m*3 14.8 C 0 km/h
2716 21-07-2021 10:15:00 15 C 12.18 g/m*3 15 C 1.6 km/h
2717 21-07-2021 10:20:00 15.2 C 12.33 g/m*3 15.2 C 1.6 km/h
2718 21-07-2021 10:25:00 15.4 C 12.35 g/m*3 15.4 C 1.6 km/h
2719 21-07-2021 10:30:00 15.7 C 12.44 g/m*3 15.7 C 1.6 km/h
2720 21-07-2021 10:35:00 16.1 C 12.2 g/m*3 16.1 C 6.4 km/h
2721 21-07-2021 10:40:00 16.6 C 12.15 g/m*3 16.6 C 1.6 km/h
2722 21-07-2021 10:45:00 17.1 C 12.37 g/m*3 17.1 C 1.6 km/h
2723 21-07-2021 10:50:00 17.6 C 12.75 g/m*3 17.6 C 1.6 km/h
2724 21-07-2021 10:55:00 17.8 C 12.29 g/m*3 17.8 C 4.8 km/h
2725 21-07-2021 11:00:00 18.1 C 12.21 g/m*3 18.1 C 1.6 km/h
Sensor: Nr:Datum:Temp:Abs-Feuchte:Windchill:Wind:
Aussen-T/F 2726 21-07-2021 11:05:00 18.3 C 12.04 g/m*3 18.3 C 0 km/h
2727 21-07-2021 11:10:00 18.4 C 12.11 g/m*3 18.4 C 0 km/h
2728 21-07-2021 11:15:00 18.7 C 11.53 g/m*3 18.7 C 6.4 km/h
2729 21-07-2021 11:20:00 19.2 C 11.54 g/m*3 19.2 C 8.1 km/h
2730 21-07-2021 11:25:00 19.5 C 11.41 g/m*3 19.5 C 8.1 km/h
2731 21-07-2021 11:30:00 19.8 C 11.61 g/m*3 19.8 C 8.1 km/h
2732 21-07-2021 11:35:00 19.9 C 11.34 g/m*3 19.9 C 9.7 km/h
2733 21-07-2021 11:40:00 20.1 C 11.13 g/m*3 20.1 C 9.7 km/h
2734 21-07-2021 11:45:00 20.2 C 12.24 g/m*3 20.2 C 1.6 km/h
2735 21-07-2021 11:50:00 20.2 C 11.19 g/m*3 20.2 C 6.4 km/h
2736 21-07-2021 11:55:00 20.4 C 10.97 g/m*3 20.4 C 8.1 km/h
2737 21-07-2021 12:00:00 20.7 C 10.8 g/m*3 20.7 C 12.9 km/h
2738 21-07-2021 12:05:00 20.8 C 10.68 g/m*3 20.8 C 9.7 km/h
2739 21-07-2021 12:10:00 20.9 C 10.75 g/m*3 20.9 C 9.7 km/h
2740 21-07-2021 12:15:00 20.9 C 10.56 g/m*3 20.9 C 8.1 km/h
2741 21-07-2021 12:20:00 20.9 C 10.75 g/m*3 20.9 C 11.3 km/h
2742 21-07-2021 12:25:00 20.9 C 10.38 g/m*3 20.9 C 9.7 km/h
2743 21-07-2021 12:30:00 21.1 C 10.69 g/m*3 21.1 C 12.9 km/h
2744 21-07-2021 12:35:00 21.2 C 10.56 g/m*3 21.2 C 11.3 km/h
2745 21-07-2021 12:40:00 21.4 C 10.5 g/m*3 21.4 C 11.3 km/h
2746 21-07-2021 12:45:00 21.4 C 10.5 g/m*3 21.4 C 8.1 km/h
2747 21-07-2021 12:50:00 21.4 C 10.31 g/m*3 21.4 C 8.1 km/h
2748 21-07-2021 12:55:00 21.4 C 10.5 g/m*3 21.4 C 8.1 km/h
2749 21-07-2021 13:00:00 21.5 C 10.56 g/m*3 21.5 C 8.1 km/h
2750 21-07-2021 13:05:00 21.6 C 10.62 g/m*3 21.6 C 9.7 km/h
Sensor: Nr:Datum:Temp:Abs-Feuchte:Windchill:Wind:
Aussen-T/F 2751 21-07-2021 13:10:00 21.7 C 10.87 g/m*3 21.7 C 0 km/h
2752 21-07-2021 13:15:00 21.8 C 10.94 g/m*3 21.8 C 8.1 km/h
2753 21-07-2021 13:20:00 21.9 C 10.81 g/m*3 21.9 C 9.7 km/h
2754 21-07-2021 13:25:00 21.9 C 10.61 g/m*3 21.9 C 0 km/h
2755 21-07-2021 13:30:00 21.8 C 10.94 g/m*3 21.8 C 4.8 km/h
2756 21-07-2021 13:35:00 21.9 C 10.81 g/m*3 21.9 C 8.1 km/h
2757 21-07-2021 13:40:00 22.1 C 10.93 g/m*3 22.1 C 8.1 km/h
2758 21-07-2021 13:45:00 22.1 C 10.93 g/m*3 22.1 C 6.4 km/h
2759 21-07-2021 13:50:00 22.1 C 11.32 g/m*3 22.1 C 6.4 km/h
2760 21-07-2021 13:55:00 22.1 C 10.93 g/m*3 22.1 C 3.2 km/h
2761 21-07-2021 14:00:00 22.1 C 10.54 g/m*3 22.1 C 4.8 km/h
2762 21-07-2021 14:05:00 22.2 C 10.8 g/m*3 22.2 C 3.2 km/h
2763 21-07-2021 14:10:00 22.2 C 11.39 g/m*3 22.2 C 4.8 km/h
2764 21-07-2021 14:15:00 22.4 C 11.12 g/m*3 22.4 C 8.1 km/h
2765 21-07-2021 14:20:00 22.6 C 11.05 g/m*3 22.6 C 8.1 km/h
2766 21-07-2021 14:25:00 22.6 C 11.65 g/m*3 22.6 C 4.8 km/h
2767 21-07-2021 14:30:00 22.6 C 10.85 g/m*3 22.6 C 12.9 km/h
2768 21-07-2021 14:35:00 22.8 C 10.57 g/m*3 22.8 C 9.7 km/h
2769 21-07-2021 14:40:00 22.8 C 10.97 g/m*3 22.8 C 8.1 km/h
2770 21-07-2021 14:45:00 22.9 C 11.04 g/m*3 22.9 C 6.4 km/h
2771 21-07-2021 14:50:00 23.1 C 10.96 g/m*3 23.1 C 12.9 km/h
2772 21-07-2021 14:55:00 23.2 C 11.02 g/m*3 23.2 C 8.1 km/h
2773 21-07-2021 15:00:00 23.2 C 10.81 g/m*3 23.2 C 0 km/h
2774 21-07-2021 15:05:00 23.2 C 11.02 g/m*3 23.2 C 8.1 km/h
2775 21-07-2021 15:10:00 23.4 C 10.72 g/m*3 23.4 C 4.8 km/h
Sensor: Nr:Datum:Temp:Abs-Feuchte:Windchill:Wind:
Aussen-T/F 2776 21-07-2021 15:15:00 23.6 C 11.06 g/m*3 23.6 C 4.8 km/h
2777 21-07-2021 15:20:00 23.8 C 10.76 g/m*3 23.8 C 6.4 km/h
2778 21-07-2021 15:25:00 24 C 10.88 g/m*3 24 C 6.4 km/h
2779 21-07-2021 15:30:00 24.2 C 11 g/m*3 24.2 C 6.4 km/h
2780 21-07-2021 15:35:00 24.3 C 10.62 g/m*3 24.3 C 4.8 km/h
2781 21-07-2021 15:40:00 24.4 C 10.9 g/m*3 24.4 C 6.4 km/h
2782 21-07-2021 15:45:00 24.8 C 11.38 g/m*3 24.8 C 3.2 km/h
2783 21-07-2021 15:50:00 25.3 C 11 g/m*3 25.3 C 8.1 km/h
2784 21-07-2021 15:55:00 25.8 C 12.04 g/m*3 25.8 C 8.1 km/h
2785 21-07-2021 16:00:00 26.3 C 10.89 g/m*3 26.3 C 9.7 km/h
2786 21-07-2021 16:05:00 26.5 C 11.51 g/m*3 26.5 C 3.2 km/h
2787 21-07-2021 16:10:00 26.7 C 10.63 g/m*3 26.7 C 6.4 km/h
2788 21-07-2021 16:15:00 26.8 C 10.69 g/m*3 26.8 C 4.8 km/h
2789 21-07-2021 16:20:00 26.6 C 11.33 g/m*3 26.6 C 9.7 km/h
2790 21-07-2021 16:25:00 26.5 C 11.77 g/m*3 26.5 C 6.4 km/h
2791 21-07-2021 16:30:00 26.7 C 11.39 g/m*3 26.7 C 9.7 km/h
2792 21-07-2021 16:35:00 26.7 C 10.63 g/m*3 26.7 C 11.3 km/h
2793 21-07-2021 16:40:00 26.6 C 10.82 g/m*3 26.6 C 9.7 km/h
2794 21-07-2021 16:45:00 26.6 C 11.33 g/m*3 26.6 C 8.1 km/h
2795 21-07-2021 16:50:00 26.8 C 11.2 g/m*3 26.8 C 3.2 km/h
2796 21-07-2021 16:55:00 27.3 C 11.77 g/m*3 27.3 C 0 km/h
2797 21-07-2021 17:00:00 27.4 C 11.31 g/m*3 27.4 C 9.7 km/h
2798 21-07-2021 17:05:00 27.2 C 10.93 g/m*3 27.2 C 9.7 km/h
2799 21-07-2021 17:10:00 27.2 C 11.19 g/m*3 27.2 C 9.7 km/h
2800 21-07-2021 17:15:00 27.2 C 10.93 g/m*3 27.2 C 3.2 km/h
Sensor: Nr:Datum:Temp:Abs-Feuchte:Windchill:Wind:
Aussen-T/F 2801 21-07-2021 17:20:00 27.2 C 11.19 g/m*3 27.2 C 6.4 km/h
2802 21-07-2021 17:25:00 27.1 C 10.61 g/m*3 27.1 C 6.4 km/h
2803 21-07-2021 17:30:00 27.1 C 11.13 g/m*3 27.1 C 6.4 km/h
2804 21-07-2021 17:35:00 27 C 10.29 g/m*3 27 C 8.1 km/h
2805 21-07-2021 17:40:00 27.2 C 11.19 g/m*3 27.2 C 4.8 km/h
2806 21-07-2021 17:45:00 27.2 C 10.67 g/m*3 27.2 C 6.4 km/h
2807 21-07-2021 17:50:00 27 C 11.32 g/m*3 27 C 6.4 km/h
2808 21-07-2021 17:55:00 27.2 C 11.45 g/m*3 27.2 C 3.2 km/h
2809 21-07-2021 18:00:00 27.4 C 11.05 g/m*3 27.4 C 3.2 km/h
2810 21-07-2021 18:05:00 27.4 C 10.52 g/m*3 27.4 C 3.2 km/h
2811 21-07-2021 18:10:00 27.6 C 11.44 g/m*3 27.6 C 1.6 km/h
2812 21-07-2021 18:15:00 27.8 C 13.72 g/m*3 27.8 C 0 km/h
2813 21-07-2021 18:20:00 28.1 C 11.48 g/m*3 28.1 C 4.8 km/h
2814 21-07-2021 18:25:00 28.1 C 11.48 g/m*3 28.1 C 6.4 km/h
2815 21-07-2021 18:30:00 27.9 C 11.36 g/m*3 27.9 C 4.8 km/h
2816 21-07-2021 18:35:00 27.8 C 11.03 g/m*3 27.8 C 9.7 km/h
2817 21-07-2021 18:40:00 27.4 C 10.79 g/m*3 27.4 C 6.4 km/h
2818 21-07-2021 18:45:00 27.1 C 10.61 g/m*3 27.1 C 8.1 km/h
2819 21-07-2021 18:50:00 27 C 11.07 g/m*3 27 C 3.2 km/h
2820 21-07-2021 18:55:00 27 C 11.07 g/m*3 27 C 4.8 km/h
2821 21-07-2021 19:00:00 27 C 11.32 g/m*3 27 C 6.4 km/h
2822 21-07-2021 19:05:00 26.8 C 10.69 g/m*3 26.8 C 3.2 km/h
2823 21-07-2021 19:10:00 26.7 C 12.4 g/m*3 26.7 C 1.6 km/h
2824 21-07-2021 19:15:00 26.5 C 11.26 g/m*3 26.5 C 8.1 km/h
2825 21-07-2021 19:20:00 26.2 C 11.08 g/m*3 26.2 C 6.4 km/h
Sensor: Nr:Datum:Temp:Abs-Feuchte:Windchill:Wind:
Aussen-T/F 2826 21-07-2021 19:25:00 25.9 C 10.89 g/m*3 25.9 C 6.4 km/h
2827 21-07-2021 19:30:00 25.8 C 11.07 g/m*3 25.8 C 6.4 km/h
2828 21-07-2021 19:35:00 25.7 C 13.41 g/m*3 25.7 C 3.2 km/h
2829 21-07-2021 19:40:00 25.5 C 14.2 g/m*3 25.5 C 0 km/h
2830 21-07-2021 19:45:00 25.1 C 14.58 g/m*3 25.1 C 1.6 km/h
2831 21-07-2021 19:50:00 24.4 C 14.02 g/m*3 24.4 C 0 km/h
2832 21-07-2021 19:55:00 23.8 C 13.77 g/m*3 23.8 C 3.2 km/h
2833 21-07-2021 20:00:00 23.4 C 13.88 g/m*3 23.4 C 3.2 km/h
2834 21-07-2021 20:05:00 23.2 C 13.72 g/m*3 23.2 C 3.2 km/h
2835 21-07-2021 20:10:00 22.9 C 13.69 g/m*3 22.9 C 3.2 km/h
2836 21-07-2021 20:15:00 22.7 C 13.54 g/m*3 22.7 C 3.2 km/h
2837 21-07-2021 20:20:00 22.3 C 13.43 g/m*3 22.3 C 3.2 km/h
2838 21-07-2021 20:25:00 22.2 C 13.55 g/m*3 22.2 C 0 km/h
2839 21-07-2021 20:30:00 21.9 C 13.31 g/m*3 21.9 C 3.2 km/h
2840 21-07-2021 20:35:00 21.8 C 13.43 g/m*3 21.8 C 4.8 km/h
2841 21-07-2021 20:40:00 21.7 C 13.16 g/m*3 21.7 C 4.8 km/h
2842 21-07-2021 20:45:00 21.4 C 13.12 g/m*3 21.4 C 6.4 km/h
2843 21-07-2021 20:50:00 21.2 C 13.16 g/m*3 21.2 C 6.4 km/h
2844 21-07-2021 20:55:00 20.9 C 13.11 g/m*3 20.9 C 4.8 km/h
2845 21-07-2021 21:00:00 20.7 C 13.32 g/m*3 20.7 C 0 km/h
2846 21-07-2021 21:05:00 20.4 C 13.09 g/m*3 20.4 C 3.2 km/h
2847 21-07-2021 21:10:00 20.1 C 13.04 g/m*3 20.1 C 4.8 km/h
2848 21-07-2021 21:15:00 19.8 C 12.81 g/m*3 19.8 C 3.2 km/h
2849 21-07-2021 21:20:00 19.6 C 12.66 g/m*3 19.6 C 6.4 km/h
2850 21-07-2021 21:25:00 19.4 C 12.51 g/m*3 19.4 C 6.4 km/h
Sensor: Nr:Datum:Temp:Abs-Feuchte:Windchill:Wind:
Aussen-T/F 2851 21-07-2021 21:30:00 19.3 C 12.44 g/m*3 19.3 C 6.4 km/h
2852 21-07-2021 21:35:00 19.1 C 12.46 g/m*3 19.1 C 6.4 km/h
2853 21-07-2021 21:40:00 18.9 C 12.15 g/m*3 18.9 C 4.8 km/h
2854 21-07-2021 21:45:00 18.8 C 12.24 g/m*3 18.8 C 6.4 km/h
2855 21-07-2021 21:50:00 18.7 C 12.17 g/m*3 18.7 C 8.1 km/h
2856 21-07-2021 21:55:00 18.6 C 12.1 g/m*3 18.6 C 6.4 km/h
2857 21-07-2021 22:00:00 18.5 C 12.02 g/m*3 18.5 C 4.8 km/h
2858 21-07-2021 22:05:00 18.4 C 12.11 g/m*3 18.4 C 4.8 km/h
2859 21-07-2021 22:10:00 18.3 C 12.2 g/m*3 18.3 C 6.4 km/h
2860 21-07-2021 22:15:00 18.2 C 12.12 g/m*3 18.2 C 6.4 km/h
2861 21-07-2021 22:20:00 18.1 C 12.21 g/m*3 18.1 C 4.8 km/h
2862 21-07-2021 22:25:00 17.9 C 12.06 g/m*3 17.9 C 4.8 km/h
2863 21-07-2021 22:30:00 17.8 C 11.99 g/m*3 17.8 C 0 km/h
2864 21-07-2021 22:35:00 17.7 C 12.22 g/m*3 17.7 C 0 km/h
2865 21-07-2021 22:40:00 17.5 C 11.93 g/m*3 17.5 C 6.4 km/h
2866 21-07-2021 22:45:00 17.4 C 12 g/m*3 17.4 C 6.4 km/h
2867 21-07-2021 22:50:00 17.3 C 11.79 g/m*3 17.3 C 6.4 km/h
2868 21-07-2021 22:55:00 17.3 C 11.93 g/m*3 17.3 C 6.4 km/h
2869 21-07-2021 23:00:00 17.2 C 11.72 g/m*3 17.2 C 8.1 km/h
2870 21-07-2021 23:05:00 17.2 C 11.72 g/m*3 17.2 C 6.4 km/h
2871 21-07-2021 23:10:00 17.3 C 11.93 g/m*3 17.3 C 0 km/h
2872 21-07-2021 23:15:00 17.3 C 11.93 g/m*3 17.3 C 3.2 km/h
2873 21-07-2021 23:20:00 17.3 C 11.93 g/m*3 17.3 C 0 km/h
2874 21-07-2021 23:25:00 17.2 C 12.01 g/m*3 17.2 C 0 km/h
2875 21-07-2021 23:30:00 17.1 C 11.94 g/m*3 17.1 C 0 km/h
Sensor: Nr:Datum:Temp:Abs-Feuchte:Windchill:Wind:
Aussen-T/F 2876 21-07-2021 23:35:00 17 C 12.01 g/m*3 17 C 0 km/h
2877 21-07-2021 23:40:00 16.8 C 11.87 g/m*3 16.8 C 0 km/h
2878 21-07-2021 23:45:00 16.7 C 11.94 g/m*3 16.7 C 0 km/h
2879 21-07-2021 23:50:00 16.6 C 11.87 g/m*3 16.6 C 0 km/h
2880 21-07-2021 23:55:00 16.4 C 11.86 g/m*3 16.4 C 0 km/h
2881 22-07-2021 00:00:00 16.3 C 11.79 g/m*3 16.3 C 0 km/h
2882 22-07-2021 00:05:00 16.2 C 11.72 g/m*3 16.2 C 0 km/h
2883 22-07-2021 00:10:00 16.1 C 11.79 g/m*3 16.1 C 0 km/h
2884 22-07-2021 00:15:00 15.9 C 11.65 g/m*3 15.9 C 0 km/h
2885 22-07-2021 00:20:00 15.8 C 11.71 g/m*3 15.8 C 0 km/h
2886 22-07-2021 00:25:00 15.8 C 11.71 g/m*3 15.8 C 0 km/h
2887 22-07-2021 00:30:00 15.7 C 11.64 g/m*3 15.7 C 0 km/h
2888 22-07-2021 00:35:00 15.6 C 11.7 g/m*3 15.6 C 0 km/h
2889 22-07-2021 00:40:00 15.4 C 11.56 g/m*3 15.4 C 0 km/h
2890 22-07-2021 00:45:00 15.3 C 11.49 g/m*3 15.3 C 0 km/h
2891 22-07-2021 00:50:00 15.2 C 11.42 g/m*3 15.2 C 0 km/h
2892 22-07-2021 00:55:00 15.1 C 11.35 g/m*3 15.1 C 0 km/h
2893 22-07-2021 01:00:00 15 C 11.41 g/m*3 15 C 0 km/h
2894 22-07-2021 01:05:00 14.9 C 11.34 g/m*3 14.9 C 0 km/h
2895 22-07-2021 01:10:00 14.8 C 11.27 g/m*3 14.8 C 0 km/h
2896 22-07-2021 01:15:00 14.7 C 11.33 g/m*3 14.7 C 0 km/h
2897 22-07-2021 01:20:00 14.7 C 11.33 g/m*3 14.7 C 0 km/h
2898 22-07-2021 01:25:00 14.6 C 11.26 g/m*3 14.6 C 0 km/h
2899 22-07-2021 01:30:00 14.5 C 11.19 g/m*3 14.5 C 0 km/h
2900 22-07-2021 01:35:00 14.4 C 11.13 g/m*3 14.4 C 0 km/h
Sensor: Nr:Datum:Temp:Abs-Feuchte:Windchill:Wind:
Aussen-T/F 2901 22-07-2021 01:40:00 14.3 C 11.06 g/m*3 14.3 C 0 km/h
2902 22-07-2021 01:45:00 14.3 C 11.06 g/m*3 14.3 C 0 km/h
2903 22-07-2021 01:50:00 14.2 C 11.11 g/m*3 14.2 C 0 km/h
2904 22-07-2021 01:55:00 14.2 C 11.11 g/m*3 14.2 C 0 km/h
2905 22-07-2021 02:00:00 14.1 C 11.04 g/m*3 14.1 C 0 km/h
2906 22-07-2021 02:05:00 14 C 10.98 g/m*3 14 C 0 km/h
2907 22-07-2021 02:10:00 13.9 C 10.91 g/m*3 13.9 C 0 km/h
2908 22-07-2021 02:15:00 13.9 C 11.03 g/m*3 13.9 C 0 km/h
2909 22-07-2021 02:20:00 13.8 C 10.96 g/m*3 13.8 C 0 km/h
2910 22-07-2021 02:25:00 13.8 C 10.96 g/m*3 13.8 C 0 km/h
2911 22-07-2021 02:30:00 13.8 C 10.96 g/m*3 13.8 C 0 km/h
2912 22-07-2021 02:35:00 13.7 C 10.89 g/m*3 13.7 C 0 km/h
2913 22-07-2021 02:40:00 13.7 C 10.89 g/m*3 13.7 C 0 km/h
2914 22-07-2021 02:45:00 13.7 C 10.89 g/m*3 13.7 C 0 km/h
2915 22-07-2021 02:50:00 13.6 C 10.95 g/m*3 13.6 C 0 km/h
2916 22-07-2021 02:55:00 13.6 C 10.95 g/m*3 13.6 C 0 km/h
2917 22-07-2021 03:00:00 13.5 C 10.88 g/m*3 13.5 C 0 km/h
2918 22-07-2021 03:05:00 13.4 C 10.81 g/m*3 13.4 C 0 km/h
2919 22-07-2021 03:10:00 13.4 C 10.81 g/m*3 13.4 C 0 km/h
2920 22-07-2021 03:15:00 13.3 C 10.74 g/m*3 13.3 C 0 km/h
2921 22-07-2021 03:20:00 13.3 C 10.74 g/m*3 13.3 C 0 km/h
2922 22-07-2021 03:25:00 13.3 C 10.74 g/m*3 13.3 C 0 km/h
2923 22-07-2021 03:30:00 13.2 C 10.68 g/m*3 13.2 C 0 km/h
2924 22-07-2021 03:35:00 13.2 C 10.68 g/m*3 13.2 C 0 km/h
2925 22-07-2021 03:40:00 13.1 C 10.61 g/m*3 13.1 C 0 km/h
Sensor: Nr:Datum:Temp:Abs-Feuchte:Windchill:Wind:
Aussen-T/F 2926 22-07-2021 03:45:00 13.1 C 10.61 g/m*3 13.1 C 0 km/h
2927 22-07-2021 03:50:00 12.9 C 10.48 g/m*3 12.9 C 0 km/h
2928 22-07-2021 03:55:00 12.9 C 10.48 g/m*3 12.9 C 0 km/h
2929 22-07-2021 04:00:00 12.8 C 10.42 g/m*3 12.8 C 0 km/h
2930 22-07-2021 04:05:00 12.8 C 10.42 g/m*3 12.8 C 0 km/h
2931 22-07-2021 04:10:00 12.8 C 10.42 g/m*3 12.8 C 0 km/h
2932 22-07-2021 04:15:00 12.7 C 10.46 g/m*3 12.7 C 0 km/h
2933 22-07-2021 04:20:00 12.7 C 10.46 g/m*3 12.7 C 0 km/h
2934 22-07-2021 04:25:00 12.7 C 10.46 g/m*3 12.7 C 0 km/h
2935 22-07-2021 04:30:00 12.7 C 10.46 g/m*3 12.7 C 0 km/h
2936 22-07-2021 04:35:00 12.7 C 10.46 g/m*3 12.7 C 0 km/h
2937 22-07-2021 04:40:00 12.8 C 10.64 g/m*3 12.8 C 0 km/h
2938 22-07-2021 04:45:00 12.8 C 10.64 g/m*3 12.8 C 0 km/h
2939 22-07-2021 04:50:00 12.8 C 10.64 g/m*3 12.8 C 0 km/h
2940 22-07-2021 04:55:00 12.9 C 10.71 g/m*3 12.9 C 0 km/h
2941 22-07-2021 05:00:00 12.9 C 10.71 g/m*3 12.9 C 0 km/h
2942 22-07-2021 05:05:00 12.9 C 10.71 g/m*3 12.9 C 0 km/h
2943 22-07-2021 05:10:00 12.8 C 10.64 g/m*3 12.8 C 0 km/h
2944 22-07-2021 05:15:00 12.8 C 10.64 g/m*3 12.8 C 0 km/h
2945 22-07-2021 05:20:00 12.8 C 10.64 g/m*3 12.8 C 0 km/h
2946 22-07-2021 05:25:00 12.8 C 10.64 g/m*3 12.8 C 0 km/h
2947 22-07-2021 05:30:00 12.8 C 10.64 g/m*3 12.8 C 0 km/h
2948 22-07-2021 05:35:00 12.8 C 10.64 g/m*3 12.8 C 0 km/h
2949 22-07-2021 05:40:00 12.9 C 10.71 g/m*3 12.9 C 0 km/h
2950 22-07-2021 05:45:00 12.9 C 10.71 g/m*3 12.9 C 0 km/h
Sensor: Nr:Datum:Temp:Abs-Feuchte:Windchill:Wind:
Aussen-T/F 2951 22-07-2021 05:50:00 12.8 C 10.64 g/m*3 12.8 C 0 km/h
2952 22-07-2021 05:55:00 12.8 C 10.64 g/m*3 12.8 C 0 km/h
2953 22-07-2021 06:00:00 12.9 C 10.71 g/m*3 12.9 C 0 km/h
2954 22-07-2021 06:05:00 12.9 C 10.71 g/m*3 12.9 C 0 km/h
2955 22-07-2021 06:10:00 12.9 C 10.71 g/m*3 12.9 C 0 km/h
2956 22-07-2021 06:15:00 12.9 C 10.71 g/m*3 12.9 C 0 km/h
2957 22-07-2021 06:20:00 13 C 10.89 g/m*3 13 C 0 km/h
2958 22-07-2021 06:25:00 13.1 C 10.84 g/m*3 13.1 C 0 km/h
2959 22-07-2021 06:30:00 13.2 C 11.02 g/m*3 13.2 C 0 km/h
2960 22-07-2021 06:35:00 13.2 C 11.02 g/m*3 13.2 C 0 km/h
2961 22-07-2021 06:40:00 13.2 C 11.02 g/m*3 13.2 C 0 km/h
2962 22-07-2021 06:45:00 13.3 C 11.09 g/m*3 13.3 C 0 km/h
2963 22-07-2021 06:50:00 13.3 C 11.09 g/m*3 13.3 C 0 km/h
2964 22-07-2021 06:55:00 13.4 C 11.16 g/m*3 13.4 C 0 km/h
2965 22-07-2021 07:00:00 13.4 C 11.16 g/m*3 13.4 C 0 km/h
2966 22-07-2021 07:05:00 13.5 C 11.23 g/m*3 13.5 C 0 km/h
2967 22-07-2021 07:10:00 13.6 C 11.3 g/m*3 13.6 C 0 km/h
2968 22-07-2021 07:15:00 13.6 C 11.18 g/m*3 13.6 C 0 km/h
2969 22-07-2021 07:20:00 13.7 C 11.37 g/m*3 13.7 C 0 km/h
2970 22-07-2021 07:25:00 13.7 C 11.37 g/m*3 13.7 C 0 km/h
2971 22-07-2021 07:30:00 13.8 C 11.32 g/m*3 13.8 C 0 km/h
2972 22-07-2021 07:35:00 13.9 C 11.39 g/m*3 13.9 C 1.6 km/h
2973 22-07-2021 07:40:00 13.9 C 11.39 g/m*3 13.9 C 1.6 km/h
2974 22-07-2021 07:45:00 14.1 C 11.53 g/m*3 14.1 C 0 km/h
2975 22-07-2021 07:50:00 14.2 C 11.6 g/m*3 14.2 C 0 km/h
Sensor: Nr:Datum:Temp:Abs-Feuchte:Windchill:Wind:
Aussen-T/F 2976 22-07-2021 07:55:00 14.3 C 11.67 g/m*3 14.3 C 3.2 km/h
2977 22-07-2021 08:00:00 14.3 C 11.67 g/m*3 14.3 C 1.6 km/h
2978 22-07-2021 08:05:00 14.4 C 11.62 g/m*3 14.4 C 0 km/h
2979 22-07-2021 08:10:00 14.4 C 11.62 g/m*3 14.4 C 0 km/h
2980 22-07-2021 08:15:00 14.5 C 11.69 g/m*3 14.5 C 0 km/h
2981 22-07-2021 08:20:00 14.6 C 11.64 g/m*3 14.6 C 0 km/h
2982 22-07-2021 08:25:00 14.7 C 11.71 g/m*3 14.7 C 0 km/h
2983 22-07-2021 08:30:00 14.8 C 11.78 g/m*3 14.8 C 0 km/h
2984 22-07-2021 08:35:00 14.9 C 11.85 g/m*3 14.9 C 0 km/h
2985 22-07-2021 08:40:00 15.1 C 12 g/m*3 15.1 C 0 km/h
2986 22-07-2021 08:45:00 15.2 C 11.94 g/m*3 15.2 C 0 km/h
2987 22-07-2021 08:50:00 15.3 C 12.01 g/m*3 15.3 C 0 km/h
2988 22-07-2021 08:55:00 15.4 C 12.09 g/m*3 15.4 C 0 km/h
2989 22-07-2021 09:00:00 15.6 C 12.37 g/m*3 15.6 C 0 km/h
2990 22-07-2021 09:05:00 15.7 C 12.44 g/m*3 15.7 C 0 km/h
2991 22-07-2021 09:10:00 15.8 C 12.52 g/m*3 15.8 C 0 km/h
2992 22-07-2021 09:15:00 15.9 C 12.59 g/m*3 15.9 C 0 km/h
2993 22-07-2021 09:20:00 16.1 C 12.75 g/m*3 16.1 C 0 km/h
2994 22-07-2021 09:25:00 16.2 C 12.82 g/m*3 16.2 C 0 km/h
2995 22-07-2021 09:30:00 16.3 C 12.9 g/m*3 16.3 C 0 km/h
2996 22-07-2021 09:35:00 16.4 C 12.98 g/m*3 16.4 C 0 km/h
2997 22-07-2021 09:40:00 16.6 C 13.14 g/m*3 16.6 C 0 km/h
2998 22-07-2021 09:45:00 16.7 C 13.22 g/m*3 16.7 C 0 km/h
2999 22-07-2021 09:50:00 16.8 C 13.3 g/m*3 16.8 C 0 km/h
3000 22-07-2021 09:55:00 16.9 C 13.23 g/m*3 16.9 C 0 km/h
Sensor: Nr:Datum:Temp:Abs-Feuchte:Windchill:Wind:
Aussen-T/F 3001 22-07-2021 10:00:00 16.9 C 13.23 g/m*3 16.9 C 0 km/h
3002 22-07-2021 10:05:00 17.1 C 13.39 g/m*3 17.1 C 0 km/h
3003 22-07-2021 10:10:00 17.2 C 13.33 g/m*3 17.2 C 0 km/h
3004 22-07-2021 10:15:00 17.3 C 13.11 g/m*3 17.3 C 0 km/h
3005 22-07-2021 10:20:00 17.4 C 13.34 g/m*3 17.4 C 0 km/h
3006 22-07-2021 10:25:00 17.6 C 13.5 g/m*3 17.6 C 0 km/h
3007 22-07-2021 10:30:00 17.7 C 13.43 g/m*3 17.7 C 0 km/h
3008 22-07-2021 10:35:00 17.9 C 13.59 g/m*3 17.9 C 0 km/h
3009 22-07-2021 10:40:00 18.2 C 13.83 g/m*3 18.2 C 0 km/h
3010 22-07-2021 10:45:00 18.3 C 13.45 g/m*3 18.3 C 0 km/h
3011 22-07-2021 10:50:00 18.5 C 13.77 g/m*3 18.5 C 0 km/h
3012 22-07-2021 10:55:00 18.7 C 13.61 g/m*3 18.7 C 0 km/h
3013 22-07-2021 11:00:00 18.8 C 13.37 g/m*3 18.8 C 0 km/h
3014 22-07-2021 11:05:00 19.1 C 13.61 g/m*3 19.1 C 0 km/h
3015 22-07-2021 11:10:00 19.3 C 13.77 g/m*3 19.3 C 0 km/h
3016 22-07-2021 11:15:00 19.6 C 14.35 g/m*3 19.6 C 0 km/h
3017 22-07-2021 11:20:00 19.6 C 13.84 g/m*3 19.6 C 0 km/h
3018 22-07-2021 11:25:00 19.7 C 13.41 g/m*3 19.7 C 3.2 km/h
3019 22-07-2021 11:30:00 19.9 C 13.57 g/m*3 19.9 C 0 km/h
3020 22-07-2021 11:35:00 20.2 C 13.81 g/m*3 20.2 C 0 km/h
3021 22-07-2021 11:40:00 20.3 C 13.19 g/m*3 20.3 C 0 km/h
3022 22-07-2021 11:45:00 20.6 C 13.6 g/m*3 20.6 C 0 km/h
3023 22-07-2021 11:50:00 20.8 C 13.4 g/m*3 20.8 C 0 km/h
3024 22-07-2021 11:55:00 20.9 C 13.3 g/m*3 20.9 C 0 km/h
3025 22-07-2021 12:00:00 21 C 12.46 g/m*3 21 C 0 km/h
Sensor: Nr:Datum:Temp:Abs-Feuchte:Windchill:Wind:
Aussen-T/F 3026 22-07-2021 12:05:00 21.2 C 13.34 g/m*3 21.2 C 0 km/h
3027 22-07-2021 12:10:00 21.3 C 12.86 g/m*3 21.3 C 0 km/h
3028 22-07-2021 12:15:00 21.5 C 12.26 g/m*3 21.5 C 0 km/h
3029 22-07-2021 12:20:00 21.7 C 12.02 g/m*3 21.7 C 0 km/h
3030 22-07-2021 12:25:00 21.8 C 12.09 g/m*3 21.8 C 3.2 km/h
3031 22-07-2021 12:30:00 22 C 12.23 g/m*3 22 C 3.2 km/h
3032 22-07-2021 12:35:00 22.2 C 12.96 g/m*3 22.2 C 0 km/h
3033 22-07-2021 12:40:00 22.3 C 13.23 g/m*3 22.3 C 0 km/h
3034 22-07-2021 12:45:00 22.3 C 12.24 g/m*3 22.3 C 0 km/h
3035 22-07-2021 12:50:00 22.3 C 12.24 g/m*3 22.3 C 0 km/h
3036 22-07-2021 12:55:00 22.5 C 12.58 g/m*3 22.5 C 4.8 km/h
3037 22-07-2021 13:00:00 22.7 C 12.12 g/m*3 22.7 C 0 km/h
3038 22-07-2021 13:05:00 22.9 C 12.06 g/m*3 22.9 C 6.4 km/h
3039 22-07-2021 13:10:00 23.1 C 12.61 g/m*3 23.1 C 6.4 km/h
3040 22-07-2021 13:15:00 23.2 C 12.27 g/m*3 23.2 C 6.4 km/h
3041 22-07-2021 13:20:00 23.4 C 11.78 g/m*3 23.4 C 6.4 km/h
3042 22-07-2021 13:25:00 23.7 C 11.55 g/m*3 23.7 C 9.7 km/h
3043 22-07-2021 13:30:00 23.9 C 12.76 g/m*3 23.9 C 6.4 km/h
3044 22-07-2021 13:35:00 24.1 C 11.82 g/m*3 24.1 C 9.7 km/h
3045 22-07-2021 13:40:00 24.1 C 11.82 g/m*3 24.1 C 6.4 km/h
3046 22-07-2021 13:45:00 24 C 11.97 g/m*3 24 C 6.4 km/h
3047 22-07-2021 13:50:00 23.9 C 11.9 g/m*3 23.9 C 4.8 km/h
3048 22-07-2021 13:55:00 23.9 C 11.9 g/m*3 23.9 C 0 km/h
3049 22-07-2021 14:00:00 23.9 C 12.33 g/m*3 23.9 C 4.8 km/h
3050 22-07-2021 14:05:00 24 C 13.05 g/m*3 24 C 4.8 km/h
Sensor: Nr:Datum:Temp:Abs-Feuchte:Windchill:Wind:
Aussen-T/F 3051 22-07-2021 14:10:00 24.1 C 12.91 g/m*3 24.1 C 4.8 km/h
3052 22-07-2021 14:15:00 24.1 C 12.25 g/m*3 24.1 C 4.8 km/h
3053 22-07-2021 14:20:00 24.4 C 12.24 g/m*3 24.4 C 12.9 km/h
3054 22-07-2021 14:25:00 24.6 C 11.93 g/m*3 24.6 C 9.7 km/h
3055 22-07-2021 14:30:00 24.6 C 12.83 g/m*3 24.6 C 6.4 km/h
3056 22-07-2021 14:35:00 24.5 C 11.86 g/m*3 24.5 C 4.8 km/h
3057 22-07-2021 14:40:00 24.4 C 12.02 g/m*3 24.4 C 4.8 km/h
3058 22-07-2021 14:45:00 24.4 C 13.13 g/m*3 24.4 C 0 km/h
3059 22-07-2021 14:50:00 24.3 C 11.73 g/m*3 24.3 C 0 km/h
3060 22-07-2021 14:55:00 24.4 C 13.35 g/m*3 24.4 C 3.2 km/h
3061 22-07-2021 15:00:00 24.7 C 12.45 g/m*3 24.7 C 3.2 km/h
3062 22-07-2021 15:05:00 24.7 C 13.13 g/m*3 24.7 C 0 km/h
3063 22-07-2021 15:10:00 24.7 C 14.03 g/m*3 24.7 C 0 km/h
3064 22-07-2021 15:15:00 24.7 C 13.81 g/m*3 24.7 C 4.8 km/h
3065 22-07-2021 15:20:00 24.7 C 13.13 g/m*3 24.7 C 4.8 km/h
3066 22-07-2021 15:25:00 24.7 C 12.45 g/m*3 24.7 C 3.2 km/h
3067 22-07-2021 15:30:00 24.8 C 13.88 g/m*3 24.8 C 1.6 km/h
3068 22-07-2021 15:35:00 24.9 C 14.65 g/m*3 24.9 C 3.2 km/h
3069 22-07-2021 15:40:00 24.9 C 13.96 g/m*3 24.9 C 0 km/h
3070 22-07-2021 15:45:00 24.8 C 12.29 g/m*3 24.8 C 9.7 km/h
3071 22-07-2021 15:50:00 24.8 C 12.29 g/m*3 24.8 C 6.4 km/h
3072 22-07-2021 15:55:00 24.8 C 12.52 g/m*3 24.8 C 0 km/h
3073 22-07-2021 16:00:00 24.8 C 13.43 g/m*3 24.8 C 6.4 km/h
3074 22-07-2021 16:05:00 24.8 C 12.52 g/m*3 24.8 C 4.8 km/h
3075 22-07-2021 16:10:00 24.8 C 12.75 g/m*3 24.8 C 6.4 km/h
Sensor: Nr:Datum:Temp:Abs-Feuchte:Windchill:Wind:
Aussen-T/F 3076 22-07-2021 16:15:00 24.9 C 14.42 g/m*3 24.9 C 3.2 km/h
3077 22-07-2021 16:20:00 24.9 C 13.73 g/m*3 24.9 C 4.8 km/h
3078 22-07-2021 16:25:00 24.9 C 12.82 g/m*3 24.9 C 6.4 km/h
3079 22-07-2021 16:30:00 25 C 12.89 g/m*3 25 C 4.8 km/h
3080 22-07-2021 16:35:00 25.4 C 13.18 g/m*3 25.4 C 4.8 km/h
3081 22-07-2021 16:40:00 25.9 C 13.07 g/m*3 25.9 C 6.4 km/h
3082 22-07-2021 16:45:00 26.2 C 12.56 g/m*3 26.2 C 6.4 km/h
3083 22-07-2021 16:50:00 26.6 C 13.34 g/m*3 26.6 C 3.2 km/h
3084 22-07-2021 16:55:00 26.9 C 12.8 g/m*3 26.9 C 4.8 km/h
3085 22-07-2021 17:00:00 27.1 C 12.42 g/m*3 27.1 C 8.1 km/h
3086 22-07-2021 17:05:00 26.8 C 12.47 g/m*3 26.8 C 6.4 km/h
3087 22-07-2021 17:10:00 26.3 C 12.63 g/m*3 26.3 C 8.1 km/h
3088 22-07-2021 17:15:00 25.9 C 12.59 g/m*3 25.9 C 6.4 km/h
3089 22-07-2021 17:20:00 25.7 C 13.17 g/m*3 25.7 C 6.4 km/h
3090 22-07-2021 17:25:00 25.6 C 14.52 g/m*3 25.6 C 0 km/h
3091 22-07-2021 17:30:00 25.3 C 14.28 g/m*3 25.3 C 1.6 km/h
3092 22-07-2021 17:35:00 25.2 C 15.13 g/m*3 25.2 C 3.2 km/h
3093 22-07-2021 17:40:00 25.1 C 15.28 g/m*3 25.1 C 1.6 km/h
3094 22-07-2021 17:45:00 25 C 15.88 g/m*3 25 C 1.6 km/h
3095 22-07-2021 17:50:00 24.9 C 16.25 g/m*3 24.9 C 0 km/h
3096 22-07-2021 17:55:00 24.9 C 16.25 g/m*3 24.9 C 0 km/h
3097 22-07-2021 18:00:00 24.8 C 15.71 g/m*3 24.8 C 1.6 km/h
3098 22-07-2021 18:05:00 24.7 C 13.35 g/m*3 24.7 C 3.2 km/h
3099 22-07-2021 18:10:00 25.2 C 13.04 g/m*3 25.2 C 8.1 km/h
3100 22-07-2021 18:15:00 25.7 C 13.65 g/m*3 25.7 C 4.8 km/h
Sensor: Nr:Datum:Temp:Abs-Feuchte:Windchill:Wind:
Aussen-T/F 3101 22-07-2021 18:20:00 26.2 C 12.8 g/m*3 26.2 C 4.8 km/h
3102 22-07-2021 18:25:00 26.6 C 13.09 g/m*3 26.6 C 4.8 km/h
3103 22-07-2021 18:30:00 26.7 C 12.4 g/m*3 26.7 C 6.4 km/h
3104 22-07-2021 18:35:00 26.7 C 12.91 g/m*3 26.7 C 8.1 km/h
3105 22-07-2021 18:40:00 26.7 C 12.91 g/m*3 26.7 C 3.2 km/h
3106 22-07-2021 18:45:00 26.7 C 13.16 g/m*3 26.7 C 4.8 km/h
3107 22-07-2021 18:50:00 26.8 C 13.24 g/m*3 26.8 C 0 km/h
3108 22-07-2021 18:55:00 26.8 C 12.22 g/m*3 26.8 C 0 km/h
3109 22-07-2021 19:00:00 26.7 C 12.91 g/m*3 26.7 C 0 km/h
3110 22-07-2021 19:05:00 26.7 C 13.67 g/m*3 26.7 C 0 km/h
3111 22-07-2021 19:10:00 26.7 C 15.44 g/m*3 26.7 C 0 km/h
3112 22-07-2021 19:15:00 26.6 C 15.1 g/m*3 26.6 C 0 km/h
3113 22-07-2021 19:20:00 26.4 C 15.43 g/m*3 26.4 C 0 km/h
3114 22-07-2021 19:25:00 26.2 C 15.76 g/m*3 26.2 C 0 km/h
3115 22-07-2021 19:30:00 26 C 15.82 g/m*3 26 C 0 km/h
3116 22-07-2021 19:35:00 25.7 C 15.32 g/m*3 25.7 C 0 km/h
3117 22-07-2021 19:40:00 25.4 C 15.07 g/m*3 25.4 C 0 km/h
3118 22-07-2021 19:45:00 25.2 C 15.13 g/m*3 25.2 C 0 km/h
3119 22-07-2021 19:50:00 24.7 C 14.71 g/m*3 24.7 C 0 km/h
3120 22-07-2021 19:55:00 24.4 C 14.91 g/m*3 24.4 C 0 km/h
3121 22-07-2021 20:00:00 24.1 C 14.66 g/m*3 24.1 C 0 km/h
3122 22-07-2021 20:05:00 23.7 C 14.54 g/m*3 23.7 C 0 km/h
3123 22-07-2021 20:10:00 23.4 C 14.72 g/m*3 23.4 C 4.8 km/h
3124 22-07-2021 20:15:00 23.1 C 14.47 g/m*3 23.1 C 3.2 km/h
3125 22-07-2021 20:20:00 22.8 C 14.43 g/m*3 22.8 C 4.8 km/h
Sensor: Nr:Datum:Temp:Abs-Feuchte:Windchill:Wind:
Aussen-T/F 3126 22-07-2021 20:25:00 22.5 C 14.18 g/m*3 22.5 C 4.8 km/h
3127 22-07-2021 20:30:00 22.2 C 13.94 g/m*3 22.2 C 6.4 km/h
3128 22-07-2021 20:35:00 21.9 C 13.89 g/m*3 21.9 C 4.8 km/h
3129 22-07-2021 20:40:00 21.7 C 13.73 g/m*3 21.7 C 8.1 km/h
3130 22-07-2021 20:45:00 21.4 C 13.5 g/m*3 21.4 C 8.1 km/h
3131 22-07-2021 20:50:00 21.2 C 13.34 g/m*3 21.2 C 6.4 km/h
3132 22-07-2021 20:55:00 21.1 C 13.63 g/m*3 21.1 C 6.4 km/h
3133 22-07-2021 21:00:00 20.8 C 13.04 g/m*3 20.8 C 6.4 km/h
3134 22-07-2021 21:05:00 20.6 C 13.24 g/m*3 20.6 C 8.1 km/h
3135 22-07-2021 21:10:00 20.3 C 13.19 g/m*3 20.3 C 6.4 km/h
3136 22-07-2021 21:15:00 20.1 C 13.04 g/m*3 20.1 C 6.4 km/h
3137 22-07-2021 21:20:00 19.9 C 13.06 g/m*3 19.9 C 6.4 km/h
3138 22-07-2021 21:25:00 19.6 C 12.83 g/m*3 19.6 C 4.8 km/h
3139 22-07-2021 21:30:00 19.4 C 12.68 g/m*3 19.4 C 4.8 km/h
3140 22-07-2021 21:35:00 19.3 C 12.94 g/m*3 19.3 C 4.8 km/h
3141 22-07-2021 21:40:00 19.1 C 12.95 g/m*3 19.1 C 1.6 km/h
3142 22-07-2021 21:45:00 18.8 C 12.88 g/m*3 18.8 C 0 km/h
3143 22-07-2021 21:50:00 18.7 C 12.97 g/m*3 18.7 C 0 km/h
3144 22-07-2021 21:55:00 18.4 C 12.74 g/m*3 18.4 C 0 km/h
3145 22-07-2021 22:00:00 18.2 C 12.59 g/m*3 18.2 C 0 km/h
3146 22-07-2021 22:05:00 18 C 12.59 g/m*3 18 C 0 km/h
3147 22-07-2021 22:10:00 17.8 C 12.6 g/m*3 17.8 C 0 km/h
3148 22-07-2021 22:15:00 17.7 C 12.67 g/m*3 17.7 C 0 km/h
3149 22-07-2021 22:20:00 17.5 C 12.52 g/m*3 17.5 C 0 km/h
3150 22-07-2021 22:25:00 17.3 C 12.37 g/m*3 17.3 C 0 km/h
Sensor: Nr:Datum:Temp:Abs-Feuchte:Windchill:Wind:
Aussen-T/F 3151 22-07-2021 22:30:00 17.3 C 12.52 g/m*3 17.3 C 0 km/h
3152 22-07-2021 22:35:00 17.1 C 12.37 g/m*3 17.1 C 0 km/h
3153 22-07-2021 22:40:00 17 C 12.3 g/m*3 17 C 0 km/h
3154 22-07-2021 22:45:00 16.9 C 12.37 g/m*3 16.9 C 0 km/h
3155 22-07-2021 22:50:00 16.8 C 12.3 g/m*3 16.8 C 0 km/h
3156 22-07-2021 22:55:00 16.7 C 12.22 g/m*3 16.7 C 0 km/h
3157 22-07-2021 23:00:00 16.6 C 12.15 g/m*3 16.6 C 0 km/h
3158 22-07-2021 23:05:00 16.6 C 12.29 g/m*3 16.6 C 0 km/h
3159 22-07-2021 23:10:00 16.6 C 12.29 g/m*3 16.6 C 0 km/h
3160 22-07-2021 23:15:00 16.5 C 12.22 g/m*3 16.5 C 0 km/h
3161 22-07-2021 23:20:00 16.5 C 12.22 g/m*3 16.5 C 0 km/h
3162 22-07-2021 23:25:00 16.5 C 12.36 g/m*3 16.5 C 0 km/h
3163 22-07-2021 23:30:00 16.6 C 12.43 g/m*3 16.6 C 0 km/h
3164 22-07-2021 23:35:00 16.6 C 12.43 g/m*3 16.6 C 0 km/h
3165 22-07-2021 23:40:00 16.6 C 12.43 g/m*3 16.6 C 0 km/h
3166 22-07-2021 23:45:00 16.7 C 12.51 g/m*3 16.7 C 0 km/h
3167 22-07-2021 23:50:00 16.6 C 12.43 g/m*3 16.6 C 0 km/h
3168 22-07-2021 23:55:00 16.6 C 12.43 g/m*3 16.6 C 0 km/h
3169 23-07-2021 00:00:00 16.5 C 12.36 g/m*3 16.5 C 0 km/h
3170 23-07-2021 00:05:00 16.4 C 12.28 g/m*3 16.4 C 0 km/h
3171 23-07-2021 00:10:00 16.4 C 12.28 g/m*3 16.4 C 0 km/h
3172 23-07-2021 00:15:00 16.4 C 12.28 g/m*3 16.4 C 0 km/h
3173 23-07-2021 00:20:00 16.4 C 12.28 g/m*3 16.4 C 0 km/h
3174 23-07-2021 00:25:00 16.4 C 12.28 g/m*3 16.4 C 0 km/h
3175 23-07-2021 00:30:00 16.4 C 12.28 g/m*3 16.4 C 0 km/h
Sensor: Nr:Datum:Temp:Abs-Feuchte:Windchill:Wind:
Aussen-T/F 3176 23-07-2021 00:35:00 16.4 C 12.28 g/m*3 16.4 C 0 km/h
3177 23-07-2021 00:40:00 16.4 C 12.42 g/m*3 16.4 C 0 km/h
3178 23-07-2021 00:45:00 16.4 C 12.42 g/m*3 16.4 C 0 km/h
3179 23-07-2021 00:50:00 16.4 C 12.42 g/m*3 16.4 C 0 km/h
3180 23-07-2021 00:55:00 16.4 C 12.42 g/m*3 16.4 C 0 km/h
3181 23-07-2021 01:00:00 16.5 C 12.5 g/m*3 16.5 C 0 km/h
3182 23-07-2021 01:05:00 16.5 C 12.64 g/m*3 16.5 C 0 km/h
3183 23-07-2021 01:10:00 16.5 C 12.64 g/m*3 16.5 C 0 km/h
3184 23-07-2021 01:15:00 16.5 C 12.64 g/m*3 16.5 C 0 km/h
3185 23-07-2021 01:20:00 16.4 C 12.42 g/m*3 16.4 C 0 km/h
3186 23-07-2021 01:25:00 16.3 C 12.35 g/m*3 16.3 C 0 km/h
3187 23-07-2021 01:30:00 16.2 C 12.27 g/m*3 16.2 C 0 km/h
3188 23-07-2021 01:35:00 16.1 C 12.2 g/m*3 16.1 C 0 km/h
3189 23-07-2021 01:40:00 16 C 12.26 g/m*3 16 C 0 km/h
3190 23-07-2021 01:45:00 15.9 C 12.19 g/m*3 15.9 C 0 km/h
3191 23-07-2021 01:50:00 15.9 C 12.19 g/m*3 15.9 C 0 km/h
3192 23-07-2021 01:55:00 15.8 C 12.11 g/m*3 15.8 C 0 km/h
3193 23-07-2021 02:00:00 15.8 C 12.25 g/m*3 15.8 C 0 km/h
3194 23-07-2021 02:05:00 15.7 C 12.18 g/m*3 15.7 C 0 km/h
3195 23-07-2021 02:10:00 15.6 C 12.1 g/m*3 15.6 C 0 km/h
3196 23-07-2021 02:15:00 15.5 C 12.03 g/m*3 15.5 C 0 km/h
3197 23-07-2021 02:20:00 15.4 C 11.96 g/m*3 15.4 C 0 km/h
3198 23-07-2021 02:25:00 15.3 C 11.88 g/m*3 15.3 C 0 km/h
3199 23-07-2021 02:30:00 15.3 C 12.01 g/m*3 15.3 C 3.2 km/h
3200 23-07-2021 02:35:00 15.3 C 12.01 g/m*3 15.3 C 0 km/h
Sensor: Nr:Datum:Temp:Abs-Feuchte:Windchill:Wind:
Aussen-T/F 3201 23-07-2021 02:40:00 15.2 C 11.94 g/m*3 15.2 C